<?xml version="1.0" encoding="UTF-8" standalone="no" ?>
<gpx xmlns="http://www.topografix.com/GPX/1/1" xmlns:xsi="http://www.w3.org/2001/XMLSchema-instance" xsi:schemaLocation="http://www.topografix.com/GPX/1/1 http://www.topografix.com/GPX/1/1/gpx.xsd" version="1.1" creator="VisuGPX - https://www.visugpx.com">
  <metadata>
    <name>Parcours du 2020-09-15 10:17:51</name>
  </metadata>
  <trk>
    <name><![CDATA[Parcours du 2020-09-15 10:17:51]]></name>
    <desc><![CDATA[]]></desc>
    <trkseg>
      <trkpt lat="48.63821" lon="2.07139">
        <ele>217</ele>
        <time>2020-09-15T08:18:25.000Z</time>
      </trkpt>
      <trkpt lat="48.63827" lon="2.07146">
        <ele>217.9</ele>
        <time>2020-09-15T08:18:52.000Z</time>
      </trkpt>
      <trkpt lat="48.63818" lon="2.07148">
        <ele>217</ele>
        <time>2020-09-15T08:19:04.000Z</time>
      </trkpt>
      <trkpt lat="48.63813" lon="2.07145">
        <ele>217.9</ele>
        <time>2020-09-15T08:19:10.000Z</time>
      </trkpt>
      <trkpt lat="48.63809" lon="2.07141">
        <ele>217.9</ele>
        <time>2020-09-15T08:19:12.464Z</time>
      </trkpt>
      <trkpt lat="48.638" lon="2.07135">
        <ele>217.9</ele>
        <time>2020-09-15T08:19:19.000Z</time>
      </trkpt>
      <trkpt lat="48.63791" lon="2.07127">
        <ele>217.9</ele>
        <time>2020-09-15T08:19:28.544Z</time>
      </trkpt>
      <trkpt lat="48.63783" lon="2.07126">
        <ele>217.9</ele>
        <time>2020-09-15T08:19:34.000Z</time>
      </trkpt>
      <trkpt lat="48.63773" lon="2.0712">
        <ele>217.9</ele>
        <time>2020-09-15T08:19:40.000Z</time>
      </trkpt>
      <trkpt lat="48.63769" lon="2.07114">
        <ele>217.9</ele>
        <time>2020-09-15T08:19:46.000Z</time>
      </trkpt>
      <trkpt lat="48.63762" lon="2.07106">
        <ele>217.9</ele>
        <time>2020-09-15T08:19:55.000Z</time>
      </trkpt>
      <trkpt lat="48.63755" lon="2.07101">
        <ele>217.9</ele>
        <time>2020-09-15T08:20:01.000Z</time>
      </trkpt>
      <trkpt lat="48.6375" lon="2.07098">
        <ele>217.9</ele>
        <time>2020-09-15T08:20:04.000Z</time>
      </trkpt>
      <trkpt lat="48.63759" lon="2.07093">
        <ele>220.6</ele>
        <time>2020-09-15T08:20:13.000Z</time>
      </trkpt>
      <trkpt lat="48.63752" lon="2.07086">
        <ele>221.4</ele>
        <time>2020-09-15T08:20:22.000Z</time>
      </trkpt>
      <trkpt lat="48.63746" lon="2.0708">
        <ele>222.8</ele>
        <time>2020-09-15T08:20:28.000Z</time>
      </trkpt>
      <trkpt lat="48.6374" lon="2.07073">
        <ele>221</ele>
        <time>2020-09-15T08:20:34.000Z</time>
      </trkpt>
      <trkpt lat="48.63735" lon="2.07071">
        <ele>224.5</ele>
        <time>2020-09-15T08:20:37.000Z</time>
      </trkpt>
      <trkpt lat="48.6373" lon="2.0707">
        <ele>224.1</ele>
        <time>2020-09-15T08:20:39.332Z</time>
      </trkpt>
      <trkpt lat="48.63725" lon="2.07068">
        <ele>220</ele>
        <time>2020-09-15T08:20:55.894Z</time>
      </trkpt>
      <trkpt lat="48.6372" lon="2.0706">
        <ele>215.8</ele>
        <time>2020-09-15T08:21:04.000Z</time>
      </trkpt>
      <trkpt lat="48.63716" lon="2.07045">
        <ele>220.3</ele>
        <time>2020-09-15T08:21:13.000Z</time>
      </trkpt>
      <trkpt lat="48.63711" lon="2.0704">
        <ele>220.6</ele>
        <time>2020-09-15T08:21:17.533Z</time>
      </trkpt>
      <trkpt lat="48.63705" lon="2.07038">
        <ele>222.9</ele>
        <time>2020-09-15T08:21:22.000Z</time>
      </trkpt>
      <trkpt lat="48.63696" lon="2.07034">
        <ele>222.1</ele>
        <time>2020-09-15T08:21:28.000Z</time>
      </trkpt>
      <trkpt lat="48.63687" lon="2.07028">
        <ele>222</ele>
        <time>2020-09-15T08:21:34.000Z</time>
      </trkpt>
      <trkpt lat="48.63683" lon="2.07023">
        <ele>216.2</ele>
        <time>2020-09-15T08:21:37.000Z</time>
      </trkpt>
      <trkpt lat="48.63679" lon="2.07007">
        <ele>218.2</ele>
        <time>2020-09-15T08:21:44.493Z</time>
      </trkpt>
      <trkpt lat="48.63675" lon="2.07004">
        <ele>216.6</ele>
        <time>2020-09-15T08:21:49.000Z</time>
      </trkpt>
      <trkpt lat="48.63667" lon="2.07004">
        <ele>218.2</ele>
        <time>2020-09-15T08:21:55.289Z</time>
      </trkpt>
      <trkpt lat="48.63661" lon="2.06997">
        <ele>217.5</ele>
        <time>2020-09-15T08:22:07.000Z</time>
      </trkpt>
      <trkpt lat="48.63655" lon="2.06994">
        <ele>214.2</ele>
        <time>2020-09-15T08:22:16.000Z</time>
      </trkpt>
      <trkpt lat="48.63648" lon="2.06986">
        <ele>206.8</ele>
        <time>2020-09-15T08:22:22.180Z</time>
      </trkpt>
      <trkpt lat="48.6364" lon="2.06983">
        <ele>214.6</ele>
        <time>2020-09-15T08:22:28.000Z</time>
      </trkpt>
      <trkpt lat="48.63632" lon="2.06982">
        <ele>215.5</ele>
        <time>2020-09-15T08:22:34.000Z</time>
      </trkpt>
      <trkpt lat="48.63627" lon="2.06978">
        <ele>215.6</ele>
        <time>2020-09-15T08:22:38.198Z</time>
      </trkpt>
      <trkpt lat="48.63623" lon="2.06972">
        <ele>212.3</ele>
        <time>2020-09-15T08:22:43.000Z</time>
      </trkpt>
      <trkpt lat="48.6362" lon="2.06968">
        <ele>212.7</ele>
        <time>2020-09-15T08:22:46.000Z</time>
      </trkpt>
      <trkpt lat="48.63615" lon="2.06965">
        <ele>214.3</ele>
        <time>2020-09-15T08:22:48.985Z</time>
      </trkpt>
      <trkpt lat="48.63611" lon="2.06963">
        <ele>217.5</ele>
        <time>2020-09-15T08:22:55.000Z</time>
      </trkpt>
      <trkpt lat="48.63605" lon="2.06959">
        <ele>213.4</ele>
        <time>2020-09-15T08:23:01.000Z</time>
      </trkpt>
      <trkpt lat="48.63599" lon="2.06956">
        <ele>213.1</ele>
        <time>2020-09-15T08:23:05.140Z</time>
      </trkpt>
      <trkpt lat="48.63593" lon="2.0694">
        <ele>211.6</ele>
        <time>2020-09-15T08:23:16.000Z</time>
      </trkpt>
      <trkpt lat="48.63582" lon="2.06935">
        <ele>214.6</ele>
        <time>2020-09-15T08:23:22.000Z</time>
      </trkpt>
      <trkpt lat="48.63576" lon="2.06931">
        <ele>215</ele>
        <time>2020-09-15T08:23:25.000Z</time>
      </trkpt>
      <trkpt lat="48.6357" lon="2.06925">
        <ele>219.7</ele>
        <time>2020-09-15T08:23:28.000Z</time>
      </trkpt>
      <trkpt lat="48.63566" lon="2.06921">
        <ele>218.5</ele>
        <time>2020-09-15T08:23:31.842Z</time>
      </trkpt>
      <trkpt lat="48.63562" lon="2.06918">
        <ele>218.8</ele>
        <time>2020-09-15T08:23:37.000Z</time>
      </trkpt>
      <trkpt lat="48.63556" lon="2.06914">
        <ele>217.2</ele>
        <time>2020-09-15T08:23:43.536Z</time>
      </trkpt>
      <trkpt lat="48.63551" lon="2.06911">
        <ele>217.4</ele>
        <time>2020-09-15T08:23:49.000Z</time>
      </trkpt>
      <trkpt lat="48.63544" lon="2.06904">
        <ele>218.3</ele>
        <time>2020-09-15T08:23:55.000Z</time>
      </trkpt>
      <trkpt lat="48.63538" lon="2.06894">
        <ele>220.8</ele>
        <time>2020-09-15T08:24:04.000Z</time>
      </trkpt>
      <trkpt lat="48.63531" lon="2.06885">
        <ele>224.7</ele>
        <time>2020-09-15T08:24:10.287Z</time>
      </trkpt>
      <trkpt lat="48.63524" lon="2.0688">
        <ele>222.8</ele>
        <time>2020-09-15T08:24:16.000Z</time>
      </trkpt>
      <trkpt lat="48.63519" lon="2.06868">
        <ele>217.5</ele>
        <time>2020-09-15T08:24:25.000Z</time>
      </trkpt>
      <trkpt lat="48.63513" lon="2.0686">
        <ele>216.2</ele>
        <time>2020-09-15T08:24:31.654Z</time>
      </trkpt>
      <trkpt lat="48.63507" lon="2.06845">
        <ele>209.9</ele>
        <time>2020-09-15T08:24:40.000Z</time>
      </trkpt>
      <trkpt lat="48.63501" lon="2.0684">
        <ele>209.6</ele>
        <time>2020-09-15T08:24:43.558Z</time>
      </trkpt>
      <trkpt lat="48.63495" lon="2.06836">
        <ele>209.7</ele>
        <time>2020-09-15T08:24:49.000Z</time>
      </trkpt>
      <trkpt lat="48.63492" lon="2.0683">
        <ele>216.1</ele>
        <time>2020-09-15T08:24:55.000Z</time>
      </trkpt>
      <trkpt lat="48.63487" lon="2.06818">
        <ele>216.2</ele>
        <time>2020-09-15T08:24:59.613Z</time>
      </trkpt>
      <trkpt lat="48.63485" lon="2.06803">
        <ele>210.1</ele>
        <time>2020-09-15T08:25:04.000Z</time>
      </trkpt>
      <trkpt lat="48.6348" lon="2.06787">
        <ele>207.9</ele>
        <time>2020-09-15T08:25:10.000Z</time>
      </trkpt>
      <trkpt lat="48.63478" lon="2.06779">
        <ele>207.9</ele>
        <time>2020-09-15T08:25:13.000Z</time>
      </trkpt>
      <trkpt lat="48.63468" lon="2.06777">
        <ele>210.6</ele>
        <time>2020-09-15T08:25:22.000Z</time>
      </trkpt>
      <trkpt lat="48.63457" lon="2.06771">
        <ele>207.2</ele>
        <time>2020-09-15T08:25:31.000Z</time>
      </trkpt>
      <trkpt lat="48.63454" lon="2.06765">
        <ele>205.8</ele>
        <time>2020-09-15T08:25:37.000Z</time>
      </trkpt>
      <trkpt lat="48.63451" lon="2.06757">
        <ele>205.8</ele>
        <time>2020-09-15T08:25:43.578Z</time>
      </trkpt>
      <trkpt lat="48.6345" lon="2.06749">
        <ele>202.8</ele>
        <time>2020-09-15T08:25:59.656Z</time>
      </trkpt>
      <trkpt lat="48.63446" lon="2.06742">
        <ele>204.8</ele>
        <time>2020-09-15T08:26:04.000Z</time>
      </trkpt>
      <trkpt lat="48.63438" lon="2.06733">
        <ele>202.3</ele>
        <time>2020-09-15T08:26:10.000Z</time>
      </trkpt>
      <trkpt lat="48.63434" lon="2.06729">
        <ele>204.4</ele>
        <time>2020-09-15T08:26:13.000Z</time>
      </trkpt>
      <trkpt lat="48.63425" lon="2.06722">
        <ele>197.4</ele>
        <time>2020-09-15T08:26:22.000Z</time>
      </trkpt>
      <trkpt lat="48.6342" lon="2.06719">
        <ele>199.3</ele>
        <time>2020-09-15T08:26:25.000Z</time>
      </trkpt>
      <trkpt lat="48.63413" lon="2.06718">
        <ele>201.6</ele>
        <time>2020-09-15T08:26:28.000Z</time>
      </trkpt>
      <trkpt lat="48.63406" lon="2.06718">
        <ele>204.1</ele>
        <time>2020-09-15T08:26:31.669Z</time>
      </trkpt>
      <trkpt lat="48.63401" lon="2.06717">
        <ele>204.6</ele>
        <time>2020-09-15T08:26:37.000Z</time>
      </trkpt>
      <trkpt lat="48.63395" lon="2.06718">
        <ele>202.9</ele>
        <time>2020-09-15T08:26:43.000Z</time>
      </trkpt>
      <trkpt lat="48.63389" lon="2.06719">
        <ele>202.2</ele>
        <time>2020-09-15T08:26:45.829Z</time>
      </trkpt>
      <trkpt lat="48.63382" lon="2.06724">
        <ele>201.7</ele>
        <time>2020-09-15T08:26:52.000Z</time>
      </trkpt>
      <trkpt lat="48.63375" lon="2.06724">
        <ele>204.4</ele>
        <time>2020-09-15T08:26:58.000Z</time>
      </trkpt>
      <trkpt lat="48.63369" lon="2.06724">
        <ele>203.1</ele>
        <time>2020-09-15T08:27:01.833Z</time>
      </trkpt>
      <trkpt lat="48.63365" lon="2.06727">
        <ele>204.9</ele>
        <time>2020-09-15T08:27:07.000Z</time>
      </trkpt>
      <trkpt lat="48.63373" lon="2.06729">
        <ele>201.4</ele>
        <time>2020-09-15T08:27:19.000Z</time>
      </trkpt>
      <trkpt lat="48.63367" lon="2.06726">
        <ele>203.7</ele>
        <time>2020-09-15T08:27:41.000Z</time>
      </trkpt>
      <trkpt lat="48.63372" lon="2.06729">
        <ele>207.2</ele>
        <time>2020-09-15T08:27:57.509Z</time>
      </trkpt>
      <trkpt lat="48.63377" lon="2.06726">
        <ele>202.3</ele>
        <time>2020-09-15T08:28:17.000Z</time>
      </trkpt>
      <trkpt lat="48.63372" lon="2.06725">
        <ele>201.6</ele>
        <time>2020-09-15T08:28:43.859Z</time>
      </trkpt>
      <trkpt lat="48.63365" lon="2.06722">
        <ele>199</ele>
        <time>2020-09-15T08:28:50.066Z</time>
      </trkpt>
      <trkpt lat="48.6336" lon="2.06722">
        <ele>196.2</ele>
        <time>2020-09-15T08:28:53.727Z</time>
      </trkpt>
      <trkpt lat="48.63351" lon="2.06727">
        <ele>198.2</ele>
        <time>2020-09-15T08:28:59.967Z</time>
      </trkpt>
      <trkpt lat="48.63346" lon="2.06729">
        <ele>196.6</ele>
        <time>2020-09-15T08:29:02.979Z</time>
      </trkpt>
      <trkpt lat="48.63338" lon="2.06732">
        <ele>196.4</ele>
        <time>2020-09-15T08:29:09.130Z</time>
      </trkpt>
      <trkpt lat="48.63333" lon="2.06733">
        <ele>196.6</ele>
        <time>2020-09-15T08:29:12.865Z</time>
      </trkpt>
      <trkpt lat="48.63326" lon="2.06735">
        <ele>197.1</ele>
        <time>2020-09-15T08:29:19.169Z</time>
      </trkpt>
      <trkpt lat="48.63317" lon="2.06735">
        <ele>200.2</ele>
        <time>2020-09-15T08:29:27.000Z</time>
      </trkpt>
      <trkpt lat="48.6331" lon="2.06734">
        <ele>200.7</ele>
        <time>2020-09-15T08:29:32.641Z</time>
      </trkpt>
      <trkpt lat="48.63304" lon="2.06734">
        <ele>197.9</ele>
        <time>2020-09-15T08:29:38.968Z</time>
      </trkpt>
      <trkpt lat="48.63297" lon="2.06734">
        <ele>199.9</ele>
        <time>2020-09-15T08:29:45.464Z</time>
      </trkpt>
      <trkpt lat="48.6329" lon="2.06733">
        <ele>199.2</ele>
        <time>2020-09-15T08:29:51.661Z</time>
      </trkpt>
      <trkpt lat="48.63283" lon="2.0673">
        <ele>201.4</ele>
        <time>2020-09-15T08:29:57.847Z</time>
      </trkpt>
      <trkpt lat="48.63276" lon="2.06729">
        <ele>201.1</ele>
        <time>2020-09-15T08:30:04.072Z</time>
      </trkpt>
      <trkpt lat="48.63269" lon="2.06728">
        <ele>203.2</ele>
        <time>2020-09-15T08:30:10.828Z</time>
      </trkpt>
      <trkpt lat="48.63264" lon="2.06729">
        <ele>202.6</ele>
        <time>2020-09-15T08:30:13.920Z</time>
      </trkpt>
      <trkpt lat="48.6326" lon="2.06731">
        <ele>201</ele>
        <time>2020-09-15T08:30:17.032Z</time>
      </trkpt>
      <trkpt lat="48.63256" lon="2.06733">
        <ele>199.6</ele>
        <time>2020-09-15T08:30:20.129Z</time>
      </trkpt>
      <trkpt lat="48.63251" lon="2.06735">
        <ele>198.4</ele>
        <time>2020-09-15T08:30:23.229Z</time>
      </trkpt>
      <trkpt lat="48.63246" lon="2.06738">
        <ele>199.5</ele>
        <time>2020-09-15T08:30:26.821Z</time>
      </trkpt>
      <trkpt lat="48.6324" lon="2.06741">
        <ele>197.8</ele>
        <time>2020-09-15T08:30:32.967Z</time>
      </trkpt>
      <trkpt lat="48.63232" lon="2.06739">
        <ele>197.8</ele>
        <time>2020-09-15T08:30:39.168Z</time>
      </trkpt>
      <trkpt lat="48.63223" lon="2.06738">
        <ele>199.9</ele>
        <time>2020-09-15T08:30:45.928Z</time>
      </trkpt>
      <trkpt lat="48.63217" lon="2.06739">
        <ele>200.9</ele>
        <time>2020-09-15T08:30:51.000Z</time>
      </trkpt>
      <trkpt lat="48.63208" lon="2.06742">
        <ele>198.9</ele>
        <time>2020-09-15T08:30:56.988Z</time>
      </trkpt>
      <trkpt lat="48.63199" lon="2.06739">
        <ele>198.7</ele>
        <time>2020-09-15T08:31:03.989Z</time>
      </trkpt>
      <trkpt lat="48.63192" lon="2.06738">
        <ele>196.6</ele>
        <time>2020-09-15T08:31:11.000Z</time>
      </trkpt>
      <trkpt lat="48.63185" lon="2.06737">
        <ele>201.2</ele>
        <time>2020-09-15T08:31:16.289Z</time>
      </trkpt>
      <trkpt lat="48.63178" lon="2.06737">
        <ele>199.7</ele>
        <time>2020-09-15T08:31:23.063Z</time>
      </trkpt>
      <trkpt lat="48.6317" lon="2.06738">
        <ele>195.1</ele>
        <time>2020-09-15T08:31:29.894Z</time>
      </trkpt>
      <trkpt lat="48.63162" lon="2.06737">
        <ele>194.7</ele>
        <time>2020-09-15T08:31:36.082Z</time>
      </trkpt>
      <trkpt lat="48.63157" lon="2.06737">
        <ele>195.4</ele>
        <time>2020-09-15T08:31:39.840Z</time>
      </trkpt>
      <trkpt lat="48.63153" lon="2.06734">
        <ele>197.2</ele>
        <time>2020-09-15T08:31:54.000Z</time>
      </trkpt>
      <trkpt lat="48.63148" lon="2.06736">
        <ele>188.6</ele>
        <time>2020-09-15T08:32:25.848Z</time>
      </trkpt>
      <trkpt lat="48.63141" lon="2.06737">
        <ele>192.8</ele>
        <time>2020-09-15T08:32:32.010Z</time>
      </trkpt>
      <trkpt lat="48.63134" lon="2.06739">
        <ele>196.5</ele>
        <time>2020-09-15T08:32:38.265Z</time>
      </trkpt>
      <trkpt lat="48.63127" lon="2.0674">
        <ele>194.3</ele>
        <time>2020-09-15T08:32:41.805Z</time>
      </trkpt>
      <trkpt lat="48.63119" lon="2.06739">
        <ele>192.4</ele>
        <time>2020-09-15T08:32:47.990Z</time>
      </trkpt>
      <trkpt lat="48.6311" lon="2.06739">
        <ele>192.9</ele>
        <time>2020-09-15T08:32:54.604Z</time>
      </trkpt>
      <trkpt lat="48.63103" lon="2.06735">
        <ele>195</ele>
        <time>2020-09-15T08:33:02.000Z</time>
      </trkpt>
      <trkpt lat="48.63095" lon="2.06734">
        <ele>188.9</ele>
        <time>2020-09-15T08:33:07.587Z</time>
      </trkpt>
      <trkpt lat="48.63087" lon="2.06734">
        <ele>185.9</ele>
        <time>2020-09-15T08:33:13.721Z</time>
      </trkpt>
      <trkpt lat="48.63081" lon="2.06735">
        <ele>185.3</ele>
        <time>2020-09-15T08:33:16.865Z</time>
      </trkpt>
      <trkpt lat="48.63076" lon="2.06736">
        <ele>191.3</ele>
        <time>2020-09-15T08:33:19.930Z</time>
      </trkpt>
      <trkpt lat="48.63072" lon="2.06739">
        <ele>195.8</ele>
        <time>2020-09-15T08:33:23.045Z</time>
      </trkpt>
      <trkpt lat="48.63066" lon="2.06743">
        <ele>198.6</ele>
        <time>2020-09-15T08:33:26.148Z</time>
      </trkpt>
      <trkpt lat="48.63062" lon="2.06746">
        <ele>198.9</ele>
        <time>2020-09-15T08:33:29.223Z</time>
      </trkpt>
      <trkpt lat="48.63055" lon="2.06751">
        <ele>204.4</ele>
        <time>2020-09-15T08:33:35.945Z</time>
      </trkpt>
      <trkpt lat="48.6305" lon="2.06753">
        <ele>205.2</ele>
        <time>2020-09-15T08:33:39.027Z</time>
      </trkpt>
      <trkpt lat="48.63044" lon="2.06753">
        <ele>206</ele>
        <time>2020-09-15T08:33:45.264Z</time>
      </trkpt>
      <trkpt lat="48.63038" lon="2.06753">
        <ele>207.1</ele>
        <time>2020-09-15T08:33:51.847Z</time>
      </trkpt>
      <trkpt lat="48.63033" lon="2.06749">
        <ele>206.9</ele>
        <time>2020-09-15T08:33:58.767Z</time>
      </trkpt>
      <trkpt lat="48.63025" lon="2.06747">
        <ele>205.9</ele>
        <time>2020-09-15T08:34:05.029Z</time>
      </trkpt>
      <trkpt lat="48.63019" lon="2.06746">
        <ele>208.9</ele>
        <time>2020-09-15T08:34:11.595Z</time>
      </trkpt>
      <trkpt lat="48.63013" lon="2.06747">
        <ele>211.7</ele>
        <time>2020-09-15T08:34:17.817Z</time>
      </trkpt>
      <trkpt lat="48.63006" lon="2.06748">
        <ele>181.7</ele>
        <time>2020-09-15T08:34:23.973Z</time>
      </trkpt>
      <trkpt lat="48.62998" lon="2.0675">
        <ele>197.3</ele>
        <time>2020-09-15T08:34:30.692Z</time>
      </trkpt>
      <trkpt lat="48.6299" lon="2.0675">
        <ele>205.6</ele>
        <time>2020-09-15T08:34:36.969Z</time>
      </trkpt>
      <trkpt lat="48.62985" lon="2.0675">
        <ele>203.6</ele>
        <time>2020-09-15T08:34:39.995Z</time>
      </trkpt>
      <trkpt lat="48.62978" lon="2.06747">
        <ele>204.7</ele>
        <time>2020-09-15T08:34:46.160Z</time>
      </trkpt>
      <trkpt lat="48.62973" lon="2.06745">
        <ele>204.5</ele>
        <time>2020-09-15T08:34:49.754Z</time>
      </trkpt>
      <trkpt lat="48.62965" lon="2.06744">
        <ele>205.7</ele>
        <time>2020-09-15T08:34:56.060Z</time>
      </trkpt>
      <trkpt lat="48.62956" lon="2.06744">
        <ele>205</ele>
        <time>2020-09-15T08:35:02.461Z</time>
      </trkpt>
      <trkpt lat="48.62951" lon="2.06749">
        <ele>204.5</ele>
        <time>2020-09-15T08:35:09.233Z</time>
      </trkpt>
      <trkpt lat="48.62947" lon="2.06753">
        <ele>199</ele>
        <time>2020-09-15T08:35:15.678Z</time>
      </trkpt>
      <trkpt lat="48.62943" lon="2.0675">
        <ele>199.8</ele>
        <time>2020-09-15T08:35:19.022Z</time>
      </trkpt>
      <trkpt lat="48.62938" lon="2.06748">
        <ele>199.9</ele>
        <time>2020-09-15T08:35:22.737Z</time>
      </trkpt>
      <trkpt lat="48.62931" lon="2.0675">
        <ele>200.6</ele>
        <time>2020-09-15T08:35:29.130Z</time>
      </trkpt>
      <trkpt lat="48.62923" lon="2.06755">
        <ele>188.1</ele>
        <time>2020-09-15T08:35:35.880Z</time>
      </trkpt>
      <trkpt lat="48.62917" lon="2.06754">
        <ele>190.4</ele>
        <time>2020-09-15T08:35:39.073Z</time>
      </trkpt>
      <trkpt lat="48.62912" lon="2.06748">
        <ele>192</ele>
        <time>2020-09-15T08:35:42.197Z</time>
      </trkpt>
      <trkpt lat="48.62907" lon="2.06741">
        <ele>194.5</ele>
        <time>2020-09-15T08:35:45.321Z</time>
      </trkpt>
      <trkpt lat="48.62901" lon="2.06735">
        <ele>197.4</ele>
        <time>2020-09-15T08:35:48.434Z</time>
      </trkpt>
      <trkpt lat="48.62897" lon="2.06728">
        <ele>198.6</ele>
        <time>2020-09-15T08:35:51.578Z</time>
      </trkpt>
      <trkpt lat="48.62889" lon="2.06726">
        <ele>199</ele>
        <time>2020-09-15T08:35:57.816Z</time>
      </trkpt>
      <trkpt lat="48.6288" lon="2.0673">
        <ele>200.8</ele>
        <time>2020-09-15T08:36:04.112Z</time>
      </trkpt>
      <trkpt lat="48.62873" lon="2.06735">
        <ele>198.1</ele>
        <time>2020-09-15T08:36:10.802Z</time>
      </trkpt>
      <trkpt lat="48.62867" lon="2.06734">
        <ele>200.1</ele>
        <time>2020-09-15T08:36:17.488Z</time>
      </trkpt>
      <trkpt lat="48.62861" lon="2.06736">
        <ele>200</ele>
        <time>2020-09-15T08:36:24.047Z</time>
      </trkpt>
      <trkpt lat="48.62856" lon="2.06741">
        <ele>200.5</ele>
        <time>2020-09-15T08:36:30.707Z</time>
      </trkpt>
      <trkpt lat="48.62852" lon="2.06744">
        <ele>199.9</ele>
        <time>2020-09-15T08:36:33.783Z</time>
      </trkpt>
      <trkpt lat="48.62843" lon="2.06748">
        <ele>191.3</ele>
        <time>2020-09-15T08:36:39.803Z</time>
      </trkpt>
      <trkpt lat="48.62836" lon="2.06752">
        <ele>190.1</ele>
        <time>2020-09-15T08:36:47.000Z</time>
      </trkpt>
      <trkpt lat="48.62831" lon="2.06755">
        <ele>186</ele>
        <time>2020-09-15T08:36:49.846Z</time>
      </trkpt>
      <trkpt lat="48.62825" lon="2.06759">
        <ele>185.3</ele>
        <time>2020-09-15T08:36:56.006Z</time>
      </trkpt>
      <trkpt lat="48.62817" lon="2.06762">
        <ele>184.4</ele>
        <time>2020-09-15T08:37:02.344Z</time>
      </trkpt>
      <trkpt lat="48.62808" lon="2.06765">
        <ele>192.5</ele>
        <time>2020-09-15T08:37:08.810Z</time>
      </trkpt>
      <trkpt lat="48.62802" lon="2.06769">
        <ele>188.9</ele>
        <time>2020-09-15T08:37:17.041Z</time>
      </trkpt>
      <trkpt lat="48.62796" lon="2.06769">
        <ele>200.5</ele>
        <time>2020-09-15T08:37:26.521Z</time>
      </trkpt>
      <trkpt lat="48.62791" lon="2.06775">
        <ele>200.5</ele>
        <time>2020-09-15T08:37:33.125Z</time>
      </trkpt>
      <trkpt lat="48.62782" lon="2.06784">
        <ele>198.1</ele>
        <time>2020-09-15T08:37:39.726Z</time>
      </trkpt>
      <trkpt lat="48.62775" lon="2.0679">
        <ele>197.6</ele>
        <time>2020-09-15T08:37:45.833Z</time>
      </trkpt>
      <trkpt lat="48.62769" lon="2.06796">
        <ele>200.6</ele>
        <time>2020-09-15T08:37:53.000Z</time>
      </trkpt>
      <trkpt lat="48.62763" lon="2.06799">
        <ele>176.2</ele>
        <time>2020-09-15T08:38:02.229Z</time>
      </trkpt>
      <trkpt lat="48.62755" lon="2.06803">
        <ele>189.4</ele>
        <time>2020-09-15T08:38:08.710Z</time>
      </trkpt>
      <trkpt lat="48.62747" lon="2.06808">
        <ele>192.9</ele>
        <time>2020-09-15T08:38:15.183Z</time>
      </trkpt>
      <trkpt lat="48.62742" lon="2.06811">
        <ele>191.4</ele>
        <time>2020-09-15T08:38:18.667Z</time>
      </trkpt>
      <trkpt lat="48.62737" lon="2.06814">
        <ele>189.6</ele>
        <time>2020-09-15T08:38:22.625Z</time>
      </trkpt>
      <trkpt lat="48.6273" lon="2.06818">
        <ele>188.5</ele>
        <time>2020-09-15T08:38:28.642Z</time>
      </trkpt>
      <trkpt lat="48.62726" lon="2.06821">
        <ele>191.9</ele>
        <time>2020-09-15T08:38:31.649Z</time>
      </trkpt>
      <trkpt lat="48.62721" lon="2.06823">
        <ele>191.5</ele>
        <time>2020-09-15T08:38:34.672Z</time>
      </trkpt>
      <trkpt lat="48.62713" lon="2.06827">
        <ele>190.9</ele>
        <time>2020-09-15T08:38:40.765Z</time>
      </trkpt>
      <trkpt lat="48.62706" lon="2.06835">
        <ele>190.4</ele>
        <time>2020-09-15T08:38:48.088Z</time>
      </trkpt>
      <trkpt lat="48.627" lon="2.06837">
        <ele>191.3</ele>
        <time>2020-09-15T08:38:54.265Z</time>
      </trkpt>
      <trkpt lat="48.62694" lon="2.0684">
        <ele>191.2</ele>
        <time>2020-09-15T08:38:57.772Z</time>
      </trkpt>
      <trkpt lat="48.62685" lon="2.06846">
        <ele>197.1</ele>
        <time>2020-09-15T08:39:04.723Z</time>
      </trkpt>
      <trkpt lat="48.6268" lon="2.06851">
        <ele>198.8</ele>
        <time>2020-09-15T08:39:08.270Z</time>
      </trkpt>
      <trkpt lat="48.62675" lon="2.06854">
        <ele>199.6</ele>
        <time>2020-09-15T08:39:11.689Z</time>
      </trkpt>
      <trkpt lat="48.62667" lon="2.0686">
        <ele>200.4</ele>
        <time>2020-09-15T08:39:17.791Z</time>
      </trkpt>
      <trkpt lat="48.62659" lon="2.06864">
        <ele>199.3</ele>
        <time>2020-09-15T08:39:24.749Z</time>
      </trkpt>
      <trkpt lat="48.62652" lon="2.06868">
        <ele>187.7</ele>
        <time>2020-09-15T08:39:31.247Z</time>
      </trkpt>
      <trkpt lat="48.62647" lon="2.06871">
        <ele>189.4</ele>
        <time>2020-09-15T08:39:35.171Z</time>
      </trkpt>
      <trkpt lat="48.6264" lon="2.06874">
        <ele>207.1</ele>
        <time>2020-09-15T08:39:39.638Z</time>
      </trkpt>
      <trkpt lat="48.62632" lon="2.06878">
        <ele>197.5</ele>
        <time>2020-09-15T08:39:46.612Z</time>
      </trkpt>
      <trkpt lat="48.62624" lon="2.06879">
        <ele>203.6</ele>
        <time>2020-09-15T08:39:53.154Z</time>
      </trkpt>
      <trkpt lat="48.62616" lon="2.06879">
        <ele>205.3</ele>
        <time>2020-09-15T08:39:59.193Z</time>
      </trkpt>
      <trkpt lat="48.62609" lon="2.06884">
        <ele>205.5</ele>
        <time>2020-09-15T08:40:05.297Z</time>
      </trkpt>
      <trkpt lat="48.626" lon="2.0689">
        <ele>205.4</ele>
        <time>2020-09-15T08:40:11.820Z</time>
      </trkpt>
      <trkpt lat="48.62594" lon="2.06894">
        <ele>204.4</ele>
        <time>2020-09-15T08:40:17.940Z</time>
      </trkpt>
      <trkpt lat="48.62587" lon="2.06897">
        <ele>195.6</ele>
        <time>2020-09-15T08:40:27.813Z</time>
      </trkpt>
      <trkpt lat="48.62581" lon="2.069">
        <ele>198.7</ele>
        <time>2020-09-15T08:40:34.690Z</time>
      </trkpt>
      <trkpt lat="48.62574" lon="2.06906">
        <ele>204.4</ele>
        <time>2020-09-15T08:40:40.919Z</time>
      </trkpt>
      <trkpt lat="48.62568" lon="2.06911">
        <ele>206.3</ele>
        <time>2020-09-15T08:40:46.985Z</time>
      </trkpt>
      <trkpt lat="48.62562" lon="2.06917">
        <ele>200.9</ele>
        <time>2020-09-15T08:40:53.042Z</time>
      </trkpt>
      <trkpt lat="48.62555" lon="2.06923">
        <ele>206.5</ele>
        <time>2020-09-15T08:40:59.377Z</time>
      </trkpt>
      <trkpt lat="48.62548" lon="2.06927">
        <ele>200.8</ele>
        <time>2020-09-15T08:41:05.593Z</time>
      </trkpt>
      <trkpt lat="48.62539" lon="2.06931">
        <ele>193.6</ele>
        <time>2020-09-15T08:41:11.711Z</time>
      </trkpt>
      <trkpt lat="48.62535" lon="2.06933">
        <ele>193.3</ele>
        <time>2020-09-15T08:41:14.777Z</time>
      </trkpt>
      <trkpt lat="48.62527" lon="2.06934">
        <ele>203.1</ele>
        <time>2020-09-15T08:41:21.324Z</time>
      </trkpt>
      <trkpt lat="48.62522" lon="2.06938">
        <ele>201.6</ele>
        <time>2020-09-15T08:41:32.000Z</time>
      </trkpt>
      <trkpt lat="48.62515" lon="2.06947">
        <ele>195</ele>
        <time>2020-09-15T08:41:45.138Z</time>
      </trkpt>
      <trkpt lat="48.62509" lon="2.06949">
        <ele>203.4</ele>
        <time>2020-09-15T08:41:52.501Z</time>
      </trkpt>
      <trkpt lat="48.62504" lon="2.06951">
        <ele>208.4</ele>
        <time>2020-09-15T08:41:56.120Z</time>
      </trkpt>
      <trkpt lat="48.62497" lon="2.06956">
        <ele>207.1</ele>
        <time>2020-09-15T08:42:02.279Z</time>
      </trkpt>
      <trkpt lat="48.62491" lon="2.06963">
        <ele>212</ele>
        <time>2020-09-15T08:42:08.420Z</time>
      </trkpt>
      <trkpt lat="48.6249" lon="2.0697">
        <ele>206.3</ele>
        <time>2020-09-15T08:42:11.564Z</time>
      </trkpt>
      <trkpt lat="48.62489" lon="2.06981">
        <ele>202</ele>
        <time>2020-09-15T08:42:17.738Z</time>
      </trkpt>
      <trkpt lat="48.62489" lon="2.06993">
        <ele>206.4</ele>
        <time>2020-09-15T08:42:23.875Z</time>
      </trkpt>
      <trkpt lat="48.62489" lon="2.07001">
        <ele>201.8</ele>
        <time>2020-09-15T08:42:27.392Z</time>
      </trkpt>
      <trkpt lat="48.6249" lon="2.07008">
        <ele>201.9</ele>
        <time>2020-09-15T08:42:30.496Z</time>
      </trkpt>
      <trkpt lat="48.62492" lon="2.07014">
        <ele>199.2</ele>
        <time>2020-09-15T08:42:33.648Z</time>
      </trkpt>
      <trkpt lat="48.62494" lon="2.07027">
        <ele>202.3</ele>
        <time>2020-09-15T08:42:41.000Z</time>
      </trkpt>
      <trkpt lat="48.62493" lon="2.07034">
        <ele>205.7</ele>
        <time>2020-09-15T08:42:46.978Z</time>
      </trkpt>
      <trkpt lat="48.62495" lon="2.07042">
        <ele>205.6</ele>
        <time>2020-09-15T08:42:53.854Z</time>
      </trkpt>
      <trkpt lat="48.62495" lon="2.07054">
        <ele>205.5</ele>
        <time>2020-09-15T08:43:00.137Z</time>
      </trkpt>
      <trkpt lat="48.62495" lon="2.07064">
        <ele>206.7</ele>
        <time>2020-09-15T08:43:06.399Z</time>
      </trkpt>
      <trkpt lat="48.62494" lon="2.07072">
        <ele>199.3</ele>
        <time>2020-09-15T08:43:14.000Z</time>
      </trkpt>
      <trkpt lat="48.62493" lon="2.07084">
        <ele>199</ele>
        <time>2020-09-15T08:43:25.918Z</time>
      </trkpt>
      <trkpt lat="48.62494" lon="2.07092">
        <ele>198.7</ele>
        <time>2020-09-15T08:43:29.010Z</time>
      </trkpt>
      <trkpt lat="48.62495" lon="2.07104">
        <ele>200.4</ele>
        <time>2020-09-15T08:43:35.219Z</time>
      </trkpt>
      <trkpt lat="48.62496" lon="2.07118">
        <ele>202</ele>
        <time>2020-09-15T08:43:41.308Z</time>
      </trkpt>
      <trkpt lat="48.62495" lon="2.0713">
        <ele>202.5</ele>
        <time>2020-09-15T08:43:48.028Z</time>
      </trkpt>
      <trkpt lat="48.62495" lon="2.07138">
        <ele>202.2</ele>
        <time>2020-09-15T08:43:51.179Z</time>
      </trkpt>
      <trkpt lat="48.62495" lon="2.07145">
        <ele>203.8</ele>
        <time>2020-09-15T08:43:54.278Z</time>
      </trkpt>
      <trkpt lat="48.62496" lon="2.07158">
        <ele>202.4</ele>
        <time>2020-09-15T08:44:00.475Z</time>
      </trkpt>
      <trkpt lat="48.62495" lon="2.07171">
        <ele>200.1</ele>
        <time>2020-09-15T08:44:06.678Z</time>
      </trkpt>
      <trkpt lat="48.62494" lon="2.07184">
        <ele>201.9</ele>
        <time>2020-09-15T08:44:12.920Z</time>
      </trkpt>
      <trkpt lat="48.62492" lon="2.07196">
        <ele>202.7</ele>
        <time>2020-09-15T08:44:19.655Z</time>
      </trkpt>
      <trkpt lat="48.62489" lon="2.07207">
        <ele>197.7</ele>
        <time>2020-09-15T08:44:26.338Z</time>
      </trkpt>
      <trkpt lat="48.62483" lon="2.07213">
        <ele>213</ele>
        <time>2020-09-15T08:44:32.997Z</time>
      </trkpt>
      <trkpt lat="48.62477" lon="2.07216">
        <ele>213</ele>
        <time>2020-09-15T08:44:39.134Z</time>
      </trkpt>
      <trkpt lat="48.6247" lon="2.07222">
        <ele>213</ele>
        <time>2020-09-15T08:44:45.359Z</time>
      </trkpt>
      <trkpt lat="48.62463" lon="2.07229">
        <ele>212.6</ele>
        <time>2020-09-15T08:44:51.558Z</time>
      </trkpt>
      <trkpt lat="48.62457" lon="2.07237">
        <ele>212.6</ele>
        <time>2020-09-15T08:44:57.778Z</time>
      </trkpt>
      <trkpt lat="48.62453" lon="2.07242">
        <ele>212.6</ele>
        <time>2020-09-15T08:45:01.276Z</time>
      </trkpt>
      <trkpt lat="48.62447" lon="2.07249">
        <ele>211.9</ele>
        <time>2020-09-15T08:45:07.495Z</time>
      </trkpt>
      <trkpt lat="48.62442" lon="2.0726">
        <ele>211.9</ele>
        <time>2020-09-15T08:45:13.734Z</time>
      </trkpt>
      <trkpt lat="48.62441" lon="2.07267">
        <ele>212.9</ele>
        <time>2020-09-15T08:45:17.378Z</time>
      </trkpt>
      <trkpt lat="48.6244" lon="2.07274">
        <ele>212.9</ele>
        <time>2020-09-15T08:45:20.481Z</time>
      </trkpt>
      <trkpt lat="48.62439" lon="2.07282">
        <ele>212.9</ele>
        <time>2020-09-15T08:45:23.519Z</time>
      </trkpt>
      <trkpt lat="48.62438" lon="2.07288">
        <ele>212.9</ele>
        <time>2020-09-15T08:45:26.631Z</time>
      </trkpt>
      <trkpt lat="48.62437" lon="2.07301">
        <ele>212.2</ele>
        <time>2020-09-15T08:45:32.749Z</time>
      </trkpt>
      <trkpt lat="48.62435" lon="2.07314">
        <ele>212.2</ele>
        <time>2020-09-15T08:45:38.959Z</time>
      </trkpt>
      <trkpt lat="48.62428" lon="2.07322">
        <ele>212.2</ele>
        <time>2020-09-15T08:45:45.077Z</time>
      </trkpt>
      <trkpt lat="48.62422" lon="2.07329">
        <ele>212.2</ele>
        <time>2020-09-15T08:45:51.348Z</time>
      </trkpt>
      <trkpt lat="48.62418" lon="2.07338">
        <ele>212.2</ele>
        <time>2020-09-15T08:45:57.533Z</time>
      </trkpt>
      <trkpt lat="48.62415" lon="2.07348">
        <ele>212.2</ele>
        <time>2020-09-15T08:46:03.716Z</time>
      </trkpt>
      <trkpt lat="48.62413" lon="2.07359">
        <ele>211.7</ele>
        <time>2020-09-15T08:46:09.852Z</time>
      </trkpt>
      <trkpt lat="48.62413" lon="2.0737">
        <ele>211.7</ele>
        <time>2020-09-15T08:46:16.056Z</time>
      </trkpt>
      <trkpt lat="48.62412" lon="2.07379">
        <ele>211.7</ele>
        <time>2020-09-15T08:46:19.698Z</time>
      </trkpt>
      <trkpt lat="48.62413" lon="2.07386">
        <ele>211.7</ele>
        <time>2020-09-15T08:46:22.828Z</time>
      </trkpt>
      <trkpt lat="48.62411" lon="2.07397">
        <ele>211.7</ele>
        <time>2020-09-15T08:46:29.095Z</time>
      </trkpt>
      <trkpt lat="48.62411" lon="2.07408">
        <ele>211.7</ele>
        <time>2020-09-15T08:46:35.918Z</time>
      </trkpt>
      <trkpt lat="48.62411" lon="2.07415">
        <ele>211.7</ele>
        <time>2020-09-15T08:46:39.120Z</time>
      </trkpt>
      <trkpt lat="48.62413" lon="2.07427">
        <ele>211.7</ele>
        <time>2020-09-15T08:46:45.418Z</time>
      </trkpt>
      <trkpt lat="48.62414" lon="2.07439">
        <ele>211.7</ele>
        <time>2020-09-15T08:46:51.692Z</time>
      </trkpt>
      <trkpt lat="48.62415" lon="2.0745">
        <ele>210.4</ele>
        <time>2020-09-15T08:46:57.952Z</time>
      </trkpt>
      <trkpt lat="48.62416" lon="2.07461">
        <ele>211.7</ele>
        <time>2020-09-15T08:47:04.239Z</time>
      </trkpt>
      <trkpt lat="48.62411" lon="2.07469">
        <ele>210.4</ele>
        <time>2020-09-15T08:47:10.651Z</time>
      </trkpt>
      <trkpt lat="48.62405" lon="2.07471">
        <ele>210.4</ele>
        <time>2020-09-15T08:47:14.211Z</time>
      </trkpt>
      <trkpt lat="48.62401" lon="2.07471">
        <ele>210.4</ele>
        <time>2020-09-15T08:47:17.294Z</time>
      </trkpt>
      <trkpt lat="48.62396" lon="2.0747">
        <ele>210.4</ele>
        <time>2020-09-15T08:47:20.422Z</time>
      </trkpt>
      <trkpt lat="48.62388" lon="2.07466">
        <ele>210.4</ele>
        <time>2020-09-15T08:47:26.757Z</time>
      </trkpt>
      <trkpt lat="48.62383" lon="2.07462">
        <ele>210.4</ele>
        <time>2020-09-15T08:48:02.562Z</time>
      </trkpt>
      <trkpt lat="48.62376" lon="2.07457">
        <ele>210.4</ele>
        <time>2020-09-15T08:48:08.808Z</time>
      </trkpt>
      <trkpt lat="48.62372" lon="2.07454">
        <ele>210.4</ele>
        <time>2020-09-15T08:48:12.320Z</time>
      </trkpt>
      <trkpt lat="48.62364" lon="2.07447">
        <ele>210.4</ele>
        <time>2020-09-15T08:48:18.896Z</time>
      </trkpt>
      <trkpt lat="48.62357" lon="2.0744">
        <ele>210.4</ele>
        <time>2020-09-15T08:48:24.974Z</time>
      </trkpt>
      <trkpt lat="48.62352" lon="2.07436">
        <ele>210.4</ele>
        <time>2020-09-15T08:48:28.442Z</time>
      </trkpt>
      <trkpt lat="48.62348" lon="2.07432">
        <ele>210.4</ele>
        <time>2020-09-15T08:48:31.476Z</time>
      </trkpt>
      <trkpt lat="48.62341" lon="2.07426">
        <ele>210.4</ele>
        <time>2020-09-15T08:48:38.139Z</time>
      </trkpt>
      <trkpt lat="48.62337" lon="2.07422">
        <ele>210.4</ele>
        <time>2020-09-15T08:48:41.638Z</time>
      </trkpt>
      <trkpt lat="48.62329" lon="2.07415">
        <ele>210.4</ele>
        <time>2020-09-15T08:48:48.151Z</time>
      </trkpt>
      <trkpt lat="48.62322" lon="2.07409">
        <ele>210.4</ele>
        <time>2020-09-15T08:48:54.214Z</time>
      </trkpt>
      <trkpt lat="48.62317" lon="2.07404">
        <ele>210.4</ele>
        <time>2020-09-15T08:49:00.481Z</time>
      </trkpt>
      <trkpt lat="48.62312" lon="2.07399">
        <ele>210.4</ele>
        <time>2020-09-15T08:49:06.578Z</time>
      </trkpt>
      <trkpt lat="48.62305" lon="2.07396">
        <ele>210.4</ele>
        <time>2020-09-15T08:49:12.777Z</time>
      </trkpt>
      <trkpt lat="48.62299" lon="2.0739">
        <ele>198.8</ele>
        <time>2020-09-15T08:49:20.000Z</time>
      </trkpt>
      <trkpt lat="48.62293" lon="2.07379">
        <ele>201.4</ele>
        <time>2020-09-15T08:49:25.758Z</time>
      </trkpt>
      <trkpt lat="48.62288" lon="2.07376">
        <ele>198.4</ele>
        <time>2020-09-15T08:49:32.855Z</time>
      </trkpt>
      <trkpt lat="48.62293" lon="2.07373">
        <ele>197.1</ele>
        <time>2020-09-15T08:49:42.401Z</time>
      </trkpt>
      <trkpt lat="48.62285" lon="2.0737">
        <ele>199.1</ele>
        <time>2020-09-15T08:49:52.913Z</time>
      </trkpt>
      <trkpt lat="48.62281" lon="2.07373">
        <ele>199.1</ele>
        <time>2020-09-15T08:49:56.492Z</time>
      </trkpt>
      <trkpt lat="48.62274" lon="2.07377">
        <ele>200</ele>
        <time>2020-09-15T08:50:02.819Z</time>
      </trkpt>
      <trkpt lat="48.62266" lon="2.07382">
        <ele>196.1</ele>
        <time>2020-09-15T08:50:09.538Z</time>
      </trkpt>
      <trkpt lat="48.62261" lon="2.07385">
        <ele>196.4</ele>
        <time>2020-09-15T08:50:14.000Z</time>
      </trkpt>
      <trkpt lat="48.62256" lon="2.07387">
        <ele>197.6</ele>
        <time>2020-09-15T08:50:16.258Z</time>
      </trkpt>
      <trkpt lat="48.6225" lon="2.07388">
        <ele>198</ele>
        <time>2020-09-15T08:50:19.855Z</time>
      </trkpt>
      <trkpt lat="48.62244" lon="2.07389">
        <ele>198.5</ele>
        <time>2020-09-15T08:50:22.985Z</time>
      </trkpt>
      <trkpt lat="48.62239" lon="2.07388">
        <ele>197.9</ele>
        <time>2020-09-15T08:50:26.152Z</time>
      </trkpt>
      <trkpt lat="48.62235" lon="2.07387">
        <ele>199.5</ele>
        <time>2020-09-15T08:50:29.335Z</time>
      </trkpt>
      <trkpt lat="48.62226" lon="2.07382">
        <ele>200.7</ele>
        <time>2020-09-15T08:50:35.876Z</time>
      </trkpt>
      <trkpt lat="48.62219" lon="2.07378">
        <ele>207</ele>
        <time>2020-09-15T08:50:42.411Z</time>
      </trkpt>
      <trkpt lat="48.62212" lon="2.07376">
        <ele>210.5</ele>
        <time>2020-09-15T08:50:50.000Z</time>
      </trkpt>
      <trkpt lat="48.62207" lon="2.07379">
        <ele>212.4</ele>
        <time>2020-09-15T08:50:56.008Z</time>
      </trkpt>
      <trkpt lat="48.62202" lon="2.07376">
        <ele>212.2</ele>
        <time>2020-09-15T08:51:02.445Z</time>
      </trkpt>
      <trkpt lat="48.62195" lon="2.07376">
        <ele>215.5</ele>
        <time>2020-09-15T08:51:09.026Z</time>
      </trkpt>
      <trkpt lat="48.62187" lon="2.07376">
        <ele>218.3</ele>
        <time>2020-09-15T08:51:15.895Z</time>
      </trkpt>
      <trkpt lat="48.62181" lon="2.07375">
        <ele>218.7</ele>
        <time>2020-09-15T08:51:23.693Z</time>
      </trkpt>
      <trkpt lat="48.62181" lon="2.07366">
        <ele>217</ele>
        <time>2020-09-15T08:51:30.194Z</time>
      </trkpt>
      <trkpt lat="48.62174" lon="2.0736">
        <ele>212.7</ele>
        <time>2020-09-15T08:51:36.411Z</time>
      </trkpt>
      <trkpt lat="48.6217" lon="2.07355">
        <ele>211.8</ele>
        <time>2020-09-15T08:51:39.596Z</time>
      </trkpt>
      <trkpt lat="48.62166" lon="2.07349">
        <ele>212.5</ele>
        <time>2020-09-15T08:51:45.934Z</time>
      </trkpt>
      <trkpt lat="48.62161" lon="2.07343">
        <ele>212.1</ele>
        <time>2020-09-15T08:51:52.240Z</time>
      </trkpt>
      <trkpt lat="48.62154" lon="2.07341">
        <ele>216</ele>
        <time>2020-09-15T08:51:58.517Z</time>
      </trkpt>
      <trkpt lat="48.62148" lon="2.07341">
        <ele>208.6</ele>
        <time>2020-09-15T08:52:04.877Z</time>
      </trkpt>
      <trkpt lat="48.62143" lon="2.07341">
        <ele>208.5</ele>
        <time>2020-09-15T08:52:08.018Z</time>
      </trkpt>
      <trkpt lat="48.62133" lon="2.07339">
        <ele>213.8</ele>
        <time>2020-09-15T08:52:14.835Z</time>
      </trkpt>
      <trkpt lat="48.62129" lon="2.07339">
        <ele>213.8</ele>
        <time>2020-09-15T08:52:17.999Z</time>
      </trkpt>
      <trkpt lat="48.6212" lon="2.0734">
        <ele>211.6</ele>
        <time>2020-09-15T08:52:24.258Z</time>
      </trkpt>
      <trkpt lat="48.62116" lon="2.07338">
        <ele>207.2</ele>
        <time>2020-09-15T08:52:30.553Z</time>
      </trkpt>
      <trkpt lat="48.62112" lon="2.07335">
        <ele>216.1</ele>
        <time>2020-09-15T08:52:49.553Z</time>
      </trkpt>
      <trkpt lat="48.62106" lon="2.07337">
        <ele>218.4</ele>
        <time>2020-09-15T08:52:55.886Z</time>
      </trkpt>
      <trkpt lat="48.621" lon="2.0734">
        <ele>218.1</ele>
        <time>2020-09-15T08:53:02.158Z</time>
      </trkpt>
      <trkpt lat="48.62094" lon="2.07342">
        <ele>218.2</ele>
        <time>2020-09-15T08:53:08.374Z</time>
      </trkpt>
      <trkpt lat="48.62089" lon="2.07343">
        <ele>195.6</ele>
        <time>2020-09-15T08:53:14.681Z</time>
      </trkpt>
      <trkpt lat="48.62084" lon="2.07345">
        <ele>204.9</ele>
        <time>2020-09-15T08:53:20.998Z</time>
      </trkpt>
      <trkpt lat="48.62078" lon="2.07347">
        <ele>199.1</ele>
        <time>2020-09-15T08:53:24.130Z</time>
      </trkpt>
      <trkpt lat="48.6207" lon="2.0735">
        <ele>199.4</ele>
        <time>2020-09-15T08:53:27.760Z</time>
      </trkpt>
      <trkpt lat="48.62062" lon="2.07352">
        <ele>208.5</ele>
        <time>2020-09-15T08:53:34.118Z</time>
      </trkpt>
      <trkpt lat="48.62054" lon="2.07355">
        <ele>210.1</ele>
        <time>2020-09-15T08:53:40.450Z</time>
      </trkpt>
      <trkpt lat="48.62049" lon="2.07358">
        <ele>208</ele>
        <time>2020-09-15T08:53:43.634Z</time>
      </trkpt>
      <trkpt lat="48.62044" lon="2.0736">
        <ele>208.3</ele>
        <time>2020-09-15T08:53:46.816Z</time>
      </trkpt>
      <trkpt lat="48.62038" lon="2.07361">
        <ele>209.1</ele>
        <time>2020-09-15T08:53:49.978Z</time>
      </trkpt>
      <trkpt lat="48.6203" lon="2.07363">
        <ele>210.5</ele>
        <time>2020-09-15T08:53:56.239Z</time>
      </trkpt>
      <trkpt lat="48.62026" lon="2.07366">
        <ele>210.8</ele>
        <time>2020-09-15T08:53:59.875Z</time>
      </trkpt>
      <trkpt lat="48.62017" lon="2.07372">
        <ele>208.6</ele>
        <time>2020-09-15T08:54:06.243Z</time>
      </trkpt>
      <trkpt lat="48.62013" lon="2.07375">
        <ele>208.6</ele>
        <time>2020-09-15T08:54:09.412Z</time>
      </trkpt>
      <trkpt lat="48.62007" lon="2.07381">
        <ele>213.1</ele>
        <time>2020-09-15T08:54:15.757Z</time>
      </trkpt>
      <trkpt lat="48.62003" lon="2.07385">
        <ele>217.7</ele>
        <time>2020-09-15T08:54:18.877Z</time>
      </trkpt>
      <trkpt lat="48.61998" lon="2.07388">
        <ele>215.6</ele>
        <time>2020-09-15T08:54:22.034Z</time>
      </trkpt>
      <trkpt lat="48.61992" lon="2.07395">
        <ele>219.6</ele>
        <time>2020-09-15T08:54:28.373Z</time>
      </trkpt>
      <trkpt lat="48.61988" lon="2.07404">
        <ele>217.8</ele>
        <time>2020-09-15T08:54:34.639Z</time>
      </trkpt>
      <trkpt lat="48.61981" lon="2.07416">
        <ele>213</ele>
        <time>2020-09-15T08:54:40.765Z</time>
      </trkpt>
      <trkpt lat="48.61975" lon="2.07422">
        <ele>210.7</ele>
        <time>2020-09-15T08:54:46.922Z</time>
      </trkpt>
      <trkpt lat="48.6197" lon="2.07432">
        <ele>210.3</ele>
        <time>2020-09-15T08:54:53.603Z</time>
      </trkpt>
      <trkpt lat="48.61965" lon="2.07441">
        <ele>211.1</ele>
        <time>2020-09-15T08:55:00.211Z</time>
      </trkpt>
      <trkpt lat="48.61962" lon="2.07448">
        <ele>207.7</ele>
        <time>2020-09-15T08:55:06.911Z</time>
      </trkpt>
      <trkpt lat="48.61959" lon="2.07453">
        <ele>211.2</ele>
        <time>2020-09-15T08:55:13.051Z</time>
      </trkpt>
      <trkpt lat="48.61956" lon="2.07461">
        <ele>212.7</ele>
        <time>2020-09-15T08:55:19.228Z</time>
      </trkpt>
      <trkpt lat="48.61951" lon="2.07472">
        <ele>217.7</ele>
        <time>2020-09-15T08:55:25.441Z</time>
      </trkpt>
      <trkpt lat="48.61946" lon="2.07482">
        <ele>207.1</ele>
        <time>2020-09-15T08:55:31.641Z</time>
      </trkpt>
      <trkpt lat="48.6194" lon="2.07491">
        <ele>205.3</ele>
        <time>2020-09-15T08:55:38.070Z</time>
      </trkpt>
      <trkpt lat="48.61942" lon="2.07506">
        <ele>207.7</ele>
        <time>2020-09-15T08:55:45.576Z</time>
      </trkpt>
      <trkpt lat="48.61941" lon="2.07515">
        <ele>202.2</ele>
        <time>2020-09-15T08:55:53.000Z</time>
      </trkpt>
      <trkpt lat="48.61939" lon="2.07523">
        <ele>207.3</ele>
        <time>2020-09-15T08:56:07.774Z</time>
      </trkpt>
      <trkpt lat="48.61938" lon="2.07533">
        <ele>207.6</ele>
        <time>2020-09-15T08:56:13.992Z</time>
      </trkpt>
      <trkpt lat="48.61936" lon="2.07539">
        <ele>208.3</ele>
        <time>2020-09-15T08:56:17.524Z</time>
      </trkpt>
      <trkpt lat="48.61933" lon="2.07551">
        <ele>204.3</ele>
        <time>2020-09-15T08:56:24.495Z</time>
      </trkpt>
      <trkpt lat="48.61934" lon="2.07561">
        <ele>208.6</ele>
        <time>2020-09-15T08:56:30.677Z</time>
      </trkpt>
      <trkpt lat="48.61932" lon="2.07573">
        <ele>205.9</ele>
        <time>2020-09-15T08:56:36.815Z</time>
      </trkpt>
      <trkpt lat="48.6193" lon="2.0758">
        <ele>206.1</ele>
        <time>2020-09-15T08:56:39.879Z</time>
      </trkpt>
      <trkpt lat="48.61927" lon="2.07591">
        <ele>205</ele>
        <time>2020-09-15T08:56:46.020Z</time>
      </trkpt>
      <trkpt lat="48.61922" lon="2.07599">
        <ele>212.5</ele>
        <time>2020-09-15T08:56:53.000Z</time>
      </trkpt>
      <trkpt lat="48.61918" lon="2.07607">
        <ele>211.3</ele>
        <time>2020-09-15T08:56:55.675Z</time>
      </trkpt>
      <trkpt lat="48.61912" lon="2.07616">
        <ele>215.2</ele>
        <time>2020-09-15T08:57:01.813Z</time>
      </trkpt>
      <trkpt lat="48.61907" lon="2.07624">
        <ele>216.1</ele>
        <time>2020-09-15T08:57:08.015Z</time>
      </trkpt>
      <trkpt lat="48.61901" lon="2.07634">
        <ele>216.6</ele>
        <time>2020-09-15T08:57:14.234Z</time>
      </trkpt>
      <trkpt lat="48.61898" lon="2.07639">
        <ele>216.5</ele>
        <time>2020-09-15T08:57:17.438Z</time>
      </trkpt>
      <trkpt lat="48.61893" lon="2.07649">
        <ele>215.5</ele>
        <time>2020-09-15T08:57:23.900Z</time>
      </trkpt>
      <trkpt lat="48.61888" lon="2.07658">
        <ele>218</ele>
        <time>2020-09-15T08:57:30.194Z</time>
      </trkpt>
      <trkpt lat="48.61885" lon="2.07665">
        <ele>216</ele>
        <time>2020-09-15T08:57:33.342Z</time>
      </trkpt>
      <trkpt lat="48.61879" lon="2.07674">
        <ele>212.8</ele>
        <time>2020-09-15T08:57:39.577Z</time>
      </trkpt>
      <trkpt lat="48.61875" lon="2.07681">
        <ele>212.3</ele>
        <time>2020-09-15T08:57:45.816Z</time>
      </trkpt>
      <trkpt lat="48.61872" lon="2.07689">
        <ele>212.1</ele>
        <time>2020-09-15T08:57:52.001Z</time>
      </trkpt>
      <trkpt lat="48.6187" lon="2.07703">
        <ele>213.3</ele>
        <time>2020-09-15T08:57:58.312Z</time>
      </trkpt>
      <trkpt lat="48.61866" lon="2.07717">
        <ele>213.5</ele>
        <time>2020-09-15T08:58:04.469Z</time>
      </trkpt>
      <trkpt lat="48.61864" lon="2.07725">
        <ele>218.7</ele>
        <time>2020-09-15T08:58:08.058Z</time>
      </trkpt>
      <trkpt lat="48.61862" lon="2.07736">
        <ele>212.3</ele>
        <time>2020-09-15T08:58:17.233Z</time>
      </trkpt>
      <trkpt lat="48.6186" lon="2.07748">
        <ele>212.9</ele>
        <time>2020-09-15T08:58:23.311Z</time>
      </trkpt>
      <trkpt lat="48.61859" lon="2.07755">
        <ele>212.3</ele>
        <time>2020-09-15T08:58:26.839Z</time>
      </trkpt>
      <trkpt lat="48.61856" lon="2.07766">
        <ele>208.6</ele>
        <time>2020-09-15T08:58:32.980Z</time>
      </trkpt>
      <trkpt lat="48.61853" lon="2.07775">
        <ele>163.6</ele>
        <time>2020-09-15T08:58:39.096Z</time>
      </trkpt>
      <trkpt lat="48.61851" lon="2.07786">
        <ele>178.2</ele>
        <time>2020-09-15T08:58:45.160Z</time>
      </trkpt>
      <trkpt lat="48.61848" lon="2.07796">
        <ele>190.4</ele>
        <time>2020-09-15T08:58:51.337Z</time>
      </trkpt>
      <trkpt lat="48.61844" lon="2.07807">
        <ele>194.1</ele>
        <time>2020-09-15T08:58:57.399Z</time>
      </trkpt>
      <trkpt lat="48.6184" lon="2.07815">
        <ele>194.4</ele>
        <time>2020-09-15T08:59:04.511Z</time>
      </trkpt>
      <trkpt lat="48.61835" lon="2.07823">
        <ele>202.2</ele>
        <time>2020-09-15T08:59:10.577Z</time>
      </trkpt>
      <trkpt lat="48.61832" lon="2.07829">
        <ele>206.4</ele>
        <time>2020-09-15T08:59:14.158Z</time>
      </trkpt>
      <trkpt lat="48.61827" lon="2.07836">
        <ele>210.4</ele>
        <time>2020-09-15T08:59:20.310Z</time>
      </trkpt>
      <trkpt lat="48.61823" lon="2.07839">
        <ele>211</ele>
        <time>2020-09-15T08:59:23.413Z</time>
      </trkpt>
      <trkpt lat="48.61819" lon="2.07842">
        <ele>209.6</ele>
        <time>2020-09-15T08:59:26.523Z</time>
      </trkpt>
      <trkpt lat="48.61815" lon="2.07847">
        <ele>209</ele>
        <time>2020-09-15T08:59:29.611Z</time>
      </trkpt>
      <trkpt lat="48.6181" lon="2.07852">
        <ele>212.4</ele>
        <time>2020-09-15T08:59:33.258Z</time>
      </trkpt>
      <trkpt lat="48.61804" lon="2.07862">
        <ele>213.3</ele>
        <time>2020-09-15T08:59:39.438Z</time>
      </trkpt>
      <trkpt lat="48.61799" lon="2.0787">
        <ele>207.7</ele>
        <time>2020-09-15T08:59:45.636Z</time>
      </trkpt>
      <trkpt lat="48.61793" lon="2.07879">
        <ele>201.4</ele>
        <time>2020-09-15T08:59:51.803Z</time>
      </trkpt>
      <trkpt lat="48.61788" lon="2.07888">
        <ele>203.7</ele>
        <time>2020-09-15T08:59:57.894Z</time>
      </trkpt>
      <trkpt lat="48.61782" lon="2.07892">
        <ele>202.1</ele>
        <time>2020-09-15T09:00:02.000Z</time>
      </trkpt>
      <trkpt lat="48.6178" lon="2.07899">
        <ele>202</ele>
        <time>2020-09-15T09:00:08.373Z</time>
      </trkpt>
      <trkpt lat="48.61777" lon="2.07906">
        <ele>203.3</ele>
        <time>2020-09-15T09:00:14.611Z</time>
      </trkpt>
      <trkpt lat="48.61774" lon="2.07913">
        <ele>194.1</ele>
        <time>2020-09-15T09:00:20.847Z</time>
      </trkpt>
      <trkpt lat="48.61771" lon="2.0792">
        <ele>192.8</ele>
        <time>2020-09-15T09:00:27.086Z</time>
      </trkpt>
      <trkpt lat="48.61768" lon="2.07927">
        <ele>194</ele>
        <time>2020-09-15T09:00:30.735Z</time>
      </trkpt>
      <trkpt lat="48.61766" lon="2.07936">
        <ele>192.1</ele>
        <time>2020-09-15T09:00:33.809Z</time>
      </trkpt>
      <trkpt lat="48.61764" lon="2.07944">
        <ele>196.6</ele>
        <time>2020-09-15T09:00:36.872Z</time>
      </trkpt>
      <trkpt lat="48.61762" lon="2.07955">
        <ele>192.9</ele>
        <time>2020-09-15T09:00:44.000Z</time>
      </trkpt>
      <trkpt lat="48.61759" lon="2.07961">
        <ele>196.9</ele>
        <time>2020-09-15T09:00:46.608Z</time>
      </trkpt>
      <trkpt lat="48.61756" lon="2.07968">
        <ele>197</ele>
        <time>2020-09-15T09:00:49.694Z</time>
      </trkpt>
      <trkpt lat="48.61753" lon="2.07974">
        <ele>166.8</ele>
        <time>2020-09-15T09:00:53.274Z</time>
      </trkpt>
      <trkpt lat="48.6175" lon="2.07982">
        <ele>179</ele>
        <time>2020-09-15T09:00:59.471Z</time>
      </trkpt>
      <trkpt lat="48.61748" lon="2.07988">
        <ele>181.6</ele>
        <time>2020-09-15T09:01:02.556Z</time>
      </trkpt>
      <trkpt lat="48.61742" lon="2.07998">
        <ele>185.5</ele>
        <time>2020-09-15T09:01:09.227Z</time>
      </trkpt>
      <trkpt lat="48.61738" lon="2.08007">
        <ele>184</ele>
        <time>2020-09-15T09:01:15.360Z</time>
      </trkpt>
      <trkpt lat="48.61736" lon="2.08019">
        <ele>185</ele>
        <time>2020-09-15T09:01:21.514Z</time>
      </trkpt>
      <trkpt lat="48.61735" lon="2.08028">
        <ele>189.7</ele>
        <time>2020-09-15T09:01:27.635Z</time>
      </trkpt>
      <trkpt lat="48.61734" lon="2.08037">
        <ele>199.3</ele>
        <time>2020-09-15T09:01:32.000Z</time>
      </trkpt>
      <trkpt lat="48.61734" lon="2.08044">
        <ele>201.8</ele>
        <time>2020-09-15T09:01:34.376Z</time>
      </trkpt>
      <trkpt lat="48.61734" lon="2.08051">
        <ele>201.7</ele>
        <time>2020-09-15T09:01:37.949Z</time>
      </trkpt>
      <trkpt lat="48.61733" lon="2.08063">
        <ele>201.3</ele>
        <time>2020-09-15T09:01:44.331Z</time>
      </trkpt>
      <trkpt lat="48.61733" lon="2.08074">
        <ele>203</ele>
        <time>2020-09-15T09:01:50.578Z</time>
      </trkpt>
      <trkpt lat="48.61733" lon="2.08085">
        <ele>204.6</ele>
        <time>2020-09-15T09:01:56.700Z</time>
      </trkpt>
      <trkpt lat="48.61731" lon="2.08097">
        <ele>201</ele>
        <time>2020-09-15T09:02:02.913Z</time>
      </trkpt>
      <trkpt lat="48.61727" lon="2.08109">
        <ele>199.6</ele>
        <time>2020-09-15T09:02:09.019Z</time>
      </trkpt>
      <trkpt lat="48.61723" lon="2.08119">
        <ele>194.8</ele>
        <time>2020-09-15T09:02:15.170Z</time>
      </trkpt>
      <trkpt lat="48.6172" lon="2.08126">
        <ele>196.4</ele>
        <time>2020-09-15T09:02:18.768Z</time>
      </trkpt>
      <trkpt lat="48.61716" lon="2.08131">
        <ele>201.3</ele>
        <time>2020-09-15T09:02:23.000Z</time>
      </trkpt>
      <trkpt lat="48.61715" lon="2.08141">
        <ele>201.8</ele>
        <time>2020-09-15T09:02:28.484Z</time>
      </trkpt>
      <trkpt lat="48.61713" lon="2.08152">
        <ele>208.7</ele>
        <time>2020-09-15T09:02:34.713Z</time>
      </trkpt>
      <trkpt lat="48.61711" lon="2.08163">
        <ele>166.9</ele>
        <time>2020-09-15T09:02:40.893Z</time>
      </trkpt>
      <trkpt lat="48.61711" lon="2.08175">
        <ele>193.2</ele>
        <time>2020-09-15T09:02:47.554Z</time>
      </trkpt>
      <trkpt lat="48.61712" lon="2.08187">
        <ele>192</ele>
        <time>2020-09-15T09:02:53.871Z</time>
      </trkpt>
      <trkpt lat="48.61713" lon="2.08198">
        <ele>192.4</ele>
        <time>2020-09-15T09:03:00.439Z</time>
      </trkpt>
      <trkpt lat="48.61711" lon="2.08207">
        <ele>198.9</ele>
        <time>2020-09-15T09:03:26.172Z</time>
      </trkpt>
      <trkpt lat="48.61707" lon="2.08213">
        <ele>200.4</ele>
        <time>2020-09-15T09:03:32.197Z</time>
      </trkpt>
      <trkpt lat="48.617" lon="2.08218">
        <ele>203.3</ele>
        <time>2020-09-15T09:03:39.376Z</time>
      </trkpt>
      <trkpt lat="48.61694" lon="2.08226">
        <ele>203.5</ele>
        <time>2020-09-15T09:03:46.348Z</time>
      </trkpt>
      <trkpt lat="48.61686" lon="2.08237">
        <ele>202.2</ele>
        <time>2020-09-15T09:03:52.888Z</time>
      </trkpt>
      <trkpt lat="48.61683" lon="2.08242">
        <ele>201.2</ele>
        <time>2020-09-15T09:03:56.554Z</time>
      </trkpt>
      <trkpt lat="48.6168" lon="2.08248">
        <ele>170.4</ele>
        <time>2020-09-15T09:04:00.032Z</time>
      </trkpt>
      <trkpt lat="48.61676" lon="2.08253">
        <ele>185.3</ele>
        <time>2020-09-15T09:04:03.107Z</time>
      </trkpt>
      <trkpt lat="48.61672" lon="2.0826">
        <ele>187.3</ele>
        <time>2020-09-15T09:04:06.329Z</time>
      </trkpt>
      <trkpt lat="48.61669" lon="2.08265">
        <ele>191.8</ele>
        <time>2020-09-15T09:04:09.473Z</time>
      </trkpt>
      <trkpt lat="48.61663" lon="2.08273">
        <ele>198.4</ele>
        <time>2020-09-15T09:04:15.632Z</time>
      </trkpt>
      <trkpt lat="48.61659" lon="2.08279">
        <ele>200.6</ele>
        <time>2020-09-15T09:04:23.000Z</time>
      </trkpt>
      <trkpt lat="48.61654" lon="2.08278">
        <ele>198.6</ele>
        <time>2020-09-15T09:04:38.049Z</time>
      </trkpt>
      <trkpt lat="48.61649" lon="2.08286">
        <ele>200.6</ele>
        <time>2020-09-15T09:04:44.151Z</time>
      </trkpt>
      <trkpt lat="48.61645" lon="2.08291">
        <ele>199.8</ele>
        <time>2020-09-15T09:04:47.670Z</time>
      </trkpt>
      <trkpt lat="48.61641" lon="2.08295">
        <ele>200.4</ele>
        <time>2020-09-15T09:04:50.686Z</time>
      </trkpt>
      <trkpt lat="48.61634" lon="2.083">
        <ele>198.1</ele>
        <time>2020-09-15T09:04:56.971Z</time>
      </trkpt>
      <trkpt lat="48.6163" lon="2.08306">
        <ele>198.3</ele>
        <time>2020-09-15T09:05:03.073Z</time>
      </trkpt>
      <trkpt lat="48.61626" lon="2.08312">
        <ele>198.2</ele>
        <time>2020-09-15T09:05:09.854Z</time>
      </trkpt>
      <trkpt lat="48.6162" lon="2.08318">
        <ele>209</ele>
        <time>2020-09-15T09:05:16.276Z</time>
      </trkpt>
      <trkpt lat="48.61614" lon="2.08324">
        <ele>207.4</ele>
        <time>2020-09-15T09:05:23.189Z</time>
      </trkpt>
      <trkpt lat="48.61608" lon="2.08331">
        <ele>191.2</ele>
        <time>2020-09-15T09:05:29.372Z</time>
      </trkpt>
      <trkpt lat="48.61605" lon="2.08338">
        <ele>190.6</ele>
        <time>2020-09-15T09:05:35.492Z</time>
      </trkpt>
      <trkpt lat="48.61601" lon="2.08343">
        <ele>192.1</ele>
        <time>2020-09-15T09:05:39.032Z</time>
      </trkpt>
      <trkpt lat="48.61596" lon="2.08351">
        <ele>182.3</ele>
        <time>2020-09-15T09:05:45.644Z</time>
      </trkpt>
      <trkpt lat="48.61593" lon="2.08356">
        <ele>181.6</ele>
        <time>2020-09-15T09:05:48.657Z</time>
      </trkpt>
      <trkpt lat="48.61588" lon="2.08365">
        <ele>181.4</ele>
        <time>2020-09-15T09:05:54.814Z</time>
      </trkpt>
      <trkpt lat="48.61583" lon="2.08374">
        <ele>184.8</ele>
        <time>2020-09-15T09:06:01.002Z</time>
      </trkpt>
      <trkpt lat="48.61578" lon="2.08383">
        <ele>190</ele>
        <time>2020-09-15T09:06:08.602Z</time>
      </trkpt>
      <trkpt lat="48.61574" lon="2.08391">
        <ele>193.6</ele>
        <time>2020-09-15T09:06:15.249Z</time>
      </trkpt>
      <trkpt lat="48.61571" lon="2.08396">
        <ele>192.3</ele>
        <time>2020-09-15T09:06:19.019Z</time>
      </trkpt>
      <trkpt lat="48.61566" lon="2.08405">
        <ele>187</ele>
        <time>2020-09-15T09:06:25.141Z</time>
      </trkpt>
      <trkpt lat="48.61562" lon="2.08412">
        <ele>190.3</ele>
        <time>2020-09-15T09:06:31.278Z</time>
      </trkpt>
      <trkpt lat="48.61559" lon="2.08417">
        <ele>192.1</ele>
        <time>2020-09-15T09:06:34.759Z</time>
      </trkpt>
      <trkpt lat="48.61555" lon="2.08424">
        <ele>193.8</ele>
        <time>2020-09-15T09:06:40.895Z</time>
      </trkpt>
      <trkpt lat="48.61552" lon="2.08432">
        <ele>193.7</ele>
        <time>2020-09-15T09:06:44.440Z</time>
      </trkpt>
      <trkpt lat="48.61548" lon="2.08441">
        <ele>195.2</ele>
        <time>2020-09-15T09:06:50.985Z</time>
      </trkpt>
      <trkpt lat="48.61545" lon="2.08449">
        <ele>190.5</ele>
        <time>2020-09-15T09:06:57.097Z</time>
      </trkpt>
      <trkpt lat="48.6154" lon="2.08454">
        <ele>188</ele>
        <time>2020-09-15T09:07:03.154Z</time>
      </trkpt>
      <trkpt lat="48.61534" lon="2.08463">
        <ele>184.2</ele>
        <time>2020-09-15T09:07:06.219Z</time>
      </trkpt>
      <trkpt lat="48.6153" lon="2.08467">
        <ele>188.6</ele>
        <time>2020-09-15T09:07:09.781Z</time>
      </trkpt>
      <trkpt lat="48.61527" lon="2.08476">
        <ele>189.2</ele>
        <time>2020-09-15T09:07:15.802Z</time>
      </trkpt>
      <trkpt lat="48.61523" lon="2.08487">
        <ele>190.9</ele>
        <time>2020-09-15T09:07:21.902Z</time>
      </trkpt>
      <trkpt lat="48.61521" lon="2.08493">
        <ele>191</ele>
        <time>2020-09-15T09:07:24.916Z</time>
      </trkpt>
      <trkpt lat="48.61517" lon="2.08504">
        <ele>186</ele>
        <time>2020-09-15T09:07:31.016Z</time>
      </trkpt>
      <trkpt lat="48.61515" lon="2.08516">
        <ele>184</ele>
        <time>2020-09-15T09:07:37.114Z</time>
      </trkpt>
      <trkpt lat="48.61513" lon="2.08529">
        <ele>181.3</ele>
        <time>2020-09-15T09:07:43.236Z</time>
      </trkpt>
      <trkpt lat="48.61511" lon="2.08539">
        <ele>188.5</ele>
        <time>2020-09-15T09:07:50.081Z</time>
      </trkpt>
      <trkpt lat="48.61506" lon="2.08548">
        <ele>193.6</ele>
        <time>2020-09-15T09:07:56.635Z</time>
      </trkpt>
      <trkpt lat="48.61502" lon="2.08553">
        <ele>193.3</ele>
        <time>2020-09-15T09:08:00.262Z</time>
      </trkpt>
      <trkpt lat="48.61494" lon="2.08561">
        <ele>191.6</ele>
        <time>2020-09-15T09:08:06.362Z</time>
      </trkpt>
      <trkpt lat="48.6149" lon="2.08563">
        <ele>192.6</ele>
        <time>2020-09-15T09:08:09.879Z</time>
      </trkpt>
      <trkpt lat="48.61481" lon="2.08566">
        <ele>186.7</ele>
        <time>2020-09-15T09:08:15.988Z</time>
      </trkpt>
      <trkpt lat="48.61475" lon="2.08567">
        <ele>184.7</ele>
        <time>2020-09-15T09:08:23.000Z</time>
      </trkpt>
      <trkpt lat="48.61469" lon="2.08569">
        <ele>189.2</ele>
        <time>2020-09-15T09:08:28.741Z</time>
      </trkpt>
      <trkpt lat="48.61463" lon="2.08574">
        <ele>192.6</ele>
        <time>2020-09-15T09:08:35.239Z</time>
      </trkpt>
      <trkpt lat="48.61459" lon="2.08582">
        <ele>191.9</ele>
        <time>2020-09-15T09:08:41.781Z</time>
      </trkpt>
      <trkpt lat="48.61456" lon="2.08591">
        <ele>186.5</ele>
        <time>2020-09-15T09:08:48.214Z</time>
      </trkpt>
      <trkpt lat="48.61451" lon="2.08599">
        <ele>187.6</ele>
        <time>2020-09-15T09:08:54.820Z</time>
      </trkpt>
      <trkpt lat="48.61446" lon="2.08603">
        <ele>187.7</ele>
        <time>2020-09-15T09:08:58.502Z</time>
      </trkpt>
      <trkpt lat="48.61439" lon="2.08611">
        <ele>192.2</ele>
        <time>2020-09-15T09:09:05.715Z</time>
      </trkpt>
      <trkpt lat="48.61434" lon="2.08614">
        <ele>194.7</ele>
        <time>2020-09-15T09:09:08.838Z</time>
      </trkpt>
      <trkpt lat="48.6143" lon="2.08618">
        <ele>192.2</ele>
        <time>2020-09-15T09:09:12.015Z</time>
      </trkpt>
      <trkpt lat="48.61423" lon="2.08625">
        <ele>192.8</ele>
        <time>2020-09-15T09:09:18.982Z</time>
      </trkpt>
      <trkpt lat="48.61417" lon="2.08629">
        <ele>189.6</ele>
        <time>2020-09-15T09:09:25.201Z</time>
      </trkpt>
      <trkpt lat="48.61412" lon="2.08629">
        <ele>190.5</ele>
        <time>2020-09-15T09:09:29.000Z</time>
      </trkpt>
      <trkpt lat="48.61407" lon="2.08629">
        <ele>190.9</ele>
        <time>2020-09-15T09:09:31.920Z</time>
      </trkpt>
      <trkpt lat="48.61398" lon="2.08625">
        <ele>188.5</ele>
        <time>2020-09-15T09:09:38.601Z</time>
      </trkpt>
      <trkpt lat="48.61393" lon="2.08624">
        <ele>189.1</ele>
        <time>2020-09-15T09:09:41.655Z</time>
      </trkpt>
      <trkpt lat="48.61384" lon="2.08625">
        <ele>189.3</ele>
        <time>2020-09-15T09:09:47.845Z</time>
      </trkpt>
      <trkpt lat="48.61375" lon="2.08624">
        <ele>185.9</ele>
        <time>2020-09-15T09:09:54.022Z</time>
      </trkpt>
      <trkpt lat="48.61371" lon="2.08623">
        <ele>186.2</ele>
        <time>2020-09-15T09:09:57.541Z</time>
      </trkpt>
      <trkpt lat="48.61363" lon="2.08622">
        <ele>184.3</ele>
        <time>2020-09-15T09:10:04.185Z</time>
      </trkpt>
      <trkpt lat="48.61355" lon="2.08621">
        <ele>185.7</ele>
        <time>2020-09-15T09:10:10.233Z</time>
      </trkpt>
      <trkpt lat="48.61348" lon="2.08623">
        <ele>187.2</ele>
        <time>2020-09-15T09:10:16.427Z</time>
      </trkpt>
      <trkpt lat="48.61341" lon="2.08615">
        <ele>191.1</ele>
        <time>2020-09-15T09:10:26.000Z</time>
      </trkpt>
      <trkpt lat="48.61335" lon="2.0862">
        <ele>190</ele>
        <time>2020-09-15T09:10:35.362Z</time>
      </trkpt>
      <trkpt lat="48.61326" lon="2.08614">
        <ele>189.5</ele>
        <time>2020-09-15T09:10:42.479Z</time>
      </trkpt>
      <trkpt lat="48.6132" lon="2.08605">
        <ele>185.7</ele>
        <time>2020-09-15T09:10:49.189Z</time>
      </trkpt>
      <trkpt lat="48.61314" lon="2.08599">
        <ele>187</ele>
        <time>2020-09-15T09:10:56.000Z</time>
      </trkpt>
      <trkpt lat="48.61309" lon="2.08595">
        <ele>191.3</ele>
        <time>2020-09-15T09:11:08.000Z</time>
      </trkpt>
      <trkpt lat="48.61316" lon="2.08605">
        <ele>194.7</ele>
        <time>2020-09-15T09:11:32.000Z</time>
      </trkpt>
      <trkpt lat="48.61311" lon="2.08601">
        <ele>187.8</ele>
        <time>2020-09-15T09:11:34.757Z</time>
      </trkpt>
      <trkpt lat="48.61307" lon="2.08599">
        <ele>188.8</ele>
        <time>2020-09-15T09:11:38.300Z</time>
      </trkpt>
      <trkpt lat="48.61302" lon="2.08597">
        <ele>190.9</ele>
        <time>2020-09-15T09:11:41.376Z</time>
      </trkpt>
      <trkpt lat="48.61297" lon="2.08596">
        <ele>190.8</ele>
        <time>2020-09-15T09:11:44.818Z</time>
      </trkpt>
      <trkpt lat="48.61293" lon="2.08593">
        <ele>190.8</ele>
        <time>2020-09-15T09:11:48.316Z</time>
      </trkpt>
      <trkpt lat="48.61289" lon="2.08589">
        <ele>186.1</ele>
        <time>2020-09-15T09:11:51.399Z</time>
      </trkpt>
      <trkpt lat="48.61282" lon="2.08583">
        <ele>187.3</ele>
        <time>2020-09-15T09:11:57.460Z</time>
      </trkpt>
      <trkpt lat="48.61276" lon="2.08577">
        <ele>190.1</ele>
        <time>2020-09-15T09:12:03.682Z</time>
      </trkpt>
      <trkpt lat="48.61269" lon="2.0857">
        <ele>188.2</ele>
        <time>2020-09-15T09:12:09.857Z</time>
      </trkpt>
      <trkpt lat="48.61263" lon="2.0856">
        <ele>189.8</ele>
        <time>2020-09-15T09:12:16.036Z</time>
      </trkpt>
      <trkpt lat="48.6126" lon="2.08554">
        <ele>194.2</ele>
        <time>2020-09-15T09:12:22.213Z</time>
      </trkpt>
      <trkpt lat="48.61254" lon="2.08547">
        <ele>195</ele>
        <time>2020-09-15T09:12:28.620Z</time>
      </trkpt>
      <trkpt lat="48.61247" lon="2.08543">
        <ele>197.5</ele>
        <time>2020-09-15T09:12:35.477Z</time>
      </trkpt>
      <trkpt lat="48.61238" lon="2.08542">
        <ele>198.7</ele>
        <time>2020-09-15T09:12:41.903Z</time>
      </trkpt>
      <trkpt lat="48.61233" lon="2.08547">
        <ele>194.3</ele>
        <time>2020-09-15T09:12:48.122Z</time>
      </trkpt>
      <trkpt lat="48.61227" lon="2.08549">
        <ele>194.5</ele>
        <time>2020-09-15T09:12:54.882Z</time>
      </trkpt>
      <trkpt lat="48.61218" lon="2.08548">
        <ele>195.1</ele>
        <time>2020-09-15T09:13:02.018Z</time>
      </trkpt>
      <trkpt lat="48.61212" lon="2.08546">
        <ele>182.1</ele>
        <time>2020-09-15T09:13:08.156Z</time>
      </trkpt>
      <trkpt lat="48.61206" lon="2.08538">
        <ele>186.2</ele>
        <time>2020-09-15T09:13:14.338Z</time>
      </trkpt>
      <trkpt lat="48.61201" lon="2.08531">
        <ele>186.1</ele>
        <time>2020-09-15T09:13:20.418Z</time>
      </trkpt>
      <trkpt lat="48.61194" lon="2.08527">
        <ele>189.2</ele>
        <time>2020-09-15T09:13:26.701Z</time>
      </trkpt>
      <trkpt lat="48.61189" lon="2.08526">
        <ele>161.1</ele>
        <time>2020-09-15T09:13:32.000Z</time>
      </trkpt>
      <trkpt lat="48.61182" lon="2.08527">
        <ele>196.6</ele>
        <time>2020-09-15T09:13:47.000Z</time>
      </trkpt>
      <trkpt lat="48.61177" lon="2.08527">
        <ele>186.6</ele>
        <time>2020-09-15T09:13:50.208Z</time>
      </trkpt>
      <trkpt lat="48.6117" lon="2.08524">
        <ele>194.2</ele>
        <time>2020-09-15T09:13:59.701Z</time>
      </trkpt>
      <trkpt lat="48.61161" lon="2.08521">
        <ele>189.6</ele>
        <time>2020-09-15T09:14:06.314Z</time>
      </trkpt>
      <trkpt lat="48.61157" lon="2.08519">
        <ele>193.2</ele>
        <time>2020-09-15T09:14:09.343Z</time>
      </trkpt>
      <trkpt lat="48.61147" lon="2.0852">
        <ele>197.3</ele>
        <time>2020-09-15T09:14:16.339Z</time>
      </trkpt>
      <trkpt lat="48.6114" lon="2.08518">
        <ele>200.6</ele>
        <time>2020-09-15T09:14:22.378Z</time>
      </trkpt>
      <trkpt lat="48.61133" lon="2.08516">
        <ele>203.2</ele>
        <time>2020-09-15T09:14:29.000Z</time>
      </trkpt>
      <trkpt lat="48.61124" lon="2.08513">
        <ele>190.3</ele>
        <time>2020-09-15T09:14:35.162Z</time>
      </trkpt>
      <trkpt lat="48.61116" lon="2.08509">
        <ele>192.3</ele>
        <time>2020-09-15T09:14:41.803Z</time>
      </trkpt>
      <trkpt lat="48.61111" lon="2.08508">
        <ele>191.1</ele>
        <time>2020-09-15T09:14:48.260Z</time>
      </trkpt>
      <trkpt lat="48.61105" lon="2.08507">
        <ele>191.8</ele>
        <time>2020-09-15T09:14:54.898Z</time>
      </trkpt>
      <trkpt lat="48.611" lon="2.08507">
        <ele>190.4</ele>
        <time>2020-09-15T09:14:58.301Z</time>
      </trkpt>
      <trkpt lat="48.61095" lon="2.08506">
        <ele>190</ele>
        <time>2020-09-15T09:15:01.393Z</time>
      </trkpt>
      <trkpt lat="48.61091" lon="2.08506">
        <ele>181.4</ele>
        <time>2020-09-15T09:15:04.869Z</time>
      </trkpt>
      <trkpt lat="48.61084" lon="2.08506">
        <ele>199</ele>
        <time>2020-09-15T09:15:11.942Z</time>
      </trkpt>
      <trkpt lat="48.61075" lon="2.08503">
        <ele>188.7</ele>
        <time>2020-09-15T09:15:18.096Z</time>
      </trkpt>
      <trkpt lat="48.61071" lon="2.08499">
        <ele>187.6</ele>
        <time>2020-09-15T09:15:21.125Z</time>
      </trkpt>
      <trkpt lat="48.61068" lon="2.08492">
        <ele>186.5</ele>
        <time>2020-09-15T09:15:24.237Z</time>
      </trkpt>
      <trkpt lat="48.61062" lon="2.08484">
        <ele>185.9</ele>
        <time>2020-09-15T09:15:30.396Z</time>
      </trkpt>
      <trkpt lat="48.61055" lon="2.0848">
        <ele>183.4</ele>
        <time>2020-09-15T09:15:36.595Z</time>
      </trkpt>
      <trkpt lat="48.61046" lon="2.08478">
        <ele>176.9</ele>
        <time>2020-09-15T09:15:42.750Z</time>
      </trkpt>
      <trkpt lat="48.6104" lon="2.08476">
        <ele>180</ele>
        <time>2020-09-15T09:15:49.374Z</time>
      </trkpt>
      <trkpt lat="48.61033" lon="2.08477">
        <ele>180.8</ele>
        <time>2020-09-15T09:15:55.596Z</time>
      </trkpt>
      <trkpt lat="48.61027" lon="2.0848">
        <ele>185.2</ele>
        <time>2020-09-15T09:16:01.901Z</time>
      </trkpt>
      <trkpt lat="48.61021" lon="2.08481">
        <ele>185.4</ele>
        <time>2020-09-15T09:16:08.099Z</time>
      </trkpt>
      <trkpt lat="48.61013" lon="2.08483">
        <ele>181.1</ele>
        <time>2020-09-15T09:16:14.404Z</time>
      </trkpt>
      <trkpt lat="48.61006" lon="2.08485">
        <ele>180.9</ele>
        <time>2020-09-15T09:16:17.561Z</time>
      </trkpt>
      <trkpt lat="48.61002" lon="2.08487">
        <ele>184.9</ele>
        <time>2020-09-15T09:16:20.696Z</time>
      </trkpt>
      <trkpt lat="48.60995" lon="2.08489">
        <ele>185.6</ele>
        <time>2020-09-15T09:16:26.962Z</time>
      </trkpt>
      <trkpt lat="48.60988" lon="2.08488">
        <ele>186.8</ele>
        <time>2020-09-15T09:16:33.141Z</time>
      </trkpt>
      <trkpt lat="48.60983" lon="2.08487">
        <ele>183.5</ele>
        <time>2020-09-15T09:16:39.280Z</time>
      </trkpt>
      <trkpt lat="48.60977" lon="2.08487">
        <ele>183.6</ele>
        <time>2020-09-15T09:16:42.918Z</time>
      </trkpt>
      <trkpt lat="48.60973" lon="2.08482">
        <ele>182.8</ele>
        <time>2020-09-15T09:16:49.136Z</time>
      </trkpt>
      <trkpt lat="48.60968" lon="2.0848">
        <ele>181</ele>
        <time>2020-09-15T09:16:55.378Z</time>
      </trkpt>
      <trkpt lat="48.6096" lon="2.08482">
        <ele>184.4</ele>
        <time>2020-09-15T09:17:01.581Z</time>
      </trkpt>
      <trkpt lat="48.60955" lon="2.08484">
        <ele>184.2</ele>
        <time>2020-09-15T09:17:05.220Z</time>
      </trkpt>
      <trkpt lat="48.60951" lon="2.08486">
        <ele>184.8</ele>
        <time>2020-09-15T09:17:08.401Z</time>
      </trkpt>
      <trkpt lat="48.60944" lon="2.0849">
        <ele>184.8</ele>
        <time>2020-09-15T09:17:14.760Z</time>
      </trkpt>
      <trkpt lat="48.60939" lon="2.08493">
        <ele>183.2</ele>
        <time>2020-09-15T09:17:18.485Z</time>
      </trkpt>
      <trkpt lat="48.60931" lon="2.08495">
        <ele>183</ele>
        <time>2020-09-15T09:17:24.806Z</time>
      </trkpt>
      <trkpt lat="48.60925" lon="2.08496">
        <ele>178.1</ele>
        <time>2020-09-15T09:17:32.000Z</time>
      </trkpt>
      <trkpt lat="48.6092" lon="2.08493">
        <ele>176</ele>
        <time>2020-09-15T09:17:49.419Z</time>
      </trkpt>
      <trkpt lat="48.60913" lon="2.08493">
        <ele>176</ele>
        <time>2020-09-15T09:17:56.000Z</time>
      </trkpt>
      <trkpt lat="48.60908" lon="2.08496">
        <ele>179.7</ele>
        <time>2020-09-15T09:18:02.321Z</time>
      </trkpt>
      <trkpt lat="48.60902" lon="2.08501">
        <ele>180.5</ele>
        <time>2020-09-15T09:18:08.683Z</time>
      </trkpt>
      <trkpt lat="48.60897" lon="2.08503">
        <ele>181.4</ele>
        <time>2020-09-15T09:18:12.270Z</time>
      </trkpt>
      <trkpt lat="48.60888" lon="2.08506">
        <ele>184.4</ele>
        <time>2020-09-15T09:18:19.000Z</time>
      </trkpt>
      <trkpt lat="48.6088" lon="2.08507">
        <ele>184.5</ele>
        <time>2020-09-15T09:18:24.683Z</time>
      </trkpt>
      <trkpt lat="48.60872" lon="2.08511">
        <ele>188</ele>
        <time>2020-09-15T09:18:31.338Z</time>
      </trkpt>
      <trkpt lat="48.60867" lon="2.08513">
        <ele>187</ele>
        <time>2020-09-15T09:18:37.479Z</time>
      </trkpt>
      <trkpt lat="48.60862" lon="2.08517">
        <ele>189.3</ele>
        <time>2020-09-15T09:18:43.598Z</time>
      </trkpt>
      <trkpt lat="48.60854" lon="2.0852">
        <ele>187.5</ele>
        <time>2020-09-15T09:18:50.261Z</time>
      </trkpt>
      <trkpt lat="48.60847" lon="2.08521">
        <ele>187.5</ele>
        <time>2020-09-15T09:18:56.479Z</time>
      </trkpt>
      <trkpt lat="48.6084" lon="2.08523">
        <ele>189.2</ele>
        <time>2020-09-15T09:19:02.716Z</time>
      </trkpt>
      <trkpt lat="48.60832" lon="2.08525">
        <ele>187.6</ele>
        <time>2020-09-15T09:19:08.935Z</time>
      </trkpt>
      <trkpt lat="48.60827" lon="2.08526">
        <ele>185.5</ele>
        <time>2020-09-15T09:19:12.079Z</time>
      </trkpt>
      <trkpt lat="48.60819" lon="2.08531">
        <ele>189.8</ele>
        <time>2020-09-15T09:19:18.258Z</time>
      </trkpt>
      <trkpt lat="48.60812" lon="2.08535">
        <ele>189.5</ele>
        <time>2020-09-15T09:19:24.477Z</time>
      </trkpt>
      <trkpt lat="48.60807" lon="2.08535">
        <ele>186.1</ele>
        <time>2020-09-15T09:19:27.617Z</time>
      </trkpt>
      <trkpt lat="48.60798" lon="2.08535">
        <ele>183.3</ele>
        <time>2020-09-15T09:19:34.320Z</time>
      </trkpt>
      <trkpt lat="48.6079" lon="2.08535">
        <ele>184</ele>
        <time>2020-09-15T09:19:40.520Z</time>
      </trkpt>
      <trkpt lat="48.60784" lon="2.08536">
        <ele>184.8</ele>
        <time>2020-09-15T09:19:47.000Z</time>
      </trkpt>
      <trkpt lat="48.60777" lon="2.08537">
        <ele>180.8</ele>
        <time>2020-09-15T09:19:53.302Z</time>
      </trkpt>
      <trkpt lat="48.60772" lon="2.08538">
        <ele>179.4</ele>
        <time>2020-09-15T09:19:56.433Z</time>
      </trkpt>
      <trkpt lat="48.60764" lon="2.08538">
        <ele>182.5</ele>
        <time>2020-09-15T09:20:02.798Z</time>
      </trkpt>
      <trkpt lat="48.60758" lon="2.08539">
        <ele>183.1</ele>
        <time>2020-09-15T09:20:09.116Z</time>
      </trkpt>
      <trkpt lat="48.60751" lon="2.08539">
        <ele>180.1</ele>
        <time>2020-09-15T09:20:15.560Z</time>
      </trkpt>
      <trkpt lat="48.60747" lon="2.08539">
        <ele>177.4</ele>
        <time>2020-09-15T09:20:38.000Z</time>
      </trkpt>
      <trkpt lat="48.60741" lon="2.0854">
        <ele>179.8</ele>
        <time>2020-09-15T09:21:04.061Z</time>
      </trkpt>
      <trkpt lat="48.60736" lon="2.08542">
        <ele>180.6</ele>
        <time>2020-09-15T09:21:07.207Z</time>
      </trkpt>
      <trkpt lat="48.60732" lon="2.08545">
        <ele>178.8</ele>
        <time>2020-09-15T09:21:10.421Z</time>
      </trkpt>
      <trkpt lat="48.60727" lon="2.08548">
        <ele>176.8</ele>
        <time>2020-09-15T09:21:13.924Z</time>
      </trkpt>
      <trkpt lat="48.60722" lon="2.0855">
        <ele>176.5</ele>
        <time>2020-09-15T09:21:17.019Z</time>
      </trkpt>
      <trkpt lat="48.60714" lon="2.08553">
        <ele>175.9</ele>
        <time>2020-09-15T09:21:23.219Z</time>
      </trkpt>
      <trkpt lat="48.60706" lon="2.08554">
        <ele>177.2</ele>
        <time>2020-09-15T09:21:29.698Z</time>
      </trkpt>
      <trkpt lat="48.60697" lon="2.08556">
        <ele>181.8</ele>
        <time>2020-09-15T09:21:37.000Z</time>
      </trkpt>
      <trkpt lat="48.60693" lon="2.08556">
        <ele>180.5</ele>
        <time>2020-09-15T09:21:39.821Z</time>
      </trkpt>
      <trkpt lat="48.60687" lon="2.08557">
        <ele>178.9</ele>
        <time>2020-09-15T09:21:43.043Z</time>
      </trkpt>
      <trkpt lat="48.60682" lon="2.08559">
        <ele>177</ele>
        <time>2020-09-15T09:21:49.513Z</time>
      </trkpt>
      <trkpt lat="48.60676" lon="2.0856">
        <ele>176.7</ele>
        <time>2020-09-15T09:21:56.039Z</time>
      </trkpt>
      <trkpt lat="48.60669" lon="2.08561">
        <ele>168.5</ele>
        <time>2020-09-15T09:22:02.801Z</time>
      </trkpt>
      <trkpt lat="48.60664" lon="2.08561">
        <ele>164.2</ele>
        <time>2020-09-15T09:22:21.000Z</time>
      </trkpt>
      <trkpt lat="48.60659" lon="2.08557">
        <ele>164.5</ele>
        <time>2020-09-15T09:22:33.000Z</time>
      </trkpt>
      <trkpt lat="48.6066" lon="2.08566">
        <ele>167.8</ele>
        <time>2020-09-15T09:22:50.161Z</time>
      </trkpt>
      <trkpt lat="48.6066" lon="2.08573">
        <ele>167.6</ele>
        <time>2020-09-15T09:22:53.359Z</time>
      </trkpt>
      <trkpt lat="48.6066" lon="2.08585">
        <ele>163.6</ele>
        <time>2020-09-15T09:23:00.000Z</time>
      </trkpt>
      <trkpt lat="48.6066" lon="2.08596">
        <ele>165.5</ele>
        <time>2020-09-15T09:23:06.157Z</time>
      </trkpt>
      <trkpt lat="48.6066" lon="2.08604">
        <ele>161.2</ele>
        <time>2020-09-15T09:23:09.300Z</time>
      </trkpt>
      <trkpt lat="48.60661" lon="2.08612">
        <ele>160</ele>
        <time>2020-09-15T09:23:12.919Z</time>
      </trkpt>
      <trkpt lat="48.60663" lon="2.08625">
        <ele>160.1</ele>
        <time>2020-09-15T09:23:19.134Z</time>
      </trkpt>
      <trkpt lat="48.60665" lon="2.08636">
        <ele>159</ele>
        <time>2020-09-15T09:23:25.858Z</time>
      </trkpt>
      <trkpt lat="48.60667" lon="2.08649">
        <ele>162.9</ele>
        <time>2020-09-15T09:23:32.125Z</time>
      </trkpt>
      <trkpt lat="48.60672" lon="2.0866">
        <ele>156.2</ele>
        <time>2020-09-15T09:23:38.340Z</time>
      </trkpt>
      <trkpt lat="48.60676" lon="2.08667">
        <ele>158.5</ele>
        <time>2020-09-15T09:23:41.515Z</time>
      </trkpt>
      <trkpt lat="48.60679" lon="2.08678">
        <ele>155.8</ele>
        <time>2020-09-15T09:23:48.222Z</time>
      </trkpt>
      <trkpt lat="48.60681" lon="2.08687">
        <ele>155.9</ele>
        <time>2020-09-15T09:23:54.507Z</time>
      </trkpt>
      <trkpt lat="48.60683" lon="2.08696">
        <ele>170</ele>
        <time>2020-09-15T09:24:00.800Z</time>
      </trkpt>
      <trkpt lat="48.60684" lon="2.08704">
        <ele>170.8</ele>
        <time>2020-09-15T09:24:03.948Z</time>
      </trkpt>
      <trkpt lat="48.60681" lon="2.08716">
        <ele>165.9</ele>
        <time>2020-09-15T09:24:10.202Z</time>
      </trkpt>
      <trkpt lat="48.60681" lon="2.08732">
        <ele>189.8</ele>
        <time>2020-09-15T09:24:16.541Z</time>
      </trkpt>
      <trkpt lat="48.60683" lon="2.08742">
        <ele>181.7</ele>
        <time>2020-09-15T09:24:19.683Z</time>
      </trkpt>
      <trkpt lat="48.60685" lon="2.0875">
        <ele>165.6</ele>
        <time>2020-09-15T09:24:25.958Z</time>
      </trkpt>
      <trkpt lat="48.60689" lon="2.08755">
        <ele>164.3</ele>
        <time>2020-09-15T09:24:30.000Z</time>
      </trkpt>
      <trkpt lat="48.60693" lon="2.08758">
        <ele>164.5</ele>
        <time>2020-09-15T09:24:32.742Z</time>
      </trkpt>
      <trkpt lat="48.60697" lon="2.08764">
        <ele>164.8</ele>
        <time>2020-09-15T09:24:36.357Z</time>
      </trkpt>
      <trkpt lat="48.607" lon="2.08776">
        <ele>165.2</ele>
        <time>2020-09-15T09:24:42.628Z</time>
      </trkpt>
      <trkpt lat="48.60703" lon="2.08785">
        <ele>164.4</ele>
        <time>2020-09-15T09:24:48.804Z</time>
      </trkpt>
      <trkpt lat="48.60704" lon="2.08791">
        <ele>164.7</ele>
        <time>2020-09-15T09:24:52.403Z</time>
      </trkpt>
      <trkpt lat="48.60707" lon="2.08803">
        <ele>167.1</ele>
        <time>2020-09-15T09:24:58.676Z</time>
      </trkpt>
      <trkpt lat="48.60706" lon="2.08816">
        <ele>166.2</ele>
        <time>2020-09-15T09:25:04.924Z</time>
      </trkpt>
      <trkpt lat="48.60707" lon="2.08826">
        <ele>160.5</ele>
        <time>2020-09-15T09:25:11.229Z</time>
      </trkpt>
      <trkpt lat="48.60708" lon="2.08835">
        <ele>162.1</ele>
        <time>2020-09-15T09:25:17.496Z</time>
      </trkpt>
      <trkpt lat="48.60711" lon="2.08846">
        <ele>160.9</ele>
        <time>2020-09-15T09:25:23.725Z</time>
      </trkpt>
      <trkpt lat="48.60712" lon="2.08854">
        <ele>162.3</ele>
        <time>2020-09-15T09:25:29.967Z</time>
      </trkpt>
      <trkpt lat="48.60715" lon="2.08865">
        <ele>160.7</ele>
        <time>2020-09-15T09:25:36.182Z</time>
      </trkpt>
      <trkpt lat="48.60717" lon="2.08876">
        <ele>159.9</ele>
        <time>2020-09-15T09:25:42.422Z</time>
      </trkpt>
      <trkpt lat="48.60721" lon="2.08888">
        <ele>164.7</ele>
        <time>2020-09-15T09:25:48.720Z</time>
      </trkpt>
      <trkpt lat="48.60724" lon="2.08901">
        <ele>163.5</ele>
        <time>2020-09-15T09:25:54.943Z</time>
      </trkpt>
      <trkpt lat="48.60726" lon="2.08908">
        <ele>163.5</ele>
        <time>2020-09-15T09:25:58.040Z</time>
      </trkpt>
      <trkpt lat="48.60728" lon="2.08914">
        <ele>164.7</ele>
        <time>2020-09-15T09:26:01.227Z</time>
      </trkpt>
      <trkpt lat="48.60731" lon="2.08921">
        <ele>165</ele>
        <time>2020-09-15T09:26:04.841Z</time>
      </trkpt>
      <trkpt lat="48.60732" lon="2.08927">
        <ele>164.3</ele>
        <time>2020-09-15T09:26:07.982Z</time>
      </trkpt>
      <trkpt lat="48.60734" lon="2.08934">
        <ele>164.2</ele>
        <time>2020-09-15T09:26:11.102Z</time>
      </trkpt>
      <trkpt lat="48.60734" lon="2.08944">
        <ele>165.7</ele>
        <time>2020-09-15T09:26:17.338Z</time>
      </trkpt>
      <trkpt lat="48.60736" lon="2.08956">
        <ele>166.3</ele>
        <time>2020-09-15T09:26:24.000Z</time>
      </trkpt>
      <trkpt lat="48.60738" lon="2.08968">
        <ele>159.4</ele>
        <time>2020-09-15T09:26:30.442Z</time>
      </trkpt>
      <trkpt lat="48.60738" lon="2.08977">
        <ele>160.4</ele>
        <time>2020-09-15T09:26:36.756Z</time>
      </trkpt>
      <trkpt lat="48.6074" lon="2.08988">
        <ele>160.1</ele>
        <time>2020-09-15T09:26:42.958Z</time>
      </trkpt>
      <trkpt lat="48.60741" lon="2.09002">
        <ele>161.8</ele>
        <time>2020-09-15T09:26:49.158Z</time>
      </trkpt>
      <trkpt lat="48.60743" lon="2.0901">
        <ele>171.6</ele>
        <time>2020-09-15T09:26:55.427Z</time>
      </trkpt>
      <trkpt lat="48.60746" lon="2.09021">
        <ele>171.6</ele>
        <time>2020-09-15T09:27:01.722Z</time>
      </trkpt>
      <trkpt lat="48.60748" lon="2.09031">
        <ele>171.6</ele>
        <time>2020-09-15T09:27:08.034Z</time>
      </trkpt>
      <trkpt lat="48.6075" lon="2.09042">
        <ele>171.6</ele>
        <time>2020-09-15T09:27:14.347Z</time>
      </trkpt>
      <trkpt lat="48.60753" lon="2.09051">
        <ele>171.6</ele>
        <time>2020-09-15T09:27:21.242Z</time>
      </trkpt>
      <trkpt lat="48.60757" lon="2.09059">
        <ele>171.6</ele>
        <time>2020-09-15T09:27:27.543Z</time>
      </trkpt>
      <trkpt lat="48.60761" lon="2.09067">
        <ele>171.6</ele>
        <time>2020-09-15T09:27:33.797Z</time>
      </trkpt>
      <trkpt lat="48.60764" lon="2.0908">
        <ele>171.6</ele>
        <time>2020-09-15T09:27:40.056Z</time>
      </trkpt>
      <trkpt lat="48.60764" lon="2.09091">
        <ele>171.6</ele>
        <time>2020-09-15T09:27:46.302Z</time>
      </trkpt>
      <trkpt lat="48.60765" lon="2.09099">
        <ele>171.6</ele>
        <time>2020-09-15T09:27:49.419Z</time>
      </trkpt>
      <trkpt lat="48.60766" lon="2.09105">
        <ele>171.6</ele>
        <time>2020-09-15T09:27:53.063Z</time>
      </trkpt>
      <trkpt lat="48.60768" lon="2.09116">
        <ele>171.6</ele>
        <time>2020-09-15T09:27:59.258Z</time>
      </trkpt>
      <trkpt lat="48.60772" lon="2.09128">
        <ele>171.6</ele>
        <time>2020-09-15T09:28:05.503Z</time>
      </trkpt>
      <trkpt lat="48.60778" lon="2.09138">
        <ele>171.6</ele>
        <time>2020-09-15T09:28:11.776Z</time>
      </trkpt>
      <trkpt lat="48.60781" lon="2.09142">
        <ele>171.6</ele>
        <time>2020-09-15T09:28:14.900Z</time>
      </trkpt>
      <trkpt lat="48.60785" lon="2.09147">
        <ele>171.6</ele>
        <time>2020-09-15T09:28:18.500Z</time>
      </trkpt>
      <trkpt lat="48.60787" lon="2.09152">
        <ele>150.5</ele>
        <time>2020-09-15T09:28:21.605Z</time>
      </trkpt>
      <trkpt lat="48.60791" lon="2.09159">
        <ele>157.5</ele>
        <time>2020-09-15T09:28:25.181Z</time>
      </trkpt>
      <trkpt lat="48.60795" lon="2.09165">
        <ele>156.1</ele>
        <time>2020-09-15T09:28:28.281Z</time>
      </trkpt>
      <trkpt lat="48.60799" lon="2.0917">
        <ele>156.4</ele>
        <time>2020-09-15T09:28:31.882Z</time>
      </trkpt>
      <trkpt lat="48.60805" lon="2.09178">
        <ele>156.2</ele>
        <time>2020-09-15T09:28:38.135Z</time>
      </trkpt>
      <trkpt lat="48.60809" lon="2.09182">
        <ele>158.1</ele>
        <time>2020-09-15T09:28:42.000Z</time>
      </trkpt>
      <trkpt lat="48.60816" lon="2.09188">
        <ele>150</ele>
        <time>2020-09-15T09:28:47.886Z</time>
      </trkpt>
      <trkpt lat="48.60822" lon="2.09194">
        <ele>152.1</ele>
        <time>2020-09-15T09:28:54.575Z</time>
      </trkpt>
      <trkpt lat="48.60828" lon="2.092">
        <ele>152.1</ele>
        <time>2020-09-15T09:29:00.757Z</time>
      </trkpt>
      <trkpt lat="48.60834" lon="2.09204">
        <ele>159.9</ele>
        <time>2020-09-15T09:29:06.943Z</time>
      </trkpt>
      <trkpt lat="48.60839" lon="2.09205">
        <ele>159.9</ele>
        <time>2020-09-15T09:29:10.558Z</time>
      </trkpt>
      <trkpt lat="48.60845" lon="2.09208">
        <ele>158.9</ele>
        <time>2020-09-15T09:29:16.736Z</time>
      </trkpt>
      <trkpt lat="48.60851" lon="2.09213">
        <ele>156.8</ele>
        <time>2020-09-15T09:29:22.956Z</time>
      </trkpt>
      <trkpt lat="48.60857" lon="2.09219">
        <ele>157.7</ele>
        <time>2020-09-15T09:29:29.284Z</time>
      </trkpt>
      <trkpt lat="48.60864" lon="2.09225">
        <ele>157.8</ele>
        <time>2020-09-15T09:29:36.000Z</time>
      </trkpt>
      <trkpt lat="48.6087" lon="2.09231">
        <ele>157.7</ele>
        <time>2020-09-15T09:29:42.268Z</time>
      </trkpt>
      <trkpt lat="48.60878" lon="2.09237">
        <ele>158.5</ele>
        <time>2020-09-15T09:29:48.557Z</time>
      </trkpt>
      <trkpt lat="48.60885" lon="2.09244">
        <ele>159.9</ele>
        <time>2020-09-15T09:29:54.856Z</time>
      </trkpt>
      <trkpt lat="48.6089" lon="2.09254">
        <ele>160</ele>
        <time>2020-09-15T09:30:01.262Z</time>
      </trkpt>
      <trkpt lat="48.60895" lon="2.09262">
        <ele>157.5</ele>
        <time>2020-09-15T09:30:07.638Z</time>
      </trkpt>
      <trkpt lat="48.60901" lon="2.09269">
        <ele>160.5</ele>
        <time>2020-09-15T09:30:14.005Z</time>
      </trkpt>
      <trkpt lat="48.60908" lon="2.09275">
        <ele>165.4</ele>
        <time>2020-09-15T09:30:20.382Z</time>
      </trkpt>
      <trkpt lat="48.60913" lon="2.09275">
        <ele>167</ele>
        <time>2020-09-15T09:30:23.620Z</time>
      </trkpt>
      <trkpt lat="48.6092" lon="2.09279">
        <ele>169.1</ele>
        <time>2020-09-15T09:30:30.818Z</time>
      </trkpt>
      <trkpt lat="48.60927" lon="2.09285">
        <ele>170.5</ele>
        <time>2020-09-15T09:30:37.535Z</time>
      </trkpt>
      <trkpt lat="48.60934" lon="2.09288">
        <ele>174.1</ele>
        <time>2020-09-15T09:30:44.177Z</time>
      </trkpt>
      <trkpt lat="48.6094" lon="2.09287">
        <ele>160.9</ele>
        <time>2020-09-15T09:31:21.717Z</time>
      </trkpt>
      <trkpt lat="48.60945" lon="2.09286">
        <ele>161.7</ele>
        <time>2020-09-15T09:31:25.441Z</time>
      </trkpt>
      <trkpt lat="48.60953" lon="2.09285">
        <ele>161.8</ele>
        <time>2020-09-15T09:31:31.962Z</time>
      </trkpt>
      <trkpt lat="48.60961" lon="2.09289">
        <ele>157.7</ele>
        <time>2020-09-15T09:31:38.417Z</time>
      </trkpt>
      <trkpt lat="48.60965" lon="2.09292">
        <ele>159.1</ele>
        <time>2020-09-15T09:31:41.719Z</time>
      </trkpt>
      <trkpt lat="48.60973" lon="2.09298">
        <ele>158.5</ele>
        <time>2020-09-15T09:31:48.675Z</time>
      </trkpt>
      <trkpt lat="48.60978" lon="2.09303">
        <ele>160</ele>
        <time>2020-09-15T09:31:52.482Z</time>
      </trkpt>
      <trkpt lat="48.60976" lon="2.09311">
        <ele>158.4</ele>
        <time>2020-09-15T09:32:21.000Z</time>
      </trkpt>
      <trkpt lat="48.60978" lon="2.09319">
        <ele>160.1</ele>
        <time>2020-09-15T09:32:27.475Z</time>
      </trkpt>
      <trkpt lat="48.60984" lon="2.09325">
        <ele>154.1</ele>
        <time>2020-09-15T09:32:33.780Z</time>
      </trkpt>
      <trkpt lat="48.60991" lon="2.0933">
        <ele>158</ele>
        <time>2020-09-15T09:32:39.981Z</time>
      </trkpt>
      <trkpt lat="48.60995" lon="2.09333">
        <ele>158.1</ele>
        <time>2020-09-15T09:32:43.123Z</time>
      </trkpt>
      <trkpt lat="48.61003" lon="2.09339">
        <ele>164</ele>
        <time>2020-09-15T09:32:49.875Z</time>
      </trkpt>
      <trkpt lat="48.61007" lon="2.09344">
        <ele>162.6</ele>
        <time>2020-09-15T09:32:53.060Z</time>
      </trkpt>
      <trkpt lat="48.61014" lon="2.0935">
        <ele>160.3</ele>
        <time>2020-09-15T09:32:59.445Z</time>
      </trkpt>
      <trkpt lat="48.61021" lon="2.09356">
        <ele>161.8</ele>
        <time>2020-09-15T09:33:06.056Z</time>
      </trkpt>
      <trkpt lat="48.61026" lon="2.09365">
        <ele>162.7</ele>
        <time>2020-09-15T09:33:12.175Z</time>
      </trkpt>
      <trkpt lat="48.61032" lon="2.09377">
        <ele>160.4</ele>
        <time>2020-09-15T09:33:18.403Z</time>
      </trkpt>
      <trkpt lat="48.61035" lon="2.09382">
        <ele>158.8</ele>
        <time>2020-09-15T09:33:21.979Z</time>
      </trkpt>
      <trkpt lat="48.61042" lon="2.09389">
        <ele>162.3</ele>
        <time>2020-09-15T09:33:28.158Z</time>
      </trkpt>
      <trkpt lat="48.61046" lon="2.09399">
        <ele>163.3</ele>
        <time>2020-09-15T09:33:34.341Z</time>
      </trkpt>
      <trkpt lat="48.61051" lon="2.09411">
        <ele>161.1</ele>
        <time>2020-09-15T09:33:40.653Z</time>
      </trkpt>
      <trkpt lat="48.61054" lon="2.0942">
        <ele>157.7</ele>
        <time>2020-09-15T09:33:46.857Z</time>
      </trkpt>
      <trkpt lat="48.61055" lon="2.09431">
        <ele>164</ele>
        <time>2020-09-15T09:33:53.024Z</time>
      </trkpt>
      <trkpt lat="48.61054" lon="2.09442">
        <ele>172.2</ele>
        <time>2020-09-15T09:33:59.261Z</time>
      </trkpt>
      <trkpt lat="48.61057" lon="2.09453">
        <ele>171.5</ele>
        <time>2020-09-15T09:34:05.551Z</time>
      </trkpt>
      <trkpt lat="48.61061" lon="2.09465">
        <ele>174.4</ele>
        <time>2020-09-15T09:34:11.893Z</time>
      </trkpt>
      <trkpt lat="48.61065" lon="2.09473">
        <ele>174.5</ele>
        <time>2020-09-15T09:34:17.957Z</time>
      </trkpt>
      <trkpt lat="48.6107" lon="2.09482">
        <ele>170.2</ele>
        <time>2020-09-15T09:34:24.223Z</time>
      </trkpt>
      <trkpt lat="48.61072" lon="2.0949">
        <ele>171.9</ele>
        <time>2020-09-15T09:34:30.327Z</time>
      </trkpt>
      <trkpt lat="48.61076" lon="2.095">
        <ele>169.3</ele>
        <time>2020-09-15T09:34:36.525Z</time>
      </trkpt>
      <trkpt lat="48.61081" lon="2.0951">
        <ele>168.7</ele>
        <time>2020-09-15T09:34:42.837Z</time>
      </trkpt>
      <trkpt lat="48.61085" lon="2.09517">
        <ele>172.6</ele>
        <time>2020-09-15T09:34:49.194Z</time>
      </trkpt>
      <trkpt lat="48.61089" lon="2.09527">
        <ele>174.1</ele>
        <time>2020-09-15T09:34:55.581Z</time>
      </trkpt>
      <trkpt lat="48.61091" lon="2.09538">
        <ele>174</ele>
        <time>2020-09-15T09:35:02.079Z</time>
      </trkpt>
      <trkpt lat="48.61093" lon="2.09546">
        <ele>172.8</ele>
        <time>2020-09-15T09:35:09.000Z</time>
      </trkpt>
      <trkpt lat="48.61095" lon="2.09553">
        <ele>172.4</ele>
        <time>2020-09-15T09:35:15.360Z</time>
      </trkpt>
      <trkpt lat="48.61098" lon="2.09563">
        <ele>173</ele>
        <time>2020-09-15T09:35:22.315Z</time>
      </trkpt>
      <trkpt lat="48.61103" lon="2.09573">
        <ele>183</ele>
        <time>2020-09-15T09:35:28.826Z</time>
      </trkpt>
      <trkpt lat="48.61107" lon="2.09583">
        <ele>181.7</ele>
        <time>2020-09-15T09:35:35.242Z</time>
      </trkpt>
      <trkpt lat="48.61111" lon="2.09593">
        <ele>178.4</ele>
        <time>2020-09-15T09:35:42.000Z</time>
      </trkpt>
      <trkpt lat="48.61113" lon="2.09598">
        <ele>179.3</ele>
        <time>2020-09-15T09:35:44.839Z</time>
      </trkpt>
      <trkpt lat="48.61116" lon="2.09604">
        <ele>146.4</ele>
        <time>2020-09-15T09:35:48.155Z</time>
      </trkpt>
      <trkpt lat="48.61122" lon="2.09614">
        <ele>169.8</ele>
        <time>2020-09-15T09:35:54.463Z</time>
      </trkpt>
      <trkpt lat="48.61125" lon="2.09619">
        <ele>172.2</ele>
        <time>2020-09-15T09:35:57.538Z</time>
      </trkpt>
      <trkpt lat="48.61129" lon="2.09626">
        <ele>172</ele>
        <time>2020-09-15T09:36:00.623Z</time>
      </trkpt>
      <trkpt lat="48.61134" lon="2.09634">
        <ele>171.9</ele>
        <time>2020-09-15T09:36:04.258Z</time>
      </trkpt>
      <trkpt lat="48.61139" lon="2.09642">
        <ele>172.7</ele>
        <time>2020-09-15T09:36:10.516Z</time>
      </trkpt>
      <trkpt lat="48.61143" lon="2.09652">
        <ele>168.1</ele>
        <time>2020-09-15T09:36:17.139Z</time>
      </trkpt>
      <trkpt lat="48.61147" lon="2.09657">
        <ele>167.4</ele>
        <time>2020-09-15T09:36:20.185Z</time>
      </trkpt>
      <trkpt lat="48.61151" lon="2.09662">
        <ele>164.1</ele>
        <time>2020-09-15T09:36:24.000Z</time>
      </trkpt>
      <trkpt lat="48.61157" lon="2.09671">
        <ele>165</ele>
        <time>2020-09-15T09:36:29.960Z</time>
      </trkpt>
      <trkpt lat="48.61161" lon="2.09681">
        <ele>167</ele>
        <time>2020-09-15T09:36:36.118Z</time>
      </trkpt>
      <trkpt lat="48.61163" lon="2.09688">
        <ele>167</ele>
        <time>2020-09-15T09:36:39.655Z</time>
      </trkpt>
      <trkpt lat="48.61165" lon="2.09695">
        <ele>168.9</ele>
        <time>2020-09-15T09:36:42.804Z</time>
      </trkpt>
      <trkpt lat="48.61168" lon="2.09705">
        <ele>168.7</ele>
        <time>2020-09-15T09:36:49.525Z</time>
      </trkpt>
      <trkpt lat="48.61171" lon="2.09716">
        <ele>163.9</ele>
        <time>2020-09-15T09:36:55.760Z</time>
      </trkpt>
      <trkpt lat="48.61174" lon="2.09727">
        <ele>171.8</ele>
        <time>2020-09-15T09:37:02.021Z</time>
      </trkpt>
      <trkpt lat="48.61177" lon="2.09732">
        <ele>170</ele>
        <time>2020-09-15T09:37:06.000Z</time>
      </trkpt>
      <trkpt lat="48.61183" lon="2.0974">
        <ele>174.5</ele>
        <time>2020-09-15T09:37:11.966Z</time>
      </trkpt>
      <trkpt lat="48.61187" lon="2.09746">
        <ele>169.1</ele>
        <time>2020-09-15T09:37:15.943Z</time>
      </trkpt>
      <trkpt lat="48.6119" lon="2.09751">
        <ele>168.4</ele>
        <time>2020-09-15T09:37:19.017Z</time>
      </trkpt>
      <trkpt lat="48.61193" lon="2.09756">
        <ele>170.2</ele>
        <time>2020-09-15T09:37:22.108Z</time>
      </trkpt>
      <trkpt lat="48.61197" lon="2.09761">
        <ele>170.2</ele>
        <time>2020-09-15T09:37:25.222Z</time>
      </trkpt>
      <trkpt lat="48.61199" lon="2.09767">
        <ele>167.4</ele>
        <time>2020-09-15T09:37:28.431Z</time>
      </trkpt>
      <trkpt lat="48.61204" lon="2.09778">
        <ele>162.4</ele>
        <time>2020-09-15T09:37:34.561Z</time>
      </trkpt>
      <trkpt lat="48.6121" lon="2.09789">
        <ele>164.2</ele>
        <time>2020-09-15T09:37:40.679Z</time>
      </trkpt>
      <trkpt lat="48.61214" lon="2.09797">
        <ele>159.7</ele>
        <time>2020-09-15T09:37:46.877Z</time>
      </trkpt>
      <trkpt lat="48.61218" lon="2.09808">
        <ele>159.2</ele>
        <time>2020-09-15T09:37:53.110Z</time>
      </trkpt>
      <trkpt lat="48.6122" lon="2.09814">
        <ele>158.8</ele>
        <time>2020-09-15T09:37:56.183Z</time>
      </trkpt>
      <trkpt lat="48.61221" lon="2.09822">
        <ele>154.6</ele>
        <time>2020-09-15T09:38:00.000Z</time>
      </trkpt>
      <trkpt lat="48.61226" lon="2.09833">
        <ele>154.6</ele>
        <time>2020-09-15T09:38:06.085Z</time>
      </trkpt>
      <trkpt lat="48.61232" lon="2.09844">
        <ele>160.2</ele>
        <time>2020-09-15T09:38:13.379Z</time>
      </trkpt>
      <trkpt lat="48.61238" lon="2.09851">
        <ele>163.4</ele>
        <time>2020-09-15T09:38:19.623Z</time>
      </trkpt>
      <trkpt lat="48.61244" lon="2.09858">
        <ele>165.3</ele>
        <time>2020-09-15T09:38:25.804Z</time>
      </trkpt>
      <trkpt lat="48.61248" lon="2.09864">
        <ele>167.9</ele>
        <time>2020-09-15T09:38:31.927Z</time>
      </trkpt>
      <trkpt lat="48.61253" lon="2.09872">
        <ele>168</ele>
        <time>2020-09-15T09:38:38.079Z</time>
      </trkpt>
      <trkpt lat="48.61256" lon="2.09878">
        <ele>172.1</ele>
        <time>2020-09-15T09:38:41.155Z</time>
      </trkpt>
      <trkpt lat="48.61259" lon="2.09884">
        <ele>167.4</ele>
        <time>2020-09-15T09:38:47.363Z</time>
      </trkpt>
      <trkpt lat="48.61261" lon="2.09893">
        <ele>166.9</ele>
        <time>2020-09-15T09:38:53.485Z</time>
      </trkpt>
      <trkpt lat="48.61263" lon="2.099">
        <ele>162.5</ele>
        <time>2020-09-15T09:38:56.598Z</time>
      </trkpt>
      <trkpt lat="48.61265" lon="2.09906">
        <ele>163</ele>
        <time>2020-09-15T09:39:00.245Z</time>
      </trkpt>
      <trkpt lat="48.61269" lon="2.09916">
        <ele>160.5</ele>
        <time>2020-09-15T09:39:06.443Z</time>
      </trkpt>
      <trkpt lat="48.61272" lon="2.09921">
        <ele>161.5</ele>
        <time>2020-09-15T09:39:09.541Z</time>
      </trkpt>
      <trkpt lat="48.61278" lon="2.0993">
        <ele>165.1</ele>
        <time>2020-09-15T09:39:15.862Z</time>
      </trkpt>
      <trkpt lat="48.61285" lon="2.09938">
        <ele>159.6</ele>
        <time>2020-09-15T09:39:22.069Z</time>
      </trkpt>
      <trkpt lat="48.61292" lon="2.09945">
        <ele>161.1</ele>
        <time>2020-09-15T09:39:28.348Z</time>
      </trkpt>
      <trkpt lat="48.613" lon="2.09952">
        <ele>169.1</ele>
        <time>2020-09-15T09:39:34.519Z</time>
      </trkpt>
      <trkpt lat="48.61304" lon="2.09954">
        <ele>167</ele>
        <time>2020-09-15T09:39:37.660Z</time>
      </trkpt>
      <trkpt lat="48.61309" lon="2.09958">
        <ele>167</ele>
        <time>2020-09-15T09:39:40.740Z</time>
      </trkpt>
      <trkpt lat="48.61315" lon="2.09964">
        <ele>165.2</ele>
        <time>2020-09-15T09:39:47.046Z</time>
      </trkpt>
      <trkpt lat="48.61319" lon="2.09968">
        <ele>164.8</ele>
        <time>2020-09-15T09:39:50.199Z</time>
      </trkpt>
      <trkpt lat="48.61325" lon="2.09975">
        <ele>168.3</ele>
        <time>2020-09-15T09:39:56.435Z</time>
      </trkpt>
      <trkpt lat="48.61332" lon="2.09982">
        <ele>156</ele>
        <time>2020-09-15T09:40:02.553Z</time>
      </trkpt>
      <trkpt lat="48.61338" lon="2.0999">
        <ele>154.8</ele>
        <time>2020-09-15T09:40:09.296Z</time>
      </trkpt>
      <trkpt lat="48.61344" lon="2.09998">
        <ele>158.6</ele>
        <time>2020-09-15T09:40:15.625Z</time>
      </trkpt>
      <trkpt lat="48.61348" lon="2.10008">
        <ele>162.9</ele>
        <time>2020-09-15T09:40:21.860Z</time>
      </trkpt>
      <trkpt lat="48.61353" lon="2.10017">
        <ele>165.1</ele>
        <time>2020-09-15T09:40:28.417Z</time>
      </trkpt>
      <trkpt lat="48.61356" lon="2.10022">
        <ele>163.1</ele>
        <time>2020-09-15T09:40:32.064Z</time>
      </trkpt>
      <trkpt lat="48.61362" lon="2.10029">
        <ele>159.9</ele>
        <time>2020-09-15T09:40:38.277Z</time>
      </trkpt>
      <trkpt lat="48.61366" lon="2.10033">
        <ele>160.1</ele>
        <time>2020-09-15T09:40:41.363Z</time>
      </trkpt>
      <trkpt lat="48.61373" lon="2.10039">
        <ele>158.5</ele>
        <time>2020-09-15T09:40:48.000Z</time>
      </trkpt>
      <trkpt lat="48.61377" lon="2.10048">
        <ele>158.2</ele>
        <time>2020-09-15T09:40:53.937Z</time>
      </trkpt>
      <trkpt lat="48.61383" lon="2.10055">
        <ele>157.5</ele>
        <time>2020-09-15T09:41:00.185Z</time>
      </trkpt>
      <trkpt lat="48.61389" lon="2.10062">
        <ele>158.9</ele>
        <time>2020-09-15T09:41:06.528Z</time>
      </trkpt>
      <trkpt lat="48.61395" lon="2.10069">
        <ele>159.6</ele>
        <time>2020-09-15T09:41:12.793Z</time>
      </trkpt>
      <trkpt lat="48.61401" lon="2.10075">
        <ele>166.6</ele>
        <time>2020-09-15T09:41:19.019Z</time>
      </trkpt>
      <trkpt lat="48.61409" lon="2.10081">
        <ele>166.5</ele>
        <time>2020-09-15T09:41:25.201Z</time>
      </trkpt>
      <trkpt lat="48.61414" lon="2.10084">
        <ele>166.5</ele>
        <time>2020-09-15T09:41:28.280Z</time>
      </trkpt>
      <trkpt lat="48.61421" lon="2.10088">
        <ele>165.8</ele>
        <time>2020-09-15T09:41:34.462Z</time>
      </trkpt>
      <trkpt lat="48.61427" lon="2.10097">
        <ele>162.4</ele>
        <time>2020-09-15T09:41:40.660Z</time>
      </trkpt>
      <trkpt lat="48.61432" lon="2.10102">
        <ele>163.3</ele>
        <time>2020-09-15T09:41:46.849Z</time>
      </trkpt>
      <trkpt lat="48.61441" lon="2.1011">
        <ele>161</ele>
        <time>2020-09-15T09:41:53.097Z</time>
      </trkpt>
      <trkpt lat="48.61445" lon="2.10114">
        <ele>161</ele>
        <time>2020-09-15T09:41:56.222Z</time>
      </trkpt>
      <trkpt lat="48.6145" lon="2.10116">
        <ele>158.4</ele>
        <time>2020-09-15T09:42:02.359Z</time>
      </trkpt>
      <trkpt lat="48.61455" lon="2.10122">
        <ele>163.3</ele>
        <time>2020-09-15T09:42:09.000Z</time>
      </trkpt>
      <trkpt lat="48.61462" lon="2.10128">
        <ele>162.8</ele>
        <time>2020-09-15T09:42:15.341Z</time>
      </trkpt>
      <trkpt lat="48.61469" lon="2.10135">
        <ele>160.6</ele>
        <time>2020-09-15T09:42:21.678Z</time>
      </trkpt>
      <trkpt lat="48.61476" lon="2.10139">
        <ele>157</ele>
        <time>2020-09-15T09:42:27.981Z</time>
      </trkpt>
      <trkpt lat="48.61483" lon="2.10145">
        <ele>156.4</ele>
        <time>2020-09-15T09:42:34.246Z</time>
      </trkpt>
      <trkpt lat="48.61492" lon="2.10156">
        <ele>154.6</ele>
        <time>2020-09-15T09:42:41.002Z</time>
      </trkpt>
      <trkpt lat="48.61497" lon="2.10161">
        <ele>153.6</ele>
        <time>2020-09-15T09:42:47.708Z</time>
      </trkpt>
      <trkpt lat="48.61504" lon="2.10167">
        <ele>153.6</ele>
        <time>2020-09-15T09:42:54.486Z</time>
      </trkpt>
      <trkpt lat="48.6151" lon="2.10174">
        <ele>153.6</ele>
        <time>2020-09-15T09:43:00.682Z</time>
      </trkpt>
      <trkpt lat="48.61517" lon="2.1018">
        <ele>153.6</ele>
        <time>2020-09-15T09:43:07.382Z</time>
      </trkpt>
      <trkpt lat="48.61524" lon="2.10183">
        <ele>153.6</ele>
        <time>2020-09-15T09:43:13.619Z</time>
      </trkpt>
      <trkpt lat="48.61531" lon="2.10184">
        <ele>153.6</ele>
        <time>2020-09-15T09:43:19.861Z</time>
      </trkpt>
      <trkpt lat="48.61539" lon="2.10186">
        <ele>153.6</ele>
        <time>2020-09-15T09:43:26.143Z</time>
      </trkpt>
      <trkpt lat="48.61546" lon="2.10189">
        <ele>153.6</ele>
        <time>2020-09-15T09:43:32.418Z</time>
      </trkpt>
      <trkpt lat="48.61553" lon="2.10196">
        <ele>153.6</ele>
        <time>2020-09-15T09:43:39.380Z</time>
      </trkpt>
      <trkpt lat="48.61554" lon="2.1021">
        <ele>153.6</ele>
        <time>2020-09-15T09:43:45.000Z</time>
      </trkpt>
      <trkpt lat="48.6155" lon="2.10214">
        <ele>153.6</ele>
        <time>2020-09-15T09:43:50.883Z</time>
      </trkpt>
      <trkpt lat="48.61546" lon="2.10225">
        <ele>153.6</ele>
        <time>2020-09-15T09:43:57.181Z</time>
      </trkpt>
      <trkpt lat="48.61541" lon="2.10236">
        <ele>152.5</ele>
        <time>2020-09-15T09:44:03.919Z</time>
      </trkpt>
      <trkpt lat="48.61536" lon="2.10247">
        <ele>151.9</ele>
        <time>2020-09-15T09:44:09.999Z</time>
      </trkpt>
      <trkpt lat="48.61533" lon="2.10258">
        <ele>152.7</ele>
        <time>2020-09-15T09:44:16.184Z</time>
      </trkpt>
      <trkpt lat="48.6153" lon="2.10268">
        <ele>149.6</ele>
        <time>2020-09-15T09:44:22.338Z</time>
      </trkpt>
      <trkpt lat="48.61526" lon="2.10279">
        <ele>156.7</ele>
        <time>2020-09-15T09:44:29.001Z</time>
      </trkpt>
      <trkpt lat="48.61523" lon="2.10284">
        <ele>154.6</ele>
        <time>2020-09-15T09:44:33.000Z</time>
      </trkpt>
      <trkpt lat="48.6152" lon="2.10296">
        <ele>151.6</ele>
        <time>2020-09-15T09:44:39.340Z</time>
      </trkpt>
      <trkpt lat="48.61518" lon="2.10303">
        <ele>150.9</ele>
        <time>2020-09-15T09:44:42.527Z</time>
      </trkpt>
      <trkpt lat="48.61516" lon="2.10314">
        <ele>150.1</ele>
        <time>2020-09-15T09:44:48.744Z</time>
      </trkpt>
      <trkpt lat="48.61513" lon="2.10326">
        <ele>155</ele>
        <time>2020-09-15T09:44:54.998Z</time>
      </trkpt>
      <trkpt lat="48.61511" lon="2.10334">
        <ele>153.8</ele>
        <time>2020-09-15T09:45:01.298Z</time>
      </trkpt>
      <trkpt lat="48.61507" lon="2.10342">
        <ele>154.3</ele>
        <time>2020-09-15T09:45:07.743Z</time>
      </trkpt>
      <trkpt lat="48.61504" lon="2.10347">
        <ele>148.1</ele>
        <time>2020-09-15T09:45:12.000Z</time>
      </trkpt>
      <trkpt lat="48.61498" lon="2.10353">
        <ele>156.3</ele>
        <time>2020-09-15T09:45:45.980Z</time>
      </trkpt>
      <trkpt lat="48.61493" lon="2.10361">
        <ele>156.9</ele>
        <time>2020-09-15T09:45:52.413Z</time>
      </trkpt>
      <trkpt lat="48.61489" lon="2.10371">
        <ele>151.6</ele>
        <time>2020-09-15T09:46:03.000Z</time>
      </trkpt>
      <trkpt lat="48.61492" lon="2.10365">
        <ele>153.7</ele>
        <time>2020-09-15T09:46:10.004Z</time>
      </trkpt>
      <trkpt lat="48.61487" lon="2.10372">
        <ele>152.1</ele>
        <time>2020-09-15T09:46:32.959Z</time>
      </trkpt>
      <trkpt lat="48.6148" lon="2.10381">
        <ele>168.5</ele>
        <time>2020-09-15T09:46:40.000Z</time>
      </trkpt>
      <trkpt lat="48.61475" lon="2.10389">
        <ele>168</ele>
        <time>2020-09-15T09:46:46.465Z</time>
      </trkpt>
      <trkpt lat="48.6147" lon="2.10401">
        <ele>158.7</ele>
        <time>2020-09-15T09:46:52.529Z</time>
      </trkpt>
      <trkpt lat="48.61463" lon="2.1041">
        <ele>163.8</ele>
        <time>2020-09-15T09:47:00.000Z</time>
      </trkpt>
      <trkpt lat="48.61458" lon="2.10414">
        <ele>161.3</ele>
        <time>2020-09-15T09:47:02.616Z</time>
      </trkpt>
      <trkpt lat="48.61454" lon="2.10419">
        <ele>157.9</ele>
        <time>2020-09-15T09:47:06.162Z</time>
      </trkpt>
      <trkpt lat="48.61448" lon="2.10429">
        <ele>159.4</ele>
        <time>2020-09-15T09:47:12.229Z</time>
      </trkpt>
      <trkpt lat="48.61443" lon="2.10438">
        <ele>160.3</ele>
        <time>2020-09-15T09:47:18.293Z</time>
      </trkpt>
      <trkpt lat="48.61438" lon="2.10445">
        <ele>160.5</ele>
        <time>2020-09-15T09:47:24.396Z</time>
      </trkpt>
      <trkpt lat="48.61435" lon="2.10459">
        <ele>158.3</ele>
        <time>2020-09-15T09:47:30.898Z</time>
      </trkpt>
      <trkpt lat="48.61434" lon="2.10466">
        <ele>158.6</ele>
        <time>2020-09-15T09:47:33.933Z</time>
      </trkpt>
      <trkpt lat="48.61432" lon="2.10473">
        <ele>161.2</ele>
        <time>2020-09-15T09:47:36.958Z</time>
      </trkpt>
      <trkpt lat="48.6143" lon="2.10479">
        <ele>161</ele>
        <time>2020-09-15T09:47:40.497Z</time>
      </trkpt>
      <trkpt lat="48.61425" lon="2.10489">
        <ele>154</ele>
        <time>2020-09-15T09:47:46.619Z</time>
      </trkpt>
      <trkpt lat="48.6142" lon="2.10498">
        <ele>155.9</ele>
        <time>2020-09-15T09:47:52.761Z</time>
      </trkpt>
      <trkpt lat="48.61416" lon="2.10507">
        <ele>151.8</ele>
        <time>2020-09-15T09:47:58.951Z</time>
      </trkpt>
      <trkpt lat="48.61413" lon="2.10518">
        <ele>151.2</ele>
        <time>2020-09-15T09:48:05.077Z</time>
      </trkpt>
      <trkpt lat="48.61413" lon="2.1053">
        <ele>148.5</ele>
        <time>2020-09-15T09:48:11.279Z</time>
      </trkpt>
      <trkpt lat="48.61412" lon="2.10542">
        <ele>154.6</ele>
        <time>2020-09-15T09:48:18.000Z</time>
      </trkpt>
      <trkpt lat="48.61412" lon="2.10549">
        <ele>154.6</ele>
        <time>2020-09-15T09:48:20.935Z</time>
      </trkpt>
      <trkpt lat="48.61412" lon="2.1056">
        <ele>154.6</ele>
        <time>2020-09-15T09:48:27.014Z</time>
      </trkpt>
      <trkpt lat="48.6141" lon="2.10573">
        <ele>154.6</ele>
        <time>2020-09-15T09:48:33.589Z</time>
      </trkpt>
      <trkpt lat="48.61409" lon="2.10581">
        <ele>154.6</ele>
        <time>2020-09-15T09:48:37.215Z</time>
      </trkpt>
      <trkpt lat="48.61409" lon="2.10592">
        <ele>154.6</ele>
        <time>2020-09-15T09:48:43.379Z</time>
      </trkpt>
      <trkpt lat="48.61414" lon="2.10602">
        <ele>154.6</ele>
        <time>2020-09-15T09:48:49.515Z</time>
      </trkpt>
      <trkpt lat="48.61417" lon="2.10607">
        <ele>154.6</ele>
        <time>2020-09-15T09:48:52.620Z</time>
      </trkpt>
      <trkpt lat="48.61421" lon="2.10616">
        <ele>154.6</ele>
        <time>2020-09-15T09:48:58.858Z</time>
      </trkpt>
      <trkpt lat="48.61427" lon="2.10624">
        <ele>154.6</ele>
        <time>2020-09-15T09:49:06.000Z</time>
      </trkpt>
      <trkpt lat="48.6143" lon="2.1063">
        <ele>154.6</ele>
        <time>2020-09-15T09:49:11.788Z</time>
      </trkpt>
      <trkpt lat="48.61435" lon="2.10636">
        <ele>154.6</ele>
        <time>2020-09-15T09:49:18.077Z</time>
      </trkpt>
      <trkpt lat="48.61441" lon="2.10644">
        <ele>154</ele>
        <time>2020-09-15T09:49:24.282Z</time>
      </trkpt>
      <trkpt lat="48.61445" lon="2.10654">
        <ele>154</ele>
        <time>2020-09-15T09:49:30.508Z</time>
      </trkpt>
      <trkpt lat="48.6145" lon="2.10662">
        <ele>154.6</ele>
        <time>2020-09-15T09:49:36.780Z</time>
      </trkpt>
      <trkpt lat="48.61454" lon="2.10666">
        <ele>154.6</ele>
        <time>2020-09-15T09:49:39.898Z</time>
      </trkpt>
      <trkpt lat="48.61461" lon="2.10674">
        <ele>154.6</ele>
        <time>2020-09-15T09:49:46.222Z</time>
      </trkpt>
      <trkpt lat="48.61468" lon="2.10681">
        <ele>154.6</ele>
        <time>2020-09-15T09:49:52.577Z</time>
      </trkpt>
      <trkpt lat="48.61475" lon="2.10688">
        <ele>154.6</ele>
        <time>2020-09-15T09:49:58.913Z</time>
      </trkpt>
      <trkpt lat="48.61479" lon="2.10692">
        <ele>154.6</ele>
        <time>2020-09-15T09:50:02.097Z</time>
      </trkpt>
      <trkpt lat="48.61484" lon="2.10695">
        <ele>154.6</ele>
        <time>2020-09-15T09:50:06.000Z</time>
      </trkpt>
      <trkpt lat="48.61488" lon="2.10698">
        <ele>154.4</ele>
        <time>2020-09-15T09:50:08.902Z</time>
      </trkpt>
      <trkpt lat="48.61495" lon="2.10702">
        <ele>153.2</ele>
        <time>2020-09-15T09:50:15.219Z</time>
      </trkpt>
      <trkpt lat="48.61503" lon="2.10707">
        <ele>153.2</ele>
        <time>2020-09-15T09:50:21.580Z</time>
      </trkpt>
      <trkpt lat="48.61511" lon="2.1071">
        <ele>154</ele>
        <time>2020-09-15T09:50:27.983Z</time>
      </trkpt>
      <trkpt lat="48.61513" lon="2.1072">
        <ele>154</ele>
        <time>2020-09-15T09:50:34.652Z</time>
      </trkpt>
      <trkpt lat="48.61511" lon="2.10732">
        <ele>154</ele>
        <time>2020-09-15T09:50:40.828Z</time>
      </trkpt>
      <trkpt lat="48.6151" lon="2.10738">
        <ele>154</ele>
        <time>2020-09-15T09:50:43.934Z</time>
      </trkpt>
      <trkpt lat="48.61508" lon="2.10747">
        <ele>154</ele>
        <time>2020-09-15T09:50:47.008Z</time>
      </trkpt>
      <trkpt lat="48.61506" lon="2.10753">
        <ele>153.6</ele>
        <time>2020-09-15T09:50:50.113Z</time>
      </trkpt>
      <trkpt lat="48.61503" lon="2.10765">
        <ele>153.7</ele>
        <time>2020-09-15T09:50:56.335Z</time>
      </trkpt>
      <trkpt lat="48.615" lon="2.10772">
        <ele>153.7</ele>
        <time>2020-09-15T09:50:59.465Z</time>
      </trkpt>
      <trkpt lat="48.61499" lon="2.10785">
        <ele>154</ele>
        <time>2020-09-15T09:51:05.765Z</time>
      </trkpt>
      <trkpt lat="48.61497" lon="2.10796">
        <ele>154.4</ele>
        <time>2020-09-15T09:51:12.004Z</time>
      </trkpt>
      <trkpt lat="48.61496" lon="2.10807">
        <ele>154.4</ele>
        <time>2020-09-15T09:51:18.201Z</time>
      </trkpt>
      <trkpt lat="48.61494" lon="2.10819">
        <ele>154</ele>
        <time>2020-09-15T09:51:24.498Z</time>
      </trkpt>
      <trkpt lat="48.61493" lon="2.10832">
        <ele>154</ele>
        <time>2020-09-15T09:51:30.803Z</time>
      </trkpt>
      <trkpt lat="48.61495" lon="2.1084">
        <ele>154</ele>
        <time>2020-09-15T09:51:37.120Z</time>
      </trkpt>
      <trkpt lat="48.615" lon="2.10847">
        <ele>154</ele>
        <time>2020-09-15T09:51:43.399Z</time>
      </trkpt>
      <trkpt lat="48.61505" lon="2.10856">
        <ele>154</ele>
        <time>2020-09-15T09:51:49.750Z</time>
      </trkpt>
      <trkpt lat="48.61509" lon="2.10863">
        <ele>154</ele>
        <time>2020-09-15T09:51:56.124Z</time>
      </trkpt>
      <trkpt lat="48.61513" lon="2.10872">
        <ele>154</ele>
        <time>2020-09-15T09:52:02.420Z</time>
      </trkpt>
      <trkpt lat="48.61518" lon="2.10881">
        <ele>154</ele>
        <time>2020-09-15T09:52:08.758Z</time>
      </trkpt>
      <trkpt lat="48.61521" lon="2.1089">
        <ele>154</ele>
        <time>2020-09-15T09:52:15.037Z</time>
      </trkpt>
      <trkpt lat="48.61525" lon="2.10899">
        <ele>154</ele>
        <time>2020-09-15T09:52:21.404Z</time>
      </trkpt>
      <trkpt lat="48.61527" lon="2.10908">
        <ele>154</ele>
        <time>2020-09-15T09:52:27.915Z</time>
      </trkpt>
      <trkpt lat="48.61531" lon="2.10919">
        <ele>151.6</ele>
        <time>2020-09-15T09:52:34.301Z</time>
      </trkpt>
      <trkpt lat="48.61533" lon="2.10928">
        <ele>151.6</ele>
        <time>2020-09-15T09:52:40.618Z</time>
      </trkpt>
      <trkpt lat="48.61532" lon="2.10937">
        <ele>150.5</ele>
        <time>2020-09-15T09:52:46.982Z</time>
      </trkpt>
      <trkpt lat="48.61533" lon="2.10946">
        <ele>150.5</ele>
        <time>2020-09-15T09:52:53.267Z</time>
      </trkpt>
      <trkpt lat="48.6153" lon="2.10952">
        <ele>150.5</ele>
        <time>2020-09-15T09:52:56.436Z</time>
      </trkpt>
      <trkpt lat="48.61527" lon="2.10958">
        <ele>150.5</ele>
        <time>2020-09-15T09:52:59.598Z</time>
      </trkpt>
      <trkpt lat="48.61525" lon="2.10966">
        <ele>150.5</ele>
        <time>2020-09-15T09:53:03.347Z</time>
      </trkpt>
      <trkpt lat="48.61525" lon="2.10975">
        <ele>150.8</ele>
        <time>2020-09-15T09:53:09.705Z</time>
      </trkpt>
      <trkpt lat="48.61525" lon="2.10985">
        <ele>150.5</ele>
        <time>2020-09-15T09:53:15.992Z</time>
      </trkpt>
      <trkpt lat="48.61523" lon="2.10998">
        <ele>150.5</ele>
        <time>2020-09-15T09:53:22.283Z</time>
      </trkpt>
      <trkpt lat="48.61519" lon="2.11009">
        <ele>151</ele>
        <time>2020-09-15T09:53:28.609Z</time>
      </trkpt>
      <trkpt lat="48.61514" lon="2.11019">
        <ele>150.8</ele>
        <time>2020-09-15T09:53:34.869Z</time>
      </trkpt>
      <trkpt lat="48.61512" lon="2.11025">
        <ele>150.8</ele>
        <time>2020-09-15T09:53:38.541Z</time>
      </trkpt>
      <trkpt lat="48.61508" lon="2.11029">
        <ele>151.2</ele>
        <time>2020-09-15T09:53:41.683Z</time>
      </trkpt>
      <trkpt lat="48.61503" lon="2.11034">
        <ele>151.2</ele>
        <time>2020-09-15T09:53:45.383Z</time>
      </trkpt>
      <trkpt lat="48.615" lon="2.1104">
        <ele>151.2</ele>
        <time>2020-09-15T09:53:48.500Z</time>
      </trkpt>
      <trkpt lat="48.61497" lon="2.11045">
        <ele>151.2</ele>
        <time>2020-09-15T09:53:51.594Z</time>
      </trkpt>
      <trkpt lat="48.61492" lon="2.11054">
        <ele>151.2</ele>
        <time>2020-09-15T09:53:57.882Z</time>
      </trkpt>
      <trkpt lat="48.61488" lon="2.11062">
        <ele>151.2</ele>
        <time>2020-09-15T09:54:04.144Z</time>
      </trkpt>
      <trkpt lat="48.61485" lon="2.11072">
        <ele>151.2</ele>
        <time>2020-09-15T09:54:10.504Z</time>
      </trkpt>
      <trkpt lat="48.61483" lon="2.11082">
        <ele>151.2</ele>
        <time>2020-09-15T09:54:17.268Z</time>
      </trkpt>
      <trkpt lat="48.61479" lon="2.11093">
        <ele>151.2</ele>
        <time>2020-09-15T09:54:24.000Z</time>
      </trkpt>
      <trkpt lat="48.61476" lon="2.11099">
        <ele>151.2</ele>
        <time>2020-09-15T09:54:26.679Z</time>
      </trkpt>
      <trkpt lat="48.61474" lon="2.11106">
        <ele>151.2</ele>
        <time>2020-09-15T09:54:30.299Z</time>
      </trkpt>
      <trkpt lat="48.6147" lon="2.11117">
        <ele>151.2</ele>
        <time>2020-09-15T09:54:36.436Z</time>
      </trkpt>
      <trkpt lat="48.61469" lon="2.11124">
        <ele>151.2</ele>
        <time>2020-09-15T09:54:39.582Z</time>
      </trkpt>
      <trkpt lat="48.61466" lon="2.11134">
        <ele>151.2</ele>
        <time>2020-09-15T09:54:45.857Z</time>
      </trkpt>
      <trkpt lat="48.61463" lon="2.11144">
        <ele>151.2</ele>
        <time>2020-09-15T09:54:52.120Z</time>
      </trkpt>
      <trkpt lat="48.61461" lon="2.11158">
        <ele>144.8</ele>
        <time>2020-09-15T09:55:02.042Z</time>
      </trkpt>
      <trkpt lat="48.6146" lon="2.11171">
        <ele>140.2</ele>
        <time>2020-09-15T09:55:08.553Z</time>
      </trkpt>
      <trkpt lat="48.6146" lon="2.11184">
        <ele>139.8</ele>
        <time>2020-09-15T09:55:15.897Z</time>
      </trkpt>
      <trkpt lat="48.61459" lon="2.11195">
        <ele>142.4</ele>
        <time>2020-09-15T09:55:22.173Z</time>
      </trkpt>
      <trkpt lat="48.61457" lon="2.11206">
        <ele>146.9</ele>
        <time>2020-09-15T09:55:28.445Z</time>
      </trkpt>
      <trkpt lat="48.61455" lon="2.11212">
        <ele>147.7</ele>
        <time>2020-09-15T09:55:31.561Z</time>
      </trkpt>
      <trkpt lat="48.61454" lon="2.1122">
        <ele>147.9</ele>
        <time>2020-09-15T09:55:34.740Z</time>
      </trkpt>
      <trkpt lat="48.61453" lon="2.11234">
        <ele>144.9</ele>
        <time>2020-09-15T09:55:40.962Z</time>
      </trkpt>
      <trkpt lat="48.61452" lon="2.11246">
        <ele>137.4</ele>
        <time>2020-09-15T09:55:47.141Z</time>
      </trkpt>
      <trkpt lat="48.61451" lon="2.11257">
        <ele>132.3</ele>
        <time>2020-09-15T09:55:53.483Z</time>
      </trkpt>
      <trkpt lat="48.61451" lon="2.11269">
        <ele>137.9</ele>
        <time>2020-09-15T09:56:00.137Z</time>
      </trkpt>
      <trkpt lat="48.61451" lon="2.11281">
        <ele>141.4</ele>
        <time>2020-09-15T09:56:06.316Z</time>
      </trkpt>
      <trkpt lat="48.61452" lon="2.11289">
        <ele>134.7</ele>
        <time>2020-09-15T09:56:09.962Z</time>
      </trkpt>
      <trkpt lat="48.6145" lon="2.11301">
        <ele>133.2</ele>
        <time>2020-09-15T09:56:16.745Z</time>
      </trkpt>
      <trkpt lat="48.61448" lon="2.11313">
        <ele>136.9</ele>
        <time>2020-09-15T09:56:23.003Z</time>
      </trkpt>
      <trkpt lat="48.61448" lon="2.11326">
        <ele>136.5</ele>
        <time>2020-09-15T09:56:29.839Z</time>
      </trkpt>
      <trkpt lat="48.61448" lon="2.11332">
        <ele>140.9</ele>
        <time>2020-09-15T09:56:33.418Z</time>
      </trkpt>
      <trkpt lat="48.61449" lon="2.11346">
        <ele>141.7</ele>
        <time>2020-09-15T09:56:39.579Z</time>
      </trkpt>
      <trkpt lat="48.6145" lon="2.11357">
        <ele>143.5</ele>
        <time>2020-09-15T09:56:46.182Z</time>
      </trkpt>
      <trkpt lat="48.61451" lon="2.11369">
        <ele>136.5</ele>
        <time>2020-09-15T09:56:52.322Z</time>
      </trkpt>
      <trkpt lat="48.61454" lon="2.11378">
        <ele>131.9</ele>
        <time>2020-09-15T09:56:58.509Z</time>
      </trkpt>
      <trkpt lat="48.61457" lon="2.11386">
        <ele>135</ele>
        <time>2020-09-15T09:57:04.642Z</time>
      </trkpt>
      <trkpt lat="48.61459" lon="2.11397">
        <ele>132.8</ele>
        <time>2020-09-15T09:57:10.879Z</time>
      </trkpt>
      <trkpt lat="48.6146" lon="2.11408">
        <ele>128.6</ele>
        <time>2020-09-15T09:57:17.155Z</time>
      </trkpt>
      <trkpt lat="48.61462" lon="2.11421">
        <ele>125</ele>
        <time>2020-09-15T09:57:23.464Z</time>
      </trkpt>
      <trkpt lat="48.61465" lon="2.11431">
        <ele>122.1</ele>
        <time>2020-09-15T09:57:29.646Z</time>
      </trkpt>
      <trkpt lat="48.61468" lon="2.11439">
        <ele>126.8</ele>
        <time>2020-09-15T09:57:36.421Z</time>
      </trkpt>
      <trkpt lat="48.61465" lon="2.11452">
        <ele>129.9</ele>
        <time>2020-09-15T09:57:52.436Z</time>
      </trkpt>
      <trkpt lat="48.61465" lon="2.1146">
        <ele>130.5</ele>
        <time>2020-09-15T09:57:55.562Z</time>
      </trkpt>
      <trkpt lat="48.61465" lon="2.11471">
        <ele>138.2</ele>
        <time>2020-09-15T09:58:01.828Z</time>
      </trkpt>
      <trkpt lat="48.61468" lon="2.11478">
        <ele>138.7</ele>
        <time>2020-09-15T09:58:08.002Z</time>
      </trkpt>
      <trkpt lat="48.61471" lon="2.11492">
        <ele>140.2</ele>
        <time>2020-09-15T09:58:17.401Z</time>
      </trkpt>
      <trkpt lat="48.61472" lon="2.11505">
        <ele>139.1</ele>
        <time>2020-09-15T09:58:24.181Z</time>
      </trkpt>
      <trkpt lat="48.61473" lon="2.11517">
        <ele>133.2</ele>
        <time>2020-09-15T09:58:30.461Z</time>
      </trkpt>
      <trkpt lat="48.61473" lon="2.11524">
        <ele>129</ele>
        <time>2020-09-15T09:58:33.531Z</time>
      </trkpt>
      <trkpt lat="48.61473" lon="2.11539">
        <ele>124.4</ele>
        <time>2020-09-15T09:58:39.764Z</time>
      </trkpt>
      <trkpt lat="48.61472" lon="2.1155">
        <ele>128.8</ele>
        <time>2020-09-15T09:58:45.973Z</time>
      </trkpt>
      <trkpt lat="48.61472" lon="2.11559">
        <ele>129.3</ele>
        <time>2020-09-15T09:58:49.093Z</time>
      </trkpt>
      <trkpt lat="48.61471" lon="2.11566">
        <ele>128.1</ele>
        <time>2020-09-15T09:58:52.223Z</time>
      </trkpt>
      <trkpt lat="48.6147" lon="2.11579">
        <ele>131.3</ele>
        <time>2020-09-15T09:58:58.661Z</time>
      </trkpt>
      <trkpt lat="48.61468" lon="2.11591">
        <ele>132.3</ele>
        <time>2020-09-15T09:59:05.000Z</time>
      </trkpt>
      <trkpt lat="48.61468" lon="2.11603">
        <ele>136.6</ele>
        <time>2020-09-15T09:59:11.307Z</time>
      </trkpt>
      <trkpt lat="48.61469" lon="2.11615">
        <ele>141.5</ele>
        <time>2020-09-15T09:59:18.000Z</time>
      </trkpt>
      <trkpt lat="48.61469" lon="2.11622">
        <ele>139.9</ele>
        <time>2020-09-15T09:59:20.641Z</time>
      </trkpt>
      <trkpt lat="48.6147" lon="2.1163">
        <ele>140</ele>
        <time>2020-09-15T09:59:24.241Z</time>
      </trkpt>
      <trkpt lat="48.61472" lon="2.11642">
        <ele>139.6</ele>
        <time>2020-09-15T09:59:30.477Z</time>
      </trkpt>
      <trkpt lat="48.61475" lon="2.11649">
        <ele>139.5</ele>
        <time>2020-09-15T09:59:33.625Z</time>
      </trkpt>
      <trkpt lat="48.61477" lon="2.11655">
        <ele>141.1</ele>
        <time>2020-09-15T09:59:39.860Z</time>
      </trkpt>
      <trkpt lat="48.61478" lon="2.11663">
        <ele>141.3</ele>
        <time>2020-09-15T09:59:43.003Z</time>
      </trkpt>
      <trkpt lat="48.6148" lon="2.11674">
        <ele>140.3</ele>
        <time>2020-09-15T09:59:49.279Z</time>
      </trkpt>
      <trkpt lat="48.6148" lon="2.11684">
        <ele>136.4</ele>
        <time>2020-09-15T09:59:55.561Z</time>
      </trkpt>
      <trkpt lat="48.61481" lon="2.11696">
        <ele>133.9</ele>
        <time>2020-09-15T10:00:01.800Z</time>
      </trkpt>
      <trkpt lat="48.61482" lon="2.11708">
        <ele>134.5</ele>
        <time>2020-09-15T10:00:08.061Z</time>
      </trkpt>
      <trkpt lat="48.61483" lon="2.11719">
        <ele>135.1</ele>
        <time>2020-09-15T10:00:14.312Z</time>
      </trkpt>
      <trkpt lat="48.61485" lon="2.11733">
        <ele>139</ele>
        <time>2020-09-15T10:00:20.465Z</time>
      </trkpt>
      <trkpt lat="48.61487" lon="2.11745">
        <ele>135.7</ele>
        <time>2020-09-15T10:00:26.761Z</time>
      </trkpt>
      <trkpt lat="48.61491" lon="2.11757">
        <ele>131.5</ele>
        <time>2020-09-15T10:00:33.138Z</time>
      </trkpt>
      <trkpt lat="48.61496" lon="2.1177">
        <ele>131.2</ele>
        <time>2020-09-15T10:00:39.493Z</time>
      </trkpt>
      <trkpt lat="48.615" lon="2.11779">
        <ele>131</ele>
        <time>2020-09-15T10:00:45.834Z</time>
      </trkpt>
      <trkpt lat="48.61503" lon="2.1179">
        <ele>133.4</ele>
        <time>2020-09-15T10:00:52.326Z</time>
      </trkpt>
      <trkpt lat="48.61501" lon="2.11799">
        <ele>117.2</ele>
        <time>2020-09-15T10:00:58.831Z</time>
      </trkpt>
      <trkpt lat="48.61496" lon="2.11799">
        <ele>116.9</ele>
        <time>2020-09-15T10:01:02.033Z</time>
      </trkpt>
      <trkpt lat="48.6149" lon="2.11797">
        <ele>120.4</ele>
        <time>2020-09-15T10:01:06.000Z</time>
      </trkpt>
      <trkpt lat="48.61484" lon="2.11792">
        <ele>120.8</ele>
        <time>2020-09-15T10:01:09.001Z</time>
      </trkpt>
      <trkpt lat="48.6148" lon="2.11789">
        <ele>120.5</ele>
        <time>2020-09-15T10:01:12.232Z</time>
      </trkpt>
      <trkpt lat="48.61472" lon="2.11787">
        <ele>123.7</ele>
        <time>2020-09-15T10:01:18.585Z</time>
      </trkpt>
      <trkpt lat="48.61467" lon="2.11788">
        <ele>123.7</ele>
        <time>2020-09-15T10:01:22.302Z</time>
      </trkpt>
      <trkpt lat="48.6146" lon="2.11791">
        <ele>123.6</ele>
        <time>2020-09-15T10:01:28.602Z</time>
      </trkpt>
      <trkpt lat="48.61452" lon="2.11794">
        <ele>132.7</ele>
        <time>2020-09-15T10:01:34.982Z</time>
      </trkpt>
      <trkpt lat="48.61445" lon="2.118">
        <ele>133.5</ele>
        <time>2020-09-15T10:01:42.000Z</time>
      </trkpt>
      <trkpt lat="48.61439" lon="2.11809">
        <ele>131.3</ele>
        <time>2020-09-15T10:01:48.117Z</time>
      </trkpt>
      <trkpt lat="48.61433" lon="2.11817">
        <ele>132</ele>
        <time>2020-09-15T10:01:54.441Z</time>
      </trkpt>
      <trkpt lat="48.6143" lon="2.11821">
        <ele>129.2</ele>
        <time>2020-09-15T10:01:57.586Z</time>
      </trkpt>
      <trkpt lat="48.61424" lon="2.11827">
        <ele>128.5</ele>
        <time>2020-09-15T10:02:03.909Z</time>
      </trkpt>
      <trkpt lat="48.61418" lon="2.11833">
        <ele>130.9</ele>
        <time>2020-09-15T10:02:10.228Z</time>
      </trkpt>
      <trkpt lat="48.61411" lon="2.1184">
        <ele>133.5</ele>
        <time>2020-09-15T10:02:16.618Z</time>
      </trkpt>
      <trkpt lat="48.61404" lon="2.11842">
        <ele>139</ele>
        <time>2020-09-15T10:02:23.061Z</time>
      </trkpt>
      <trkpt lat="48.61397" lon="2.11845">
        <ele>118.6</ele>
        <time>2020-09-15T10:02:29.420Z</time>
      </trkpt>
      <trkpt lat="48.61389" lon="2.11847">
        <ele>123.1</ele>
        <time>2020-09-15T10:02:35.775Z</time>
      </trkpt>
      <trkpt lat="48.61385" lon="2.11849">
        <ele>121.6</ele>
        <time>2020-09-15T10:02:38.939Z</time>
      </trkpt>
      <trkpt lat="48.61378" lon="2.11853">
        <ele>120.9</ele>
        <time>2020-09-15T10:02:45.255Z</time>
      </trkpt>
      <trkpt lat="48.61371" lon="2.11857">
        <ele>120.9</ele>
        <time>2020-09-15T10:02:51.603Z</time>
      </trkpt>
      <trkpt lat="48.61364" lon="2.11862">
        <ele>120.9</ele>
        <time>2020-09-15T10:02:57.961Z</time>
      </trkpt>
      <trkpt lat="48.61361" lon="2.11873">
        <ele>124.3</ele>
        <time>2020-09-15T10:03:02.000Z</time>
      </trkpt>
      <trkpt lat="48.61359" lon="2.11879">
        <ele>129.5</ele>
        <time>2020-09-15T10:03:11.431Z</time>
      </trkpt>
      <trkpt lat="48.61354" lon="2.11885">
        <ele>130.6</ele>
        <time>2020-09-15T10:03:17.670Z</time>
      </trkpt>
      <trkpt lat="48.61349" lon="2.11889">
        <ele>129.2</ele>
        <time>2020-09-15T10:03:21.254Z</time>
      </trkpt>
      <trkpt lat="48.61346" lon="2.11893">
        <ele>128.9</ele>
        <time>2020-09-15T10:03:24.393Z</time>
      </trkpt>
      <trkpt lat="48.61342" lon="2.11898">
        <ele>129.4</ele>
        <time>2020-09-15T10:03:28.041Z</time>
      </trkpt>
      <trkpt lat="48.61335" lon="2.11906">
        <ele>129.3</ele>
        <time>2020-09-15T10:03:34.315Z</time>
      </trkpt>
      <trkpt lat="48.61327" lon="2.11913">
        <ele>129.3</ele>
        <time>2020-09-15T10:03:40.577Z</time>
      </trkpt>
      <trkpt lat="48.61321" lon="2.1192">
        <ele>129.4</ele>
        <time>2020-09-15T10:03:49.273Z</time>
      </trkpt>
      <trkpt lat="48.61315" lon="2.11925">
        <ele>129.6</ele>
        <time>2020-09-15T10:03:59.151Z</time>
      </trkpt>
      <trkpt lat="48.61311" lon="2.11932">
        <ele>132.5</ele>
        <time>2020-09-15T10:04:02.273Z</time>
      </trkpt>
      <trkpt lat="48.61306" lon="2.11941">
        <ele>134.8</ele>
        <time>2020-09-15T10:04:05.471Z</time>
      </trkpt>
      <trkpt lat="48.61303" lon="2.11946">
        <ele>132.9</ele>
        <time>2020-09-15T10:04:08.571Z</time>
      </trkpt>
      <trkpt lat="48.61298" lon="2.11956">
        <ele>135.3</ele>
        <time>2020-09-15T10:04:14.672Z</time>
      </trkpt>
      <trkpt lat="48.61293" lon="2.11967">
        <ele>134.2</ele>
        <time>2020-09-15T10:04:20.854Z</time>
      </trkpt>
      <trkpt lat="48.61288" lon="2.11977">
        <ele>132.5</ele>
        <time>2020-09-15T10:04:27.032Z</time>
      </trkpt>
      <trkpt lat="48.61281" lon="2.11983">
        <ele>133.6</ele>
        <time>2020-09-15T10:04:33.737Z</time>
      </trkpt>
      <trkpt lat="48.61275" lon="2.11991">
        <ele>136</ele>
        <time>2020-09-15T10:04:40.013Z</time>
      </trkpt>
      <trkpt lat="48.61269" lon="2.11997">
        <ele>133.7</ele>
        <time>2020-09-15T10:04:46.267Z</time>
      </trkpt>
      <trkpt lat="48.61262" lon="2.12006">
        <ele>127.8</ele>
        <time>2020-09-15T10:04:52.536Z</time>
      </trkpt>
      <trkpt lat="48.61255" lon="2.12011">
        <ele>133.8</ele>
        <time>2020-09-15T10:04:59.338Z</time>
      </trkpt>
      <trkpt lat="48.61247" lon="2.12017">
        <ele>145.4</ele>
        <time>2020-09-15T10:05:06.136Z</time>
      </trkpt>
      <trkpt lat="48.61239" lon="2.12021">
        <ele>140.1</ele>
        <time>2020-09-15T10:05:12.357Z</time>
      </trkpt>
      <trkpt lat="48.6123" lon="2.12024">
        <ele>134.2</ele>
        <time>2020-09-15T10:05:19.040Z</time>
      </trkpt>
      <trkpt lat="48.61222" lon="2.12025">
        <ele>130.8</ele>
        <time>2020-09-15T10:05:25.258Z</time>
      </trkpt>
      <trkpt lat="48.61214" lon="2.12025">
        <ele>131.9</ele>
        <time>2020-09-15T10:05:31.535Z</time>
      </trkpt>
      <trkpt lat="48.61205" lon="2.12026">
        <ele>130.2</ele>
        <time>2020-09-15T10:05:38.235Z</time>
      </trkpt>
      <trkpt lat="48.61201" lon="2.12026">
        <ele>130.2</ele>
        <time>2020-09-15T10:05:41.376Z</time>
      </trkpt>
      <trkpt lat="48.61194" lon="2.12029">
        <ele>134</ele>
        <time>2020-09-15T10:05:48.000Z</time>
      </trkpt>
      <trkpt lat="48.61187" lon="2.12031">
        <ele>136.4</ele>
        <time>2020-09-15T10:05:54.229Z</time>
      </trkpt>
      <trkpt lat="48.6118" lon="2.12032">
        <ele>147.2</ele>
        <time>2020-09-15T10:06:00.471Z</time>
      </trkpt>
      <trkpt lat="48.61172" lon="2.12034">
        <ele>144.1</ele>
        <time>2020-09-15T10:06:06.783Z</time>
      </trkpt>
      <trkpt lat="48.61164" lon="2.12037">
        <ele>142.8</ele>
        <time>2020-09-15T10:06:13.095Z</time>
      </trkpt>
      <trkpt lat="48.61156" lon="2.12041">
        <ele>144.9</ele>
        <time>2020-09-15T10:06:19.372Z</time>
      </trkpt>
      <trkpt lat="48.61148" lon="2.12043">
        <ele>140.8</ele>
        <time>2020-09-15T10:06:25.590Z</time>
      </trkpt>
      <trkpt lat="48.61144" lon="2.12047">
        <ele>129</ele>
        <time>2020-09-15T10:06:28.735Z</time>
      </trkpt>
      <trkpt lat="48.61139" lon="2.12052">
        <ele>125.6</ele>
        <time>2020-09-15T10:06:31.920Z</time>
      </trkpt>
      <trkpt lat="48.61135" lon="2.12055">
        <ele>125.4</ele>
        <time>2020-09-15T10:06:35.013Z</time>
      </trkpt>
      <trkpt lat="48.6113" lon="2.12057">
        <ele>127.6</ele>
        <time>2020-09-15T10:06:38.116Z</time>
      </trkpt>
      <trkpt lat="48.61125" lon="2.12059">
        <ele>128.4</ele>
        <time>2020-09-15T10:06:41.233Z</time>
      </trkpt>
      <trkpt lat="48.61117" lon="2.12063">
        <ele>129.1</ele>
        <time>2020-09-15T10:06:47.557Z</time>
      </trkpt>
      <trkpt lat="48.61109" lon="2.12063">
        <ele>133.7</ele>
        <time>2020-09-15T10:06:53.913Z</time>
      </trkpt>
      <trkpt lat="48.61103" lon="2.12059">
        <ele>133.3</ele>
        <time>2020-09-15T10:07:00.193Z</time>
      </trkpt>
      <trkpt lat="48.61096" lon="2.12059">
        <ele>130.1</ele>
        <time>2020-09-15T10:07:06.509Z</time>
      </trkpt>
      <trkpt lat="48.61089" lon="2.1206">
        <ele>127.8</ele>
        <time>2020-09-15T10:07:12.670Z</time>
      </trkpt>
      <trkpt lat="48.61081" lon="2.12063">
        <ele>130.2</ele>
        <time>2020-09-15T10:07:18.899Z</time>
      </trkpt>
      <trkpt lat="48.61073" lon="2.12066">
        <ele>133</ele>
        <time>2020-09-15T10:07:25.075Z</time>
      </trkpt>
      <trkpt lat="48.61065" lon="2.12071">
        <ele>129.8</ele>
        <time>2020-09-15T10:07:31.237Z</time>
      </trkpt>
      <trkpt lat="48.61057" lon="2.12073">
        <ele>129.8</ele>
        <time>2020-09-15T10:07:37.374Z</time>
      </trkpt>
      <trkpt lat="48.61049" lon="2.12074">
        <ele>131.1</ele>
        <time>2020-09-15T10:07:43.655Z</time>
      </trkpt>
      <trkpt lat="48.61041" lon="2.12074">
        <ele>127.6</ele>
        <time>2020-09-15T10:07:49.873Z</time>
      </trkpt>
      <trkpt lat="48.61032" lon="2.12075">
        <ele>125.2</ele>
        <time>2020-09-15T10:07:56.170Z</time>
      </trkpt>
      <trkpt lat="48.61024" lon="2.12077">
        <ele>130.6</ele>
        <time>2020-09-15T10:08:03.000Z</time>
      </trkpt>
      <trkpt lat="48.61016" lon="2.12082">
        <ele>135.5</ele>
        <time>2020-09-15T10:08:08.813Z</time>
      </trkpt>
      <trkpt lat="48.61011" lon="2.12088">
        <ele>128.7</ele>
        <time>2020-09-15T10:08:15.170Z</time>
      </trkpt>
      <trkpt lat="48.61005" lon="2.12095">
        <ele>130.1</ele>
        <time>2020-09-15T10:08:21.598Z</time>
      </trkpt>
      <trkpt lat="48.61003" lon="2.12105">
        <ele>130.4</ele>
        <time>2020-09-15T10:08:28.268Z</time>
      </trkpt>
      <trkpt lat="48.61002" lon="2.12114">
        <ele>133</ele>
        <time>2020-09-15T10:08:34.617Z</time>
      </trkpt>
      <trkpt lat="48.60999" lon="2.12124">
        <ele>138.6</ele>
        <time>2020-09-15T10:08:40.913Z</time>
      </trkpt>
      <trkpt lat="48.60998" lon="2.12135">
        <ele>140.8</ele>
        <time>2020-09-15T10:08:47.091Z</time>
      </trkpt>
      <trkpt lat="48.60999" lon="2.12143">
        <ele>143.6</ele>
        <time>2020-09-15T10:08:50.237Z</time>
      </trkpt>
      <trkpt lat="48.61" lon="2.1215">
        <ele>140.3</ele>
        <time>2020-09-15T10:08:53.349Z</time>
      </trkpt>
      <trkpt lat="48.61" lon="2.12163">
        <ele>134.5</ele>
        <time>2020-09-15T10:08:59.661Z</time>
      </trkpt>
      <trkpt lat="48.60999" lon="2.12175">
        <ele>137.6</ele>
        <time>2020-09-15T10:09:05.935Z</time>
      </trkpt>
      <trkpt lat="48.60997" lon="2.12187">
        <ele>135.2</ele>
        <time>2020-09-15T10:09:12.194Z</time>
      </trkpt>
      <trkpt lat="48.60995" lon="2.12194">
        <ele>135</ele>
        <time>2020-09-15T10:09:15.336Z</time>
      </trkpt>
      <trkpt lat="48.60992" lon="2.122">
        <ele>134.2</ele>
        <time>2020-09-15T10:09:18.550Z</time>
      </trkpt>
      <trkpt lat="48.6099" lon="2.12206">
        <ele>134.8</ele>
        <time>2020-09-15T10:09:21.773Z</time>
      </trkpt>
      <trkpt lat="48.60988" lon="2.12218">
        <ele>132.5</ele>
        <time>2020-09-15T10:09:28.168Z</time>
      </trkpt>
      <trkpt lat="48.60988" lon="2.12229">
        <ele>128.6</ele>
        <time>2020-09-15T10:09:34.698Z</time>
      </trkpt>
      <trkpt lat="48.60985" lon="2.12237">
        <ele>125.8</ele>
        <time>2020-09-15T10:09:44.194Z</time>
      </trkpt>
      <trkpt lat="48.60985" lon="2.1223">
        <ele>127</ele>
        <time>2020-09-15T10:09:54.649Z</time>
      </trkpt>
      <trkpt lat="48.60985" lon="2.12222">
        <ele>125.3</ele>
        <time>2020-09-15T10:10:15.000Z</time>
      </trkpt>
      <trkpt lat="48.60989" lon="2.12226">
        <ele>135.4</ele>
        <time>2020-09-15T10:14:09.000Z</time>
      </trkpt>
      <trkpt lat="48.60989" lon="2.12233">
        <ele>135.5</ele>
        <time>2020-09-15T10:14:48.000Z</time>
      </trkpt>
      <trkpt lat="48.60989" lon="2.12242">
        <ele>134.2</ele>
        <time>2020-09-15T10:14:54.346Z</time>
      </trkpt>
      <trkpt lat="48.6099" lon="2.12249">
        <ele>134.6</ele>
        <time>2020-09-15T10:14:57.584Z</time>
      </trkpt>
      <trkpt lat="48.60992" lon="2.12256">
        <ele>130.5</ele>
        <time>2020-09-15T10:15:00.802Z</time>
      </trkpt>
      <trkpt lat="48.60995" lon="2.12268">
        <ele>131.8</ele>
        <time>2020-09-15T10:15:07.286Z</time>
      </trkpt>
      <trkpt lat="48.60997" lon="2.12276">
        <ele>129.5</ele>
        <time>2020-09-15T10:15:10.480Z</time>
      </trkpt>
      <trkpt lat="48.60999" lon="2.12283">
        <ele>129.4</ele>
        <time>2020-09-15T10:15:13.664Z</time>
      </trkpt>
      <trkpt lat="48.61" lon="2.12291">
        <ele>123.1</ele>
        <time>2020-09-15T10:15:16.810Z</time>
      </trkpt>
      <trkpt lat="48.61001" lon="2.12304">
        <ele>119</ele>
        <time>2020-09-15T10:15:23.143Z</time>
      </trkpt>
      <trkpt lat="48.61002" lon="2.12312">
        <ele>123.4</ele>
        <time>2020-09-15T10:15:26.352Z</time>
      </trkpt>
      <trkpt lat="48.61003" lon="2.12324">
        <ele>122.3</ele>
        <time>2020-09-15T10:15:32.823Z</time>
      </trkpt>
      <trkpt lat="48.61005" lon="2.12339">
        <ele>121.3</ele>
        <time>2020-09-15T10:15:39.159Z</time>
      </trkpt>
      <trkpt lat="48.61006" lon="2.12351">
        <ele>124.7</ele>
        <time>2020-09-15T10:15:45.584Z</time>
      </trkpt>
      <trkpt lat="48.61004" lon="2.12362">
        <ele>127.1</ele>
        <time>2020-09-15T10:15:51.843Z</time>
      </trkpt>
      <trkpt lat="48.60999" lon="2.12372">
        <ele>126.7</ele>
        <time>2020-09-15T10:15:58.140Z</time>
      </trkpt>
      <trkpt lat="48.60992" lon="2.12378">
        <ele>127.4</ele>
        <time>2020-09-15T10:16:04.339Z</time>
      </trkpt>
      <trkpt lat="48.60987" lon="2.1238">
        <ele>130.8</ele>
        <time>2020-09-15T10:16:07.581Z</time>
      </trkpt>
      <trkpt lat="48.60982" lon="2.12379">
        <ele>131.3</ele>
        <time>2020-09-15T10:16:10.841Z</time>
      </trkpt>
      <trkpt lat="48.60973" lon="2.12378">
        <ele>131.1</ele>
        <time>2020-09-15T10:16:17.258Z</time>
      </trkpt>
      <trkpt lat="48.60964" lon="2.1238">
        <ele>129.4</ele>
        <time>2020-09-15T10:16:23.763Z</time>
      </trkpt>
      <trkpt lat="48.60958" lon="2.12382">
        <ele>130.4</ele>
        <time>2020-09-15T10:16:30.019Z</time>
      </trkpt>
      <trkpt lat="48.60952" lon="2.12386">
        <ele>130.2</ele>
        <time>2020-09-15T10:16:33.766Z</time>
      </trkpt>
      <trkpt lat="48.60944" lon="2.12389">
        <ele>126.5</ele>
        <time>2020-09-15T10:16:40.145Z</time>
      </trkpt>
      <trkpt lat="48.60938" lon="2.12392">
        <ele>127.3</ele>
        <time>2020-09-15T10:16:46.539Z</time>
      </trkpt>
      <trkpt lat="48.6093" lon="2.12396">
        <ele>129.3</ele>
        <time>2020-09-15T10:16:52.935Z</time>
      </trkpt>
      <trkpt lat="48.60925" lon="2.12398">
        <ele>126</ele>
        <time>2020-09-15T10:16:56.107Z</time>
      </trkpt>
      <trkpt lat="48.60916" lon="2.12402">
        <ele>123.1</ele>
        <time>2020-09-15T10:17:02.385Z</time>
      </trkpt>
      <trkpt lat="48.60912" lon="2.12403">
        <ele>124.5</ele>
        <time>2020-09-15T10:17:05.534Z</time>
      </trkpt>
      <trkpt lat="48.60904" lon="2.12405">
        <ele>127.8</ele>
        <time>2020-09-15T10:17:11.829Z</time>
      </trkpt>
      <trkpt lat="48.60895" lon="2.12406">
        <ele>127</ele>
        <time>2020-09-15T10:17:18.605Z</time>
      </trkpt>
      <trkpt lat="48.60887" lon="2.12407">
        <ele>132.9</ele>
        <time>2020-09-15T10:17:25.408Z</time>
      </trkpt>
      <trkpt lat="48.60879" lon="2.1241">
        <ele>132.2</ele>
        <time>2020-09-15T10:17:31.706Z</time>
      </trkpt>
      <trkpt lat="48.60872" lon="2.12414">
        <ele>135.2</ele>
        <time>2020-09-15T10:17:38.019Z</time>
      </trkpt>
      <trkpt lat="48.60868" lon="2.12417">
        <ele>140.1</ele>
        <time>2020-09-15T10:17:41.068Z</time>
      </trkpt>
      <trkpt lat="48.60862" lon="2.12419">
        <ele>138</ele>
        <time>2020-09-15T10:17:47.390Z</time>
      </trkpt>
      <trkpt lat="48.60854" lon="2.12422">
        <ele>137.5</ele>
        <time>2020-09-15T10:17:54.000Z</time>
      </trkpt>
      <trkpt lat="48.6085" lon="2.12425">
        <ele>137.4</ele>
        <time>2020-09-15T10:17:56.808Z</time>
      </trkpt>
      <trkpt lat="48.60842" lon="2.12429">
        <ele>138.2</ele>
        <time>2020-09-15T10:18:03.505Z</time>
      </trkpt>
      <trkpt lat="48.60834" lon="2.1243">
        <ele>137.4</ele>
        <time>2020-09-15T10:18:09.844Z</time>
      </trkpt>
      <trkpt lat="48.60828" lon="2.1243">
        <ele>136.6</ele>
        <time>2020-09-15T10:18:16.161Z</time>
      </trkpt>
      <trkpt lat="48.6082" lon="2.12428">
        <ele>136.7</ele>
        <time>2020-09-15T10:18:22.470Z</time>
      </trkpt>
      <trkpt lat="48.60815" lon="2.12428">
        <ele>141.6</ele>
        <time>2020-09-15T10:18:25.621Z</time>
      </trkpt>
      <trkpt lat="48.60809" lon="2.12429">
        <ele>141.8</ele>
        <time>2020-09-15T10:18:28.785Z</time>
      </trkpt>
      <trkpt lat="48.60801" lon="2.12432">
        <ele>141.7</ele>
        <time>2020-09-15T10:18:35.062Z</time>
      </trkpt>
      <trkpt lat="48.60793" lon="2.12435">
        <ele>141.5</ele>
        <time>2020-09-15T10:18:41.322Z</time>
      </trkpt>
      <trkpt lat="48.60786" lon="2.12438">
        <ele>137</ele>
        <time>2020-09-15T10:18:48.000Z</time>
      </trkpt>
      <trkpt lat="48.60782" lon="2.12439">
        <ele>138.3</ele>
        <time>2020-09-15T10:18:50.645Z</time>
      </trkpt>
      <trkpt lat="48.60774" lon="2.12443">
        <ele>139.5</ele>
        <time>2020-09-15T10:18:56.904Z</time>
      </trkpt>
      <trkpt lat="48.60766" lon="2.12446">
        <ele>138.7</ele>
        <time>2020-09-15T10:19:03.701Z</time>
      </trkpt>
      <trkpt lat="48.60759" lon="2.12448">
        <ele>141.9</ele>
        <time>2020-09-15T10:19:09.947Z</time>
      </trkpt>
      <trkpt lat="48.6075" lon="2.12446">
        <ele>140.6</ele>
        <time>2020-09-15T10:19:16.119Z</time>
      </trkpt>
      <trkpt lat="48.60742" lon="2.12447">
        <ele>139.7</ele>
        <time>2020-09-15T10:19:22.317Z</time>
      </trkpt>
      <trkpt lat="48.60735" lon="2.12451">
        <ele>138.9</ele>
        <time>2020-09-15T10:19:28.525Z</time>
      </trkpt>
      <trkpt lat="48.60727" lon="2.12454">
        <ele>138.1</ele>
        <time>2020-09-15T10:19:34.687Z</time>
      </trkpt>
      <trkpt lat="48.60719" lon="2.12459">
        <ele>138.2</ele>
        <time>2020-09-15T10:19:41.387Z</time>
      </trkpt>
      <trkpt lat="48.60712" lon="2.12462">
        <ele>138.8</ele>
        <time>2020-09-15T10:19:47.605Z</time>
      </trkpt>
      <trkpt lat="48.60707" lon="2.12463">
        <ele>139.7</ele>
        <time>2020-09-15T10:19:51.144Z</time>
      </trkpt>
      <trkpt lat="48.60699" lon="2.12465">
        <ele>139.7</ele>
        <time>2020-09-15T10:19:57.864Z</time>
      </trkpt>
      <trkpt lat="48.6069" lon="2.12467">
        <ele>138.3</ele>
        <time>2020-09-15T10:20:04.084Z</time>
      </trkpt>
      <trkpt lat="48.60682" lon="2.12471">
        <ele>139.5</ele>
        <time>2020-09-15T10:20:10.322Z</time>
      </trkpt>
      <trkpt lat="48.60675" lon="2.12472">
        <ele>138.5</ele>
        <time>2020-09-15T10:20:16.543Z</time>
      </trkpt>
      <trkpt lat="48.60667" lon="2.12473">
        <ele>139.9</ele>
        <time>2020-09-15T10:20:22.818Z</time>
      </trkpt>
      <trkpt lat="48.60659" lon="2.12472">
        <ele>133.8</ele>
        <time>2020-09-15T10:20:29.117Z</time>
      </trkpt>
      <trkpt lat="48.60652" lon="2.12474">
        <ele>130</ele>
        <time>2020-09-15T10:20:35.355Z</time>
      </trkpt>
      <trkpt lat="48.60643" lon="2.12476">
        <ele>131.5</ele>
        <time>2020-09-15T10:20:41.613Z</time>
      </trkpt>
      <trkpt lat="48.60634" lon="2.12477">
        <ele>133</ele>
        <time>2020-09-15T10:20:48.334Z</time>
      </trkpt>
      <trkpt lat="48.60626" lon="2.12481">
        <ele>130.9</ele>
        <time>2020-09-15T10:20:54.492Z</time>
      </trkpt>
      <trkpt lat="48.60621" lon="2.12484">
        <ele>133.3</ele>
        <time>2020-09-15T10:20:57.551Z</time>
      </trkpt>
      <trkpt lat="48.60613" lon="2.12484">
        <ele>135</ele>
        <time>2020-09-15T10:21:03.756Z</time>
      </trkpt>
      <trkpt lat="48.60605" lon="2.12482">
        <ele>134.4</ele>
        <time>2020-09-15T10:21:09.959Z</time>
      </trkpt>
      <trkpt lat="48.606" lon="2.12479">
        <ele>126.2</ele>
        <time>2020-09-15T10:21:13.109Z</time>
      </trkpt>
      <trkpt lat="48.60592" lon="2.12476">
        <ele>127</ele>
        <time>2020-09-15T10:21:19.357Z</time>
      </trkpt>
      <trkpt lat="48.60584" lon="2.12475">
        <ele>132.7</ele>
        <time>2020-09-15T10:21:25.978Z</time>
      </trkpt>
      <trkpt lat="48.60581" lon="2.12479">
        <ele>131.3</ele>
        <time>2020-09-15T10:21:32.474Z</time>
      </trkpt>
      <trkpt lat="48.60581" lon="2.12491">
        <ele>126.8</ele>
        <time>2020-09-15T10:21:38.810Z</time>
      </trkpt>
      <trkpt lat="48.60583" lon="2.12498">
        <ele>125.9</ele>
        <time>2020-09-15T10:21:41.939Z</time>
      </trkpt>
      <trkpt lat="48.60585" lon="2.12504">
        <ele>125.4</ele>
        <time>2020-09-15T10:21:45.070Z</time>
      </trkpt>
      <trkpt lat="48.60589" lon="2.12518">
        <ele>124.9</ele>
        <time>2020-09-15T10:21:51.290Z</time>
      </trkpt>
      <trkpt lat="48.60591" lon="2.12525">
        <ele>125.8</ele>
        <time>2020-09-15T10:21:54.395Z</time>
      </trkpt>
      <trkpt lat="48.60593" lon="2.12532">
        <ele>128.6</ele>
        <time>2020-09-15T10:21:57.536Z</time>
      </trkpt>
      <trkpt lat="48.60595" lon="2.12539">
        <ele>128.4</ele>
        <time>2020-09-15T10:22:00.671Z</time>
      </trkpt>
      <trkpt lat="48.60597" lon="2.12545">
        <ele>132.2</ele>
        <time>2020-09-15T10:22:03.778Z</time>
      </trkpt>
      <trkpt lat="48.60599" lon="2.12552">
        <ele>127.9</ele>
        <time>2020-09-15T10:22:06.889Z</time>
      </trkpt>
      <trkpt lat="48.60601" lon="2.1256">
        <ele>128.1</ele>
        <time>2020-09-15T10:22:10.514Z</time>
      </trkpt>
      <trkpt lat="48.60603" lon="2.12572">
        <ele>122.1</ele>
        <time>2020-09-15T10:22:16.753Z</time>
      </trkpt>
      <trkpt lat="48.60604" lon="2.12582">
        <ele>128.8</ele>
        <time>2020-09-15T10:22:22.972Z</time>
      </trkpt>
      <trkpt lat="48.60606" lon="2.12594">
        <ele>128.6</ele>
        <time>2020-09-15T10:22:29.270Z</time>
      </trkpt>
      <trkpt lat="48.60607" lon="2.12605">
        <ele>131.1</ele>
        <time>2020-09-15T10:22:35.452Z</time>
      </trkpt>
      <trkpt lat="48.60605" lon="2.12614">
        <ele>131.6</ele>
        <time>2020-09-15T10:22:41.598Z</time>
      </trkpt>
      <trkpt lat="48.60605" lon="2.12621">
        <ele>131.3</ele>
        <time>2020-09-15T10:22:45.205Z</time>
      </trkpt>
      <trkpt lat="48.60606" lon="2.12633">
        <ele>132.2</ele>
        <time>2020-09-15T10:22:51.424Z</time>
      </trkpt>
      <trkpt lat="48.60609" lon="2.12644">
        <ele>132.6</ele>
        <time>2020-09-15T10:22:57.722Z</time>
      </trkpt>
      <trkpt lat="48.60612" lon="2.12656">
        <ele>128.7</ele>
        <time>2020-09-15T10:23:04.508Z</time>
      </trkpt>
      <trkpt lat="48.60613" lon="2.12663">
        <ele>130.2</ele>
        <time>2020-09-15T10:23:07.645Z</time>
      </trkpt>
      <trkpt lat="48.60614" lon="2.12676">
        <ele>131.8</ele>
        <time>2020-09-15T10:23:14.428Z</time>
      </trkpt>
      <trkpt lat="48.60616" lon="2.12687">
        <ele>130.6</ele>
        <time>2020-09-15T10:23:20.727Z</time>
      </trkpt>
      <trkpt lat="48.60618" lon="2.127">
        <ele>131.8</ele>
        <time>2020-09-15T10:23:27.522Z</time>
      </trkpt>
      <trkpt lat="48.6062" lon="2.12712">
        <ele>128</ele>
        <time>2020-09-15T10:23:33.823Z</time>
      </trkpt>
      <trkpt lat="48.6062" lon="2.1272">
        <ele>131.1</ele>
        <time>2020-09-15T10:23:37.004Z</time>
      </trkpt>
      <trkpt lat="48.60621" lon="2.12729">
        <ele>130.6</ele>
        <time>2020-09-15T10:23:40.118Z</time>
      </trkpt>
      <trkpt lat="48.60624" lon="2.12741">
        <ele>134</ele>
        <time>2020-09-15T10:23:46.374Z</time>
      </trkpt>
      <trkpt lat="48.60628" lon="2.12753">
        <ele>133.8</ele>
        <time>2020-09-15T10:23:52.645Z</time>
      </trkpt>
      <trkpt lat="48.60631" lon="2.12765">
        <ele>134.1</ele>
        <time>2020-09-15T10:23:58.980Z</time>
      </trkpt>
      <trkpt lat="48.60633" lon="2.12776">
        <ele>127.4</ele>
        <time>2020-09-15T10:24:05.242Z</time>
      </trkpt>
      <trkpt lat="48.60634" lon="2.12787">
        <ele>126.5</ele>
        <time>2020-09-15T10:24:12.000Z</time>
      </trkpt>
      <trkpt lat="48.60636" lon="2.128">
        <ele>130.1</ele>
        <time>2020-09-15T10:24:17.842Z</time>
      </trkpt>
      <trkpt lat="48.60637" lon="2.1281">
        <ele>134.3</ele>
        <time>2020-09-15T10:24:24.260Z</time>
      </trkpt>
      <trkpt lat="48.60643" lon="2.12807">
        <ele>132.5</ele>
        <time>2020-09-15T10:24:30.708Z</time>
      </trkpt>
      <trkpt lat="48.6065" lon="2.12801">
        <ele>134.7</ele>
        <time>2020-09-15T10:24:36.941Z</time>
      </trkpt>
      <trkpt lat="48.60656" lon="2.12795">
        <ele>135</ele>
        <time>2020-09-15T10:24:40.105Z</time>
      </trkpt>
      <trkpt lat="48.60662" lon="2.1279">
        <ele>134.3</ele>
        <time>2020-09-15T10:24:46.388Z</time>
      </trkpt>
      <trkpt lat="48.60669" lon="2.12782">
        <ele>133.7</ele>
        <time>2020-09-15T10:24:52.662Z</time>
      </trkpt>
      <trkpt lat="48.60677" lon="2.12777">
        <ele>134.3</ele>
        <time>2020-09-15T10:24:58.979Z</time>
      </trkpt>
      <trkpt lat="48.60682" lon="2.12775">
        <ele>133.8</ele>
        <time>2020-09-15T10:25:02.202Z</time>
      </trkpt>
      <trkpt lat="48.60688" lon="2.12771">
        <ele>135.1</ele>
        <time>2020-09-15T10:25:08.499Z</time>
      </trkpt>
      <trkpt lat="48.60696" lon="2.12769">
        <ele>138.4</ele>
        <time>2020-09-15T10:25:14.805Z</time>
      </trkpt>
      <trkpt lat="48.60704" lon="2.12766">
        <ele>135</ele>
        <time>2020-09-15T10:25:21.045Z</time>
      </trkpt>
      <trkpt lat="48.60711" lon="2.12762">
        <ele>135.3</ele>
        <time>2020-09-15T10:25:27.281Z</time>
      </trkpt>
      <trkpt lat="48.60718" lon="2.12758">
        <ele>134.9</ele>
        <time>2020-09-15T10:25:33.600Z</time>
      </trkpt>
      <trkpt lat="48.60727" lon="2.12756">
        <ele>137.9</ele>
        <time>2020-09-15T10:25:39.888Z</time>
      </trkpt>
      <trkpt lat="48.60735" lon="2.12756">
        <ele>134.1</ele>
        <time>2020-09-15T10:25:46.638Z</time>
      </trkpt>
      <trkpt lat="48.60743" lon="2.12764">
        <ele>133.1</ele>
        <time>2020-09-15T10:25:52.926Z</time>
      </trkpt>
      <trkpt lat="48.60745" lon="2.12769">
        <ele>133.3</ele>
        <time>2020-09-15T10:25:56.039Z</time>
      </trkpt>
      <trkpt lat="48.60747" lon="2.12776">
        <ele>140.4</ele>
        <time>2020-09-15T10:25:59.204Z</time>
      </trkpt>
      <trkpt lat="48.60748" lon="2.12783">
        <ele>140.2</ele>
        <time>2020-09-15T10:26:02.345Z</time>
      </trkpt>
      <trkpt lat="48.60749" lon="2.12794">
        <ele>136.7</ele>
        <time>2020-09-15T10:26:09.000Z</time>
      </trkpt>
      <trkpt lat="48.60751" lon="2.12805">
        <ele>141.5</ele>
        <time>2020-09-15T10:26:15.347Z</time>
      </trkpt>
      <trkpt lat="48.60755" lon="2.12816">
        <ele>133.9</ele>
        <time>2020-09-15T10:26:21.593Z</time>
      </trkpt>
      <trkpt lat="48.6076" lon="2.12828">
        <ele>134.4</ele>
        <time>2020-09-15T10:26:28.426Z</time>
      </trkpt>
      <trkpt lat="48.60765" lon="2.12841">
        <ele>134.8</ele>
        <time>2020-09-15T10:26:34.681Z</time>
      </trkpt>
      <trkpt lat="48.60771" lon="2.12851">
        <ele>134</ele>
        <time>2020-09-15T10:26:40.901Z</time>
      </trkpt>
      <trkpt lat="48.60775" lon="2.1286">
        <ele>132.6</ele>
        <time>2020-09-15T10:26:47.118Z</time>
      </trkpt>
      <trkpt lat="48.60779" lon="2.1287">
        <ele>139.3</ele>
        <time>2020-09-15T10:26:53.337Z</time>
      </trkpt>
      <trkpt lat="48.60782" lon="2.12881">
        <ele>139.4</ele>
        <time>2020-09-15T10:27:00.000Z</time>
      </trkpt>
      <trkpt lat="48.60785" lon="2.12892">
        <ele>138.9</ele>
        <time>2020-09-15T10:27:06.001Z</time>
      </trkpt>
      <trkpt lat="48.60788" lon="2.12901">
        <ele>138.7</ele>
        <time>2020-09-15T10:27:12.280Z</time>
      </trkpt>
      <trkpt lat="48.6079" lon="2.12908">
        <ele>139</ele>
        <time>2020-09-15T10:27:15.486Z</time>
      </trkpt>
      <trkpt lat="48.60794" lon="2.12919">
        <ele>139.8</ele>
        <time>2020-09-15T10:27:21.860Z</time>
      </trkpt>
      <trkpt lat="48.60798" lon="2.12931">
        <ele>138.9</ele>
        <time>2020-09-15T10:27:28.172Z</time>
      </trkpt>
      <trkpt lat="48.608" lon="2.12937">
        <ele>139</ele>
        <time>2020-09-15T10:27:31.280Z</time>
      </trkpt>
      <trkpt lat="48.60803" lon="2.12948">
        <ele>139.2</ele>
        <time>2020-09-15T10:27:37.647Z</time>
      </trkpt>
      <trkpt lat="48.60807" lon="2.12959">
        <ele>137.7</ele>
        <time>2020-09-15T10:27:43.951Z</time>
      </trkpt>
      <trkpt lat="48.60811" lon="2.12969">
        <ele>138.2</ele>
        <time>2020-09-15T10:27:50.185Z</time>
      </trkpt>
      <trkpt lat="48.60814" lon="2.12977">
        <ele>143</ele>
        <time>2020-09-15T10:27:56.380Z</time>
      </trkpt>
      <trkpt lat="48.60819" lon="2.12987">
        <ele>145.1</ele>
        <time>2020-09-15T10:28:03.082Z</time>
      </trkpt>
      <trkpt lat="48.60821" lon="2.12998">
        <ele>139.3</ele>
        <time>2020-09-15T10:28:09.203Z</time>
      </trkpt>
      <trkpt lat="48.60824" lon="2.13009">
        <ele>138.2</ele>
        <time>2020-09-15T10:28:15.347Z</time>
      </trkpt>
      <trkpt lat="48.60829" lon="2.13019">
        <ele>133.1</ele>
        <time>2020-09-15T10:28:21.620Z</time>
      </trkpt>
      <trkpt lat="48.60832" lon="2.13023">
        <ele>133</ele>
        <time>2020-09-15T10:28:24.767Z</time>
      </trkpt>
      <trkpt lat="48.60838" lon="2.13032">
        <ele>133.9</ele>
        <time>2020-09-15T10:28:31.022Z</time>
      </trkpt>
      <trkpt lat="48.60842" lon="2.13043">
        <ele>136.2</ele>
        <time>2020-09-15T10:28:37.185Z</time>
      </trkpt>
      <trkpt lat="48.60843" lon="2.1305">
        <ele>136.3</ele>
        <time>2020-09-15T10:28:40.306Z</time>
      </trkpt>
      <trkpt lat="48.60846" lon="2.13061">
        <ele>140.4</ele>
        <time>2020-09-15T10:28:46.485Z</time>
      </trkpt>
      <trkpt lat="48.60848" lon="2.13073">
        <ele>137.8</ele>
        <time>2020-09-15T10:28:52.711Z</time>
      </trkpt>
      <trkpt lat="48.60851" lon="2.13083">
        <ele>142.9</ele>
        <time>2020-09-15T10:28:58.983Z</time>
      </trkpt>
      <trkpt lat="48.60855" lon="2.13093">
        <ele>141</ele>
        <time>2020-09-15T10:29:05.187Z</time>
      </trkpt>
      <trkpt lat="48.60859" lon="2.13103">
        <ele>140.6</ele>
        <time>2020-09-15T10:29:11.944Z</time>
      </trkpt>
      <trkpt lat="48.60863" lon="2.13113">
        <ele>141.6</ele>
        <time>2020-09-15T10:29:18.322Z</time>
      </trkpt>
      <trkpt lat="48.60866" lon="2.13125">
        <ele>141.9</ele>
        <time>2020-09-15T10:29:24.804Z</time>
      </trkpt>
      <trkpt lat="48.60869" lon="2.13137">
        <ele>143.5</ele>
        <time>2020-09-15T10:29:31.042Z</time>
      </trkpt>
      <trkpt lat="48.60872" lon="2.1315">
        <ele>143</ele>
        <time>2020-09-15T10:29:37.802Z</time>
      </trkpt>
      <trkpt lat="48.60876" lon="2.13161">
        <ele>139.6</ele>
        <time>2020-09-15T10:29:43.983Z</time>
      </trkpt>
      <trkpt lat="48.60879" lon="2.13166">
        <ele>138.9</ele>
        <time>2020-09-15T10:29:47.146Z</time>
      </trkpt>
      <trkpt lat="48.60883" lon="2.13177">
        <ele>142.9</ele>
        <time>2020-09-15T10:29:53.926Z</time>
      </trkpt>
      <trkpt lat="48.60887" lon="2.13188">
        <ele>143.6</ele>
        <time>2020-09-15T10:30:00.207Z</time>
      </trkpt>
      <trkpt lat="48.6089" lon="2.13198">
        <ele>142.8</ele>
        <time>2020-09-15T10:30:06.506Z</time>
      </trkpt>
      <trkpt lat="48.60892" lon="2.13207">
        <ele>143.6</ele>
        <time>2020-09-15T10:30:12.762Z</time>
      </trkpt>
      <trkpt lat="48.60894" lon="2.13217">
        <ele>141.5</ele>
        <time>2020-09-15T10:30:18.903Z</time>
      </trkpt>
      <trkpt lat="48.60897" lon="2.13229">
        <ele>140.7</ele>
        <time>2020-09-15T10:30:25.226Z</time>
      </trkpt>
      <trkpt lat="48.609" lon="2.13239">
        <ele>137.4</ele>
        <time>2020-09-15T10:30:31.543Z</time>
      </trkpt>
      <trkpt lat="48.60904" lon="2.1325">
        <ele>137.9</ele>
        <time>2020-09-15T10:30:37.820Z</time>
      </trkpt>
      <trkpt lat="48.60906" lon="2.13256">
        <ele>138.4</ele>
        <time>2020-09-15T10:30:41.003Z</time>
      </trkpt>
      <trkpt lat="48.60911" lon="2.13267">
        <ele>141.8</ele>
        <time>2020-09-15T10:30:47.281Z</time>
      </trkpt>
      <trkpt lat="48.60915" lon="2.13277">
        <ele>141.1</ele>
        <time>2020-09-15T10:30:54.102Z</time>
      </trkpt>
      <trkpt lat="48.60918" lon="2.13283">
        <ele>142.8</ele>
        <time>2020-09-15T10:30:57.292Z</time>
      </trkpt>
      <trkpt lat="48.60921" lon="2.13293">
        <ele>140.6</ele>
        <time>2020-09-15T10:31:03.602Z</time>
      </trkpt>
      <trkpt lat="48.60926" lon="2.13303">
        <ele>141.4</ele>
        <time>2020-09-15T10:31:09.980Z</time>
      </trkpt>
      <trkpt lat="48.6093" lon="2.13314">
        <ele>141.9</ele>
        <time>2020-09-15T10:31:16.317Z</time>
      </trkpt>
      <trkpt lat="48.60934" lon="2.13325">
        <ele>141.1</ele>
        <time>2020-09-15T10:31:22.880Z</time>
      </trkpt>
      <trkpt lat="48.60936" lon="2.13335">
        <ele>143.4</ele>
        <time>2020-09-15T10:31:29.289Z</time>
      </trkpt>
      <trkpt lat="48.60939" lon="2.13348">
        <ele>142.5</ele>
        <time>2020-09-15T10:31:35.721Z</time>
      </trkpt>
      <trkpt lat="48.60941" lon="2.13359">
        <ele>142.1</ele>
        <time>2020-09-15T10:31:42.226Z</time>
      </trkpt>
      <trkpt lat="48.60945" lon="2.13369">
        <ele>144.8</ele>
        <time>2020-09-15T10:31:48.622Z</time>
      </trkpt>
      <trkpt lat="48.60949" lon="2.13378">
        <ele>145.3</ele>
        <time>2020-09-15T10:31:55.000Z</time>
      </trkpt>
      <trkpt lat="48.60953" lon="2.13388">
        <ele>144.4</ele>
        <time>2020-09-15T10:32:01.324Z</time>
      </trkpt>
      <trkpt lat="48.60956" lon="2.134">
        <ele>141.6</ele>
        <time>2020-09-15T10:32:07.624Z</time>
      </trkpt>
      <trkpt lat="48.6096" lon="2.13411">
        <ele>140.8</ele>
        <time>2020-09-15T10:32:13.942Z</time>
      </trkpt>
      <trkpt lat="48.60964" lon="2.13421">
        <ele>140.6</ele>
        <time>2020-09-15T10:32:20.331Z</time>
      </trkpt>
      <trkpt lat="48.60968" lon="2.13429">
        <ele>139.3</ele>
        <time>2020-09-15T10:32:26.650Z</time>
      </trkpt>
      <trkpt lat="48.60973" lon="2.13438">
        <ele>139.7</ele>
        <time>2020-09-15T10:32:33.387Z</time>
      </trkpt>
      <trkpt lat="48.60977" lon="2.1345">
        <ele>137.9</ele>
        <time>2020-09-15T10:32:39.664Z</time>
      </trkpt>
      <trkpt lat="48.6098" lon="2.1346">
        <ele>143.3</ele>
        <time>2020-09-15T10:32:45.904Z</time>
      </trkpt>
      <trkpt lat="48.60983" lon="2.1347">
        <ele>140.5</ele>
        <time>2020-09-15T10:32:52.221Z</time>
      </trkpt>
      <trkpt lat="48.60986" lon="2.13481">
        <ele>142.3</ele>
        <time>2020-09-15T10:32:58.419Z</time>
      </trkpt>
      <trkpt lat="48.60988" lon="2.13487">
        <ele>143.2</ele>
        <time>2020-09-15T10:33:01.565Z</time>
      </trkpt>
      <trkpt lat="48.60992" lon="2.13499">
        <ele>139.7</ele>
        <time>2020-09-15T10:33:07.841Z</time>
      </trkpt>
      <trkpt lat="48.60996" lon="2.1351">
        <ele>139.7</ele>
        <time>2020-09-15T10:33:14.161Z</time>
      </trkpt>
      <trkpt lat="48.60999" lon="2.13521">
        <ele>139.7</ele>
        <time>2020-09-15T10:33:20.506Z</time>
      </trkpt>
      <trkpt lat="48.61003" lon="2.1353">
        <ele>141.6</ele>
        <time>2020-09-15T10:33:26.801Z</time>
      </trkpt>
      <trkpt lat="48.61007" lon="2.13541">
        <ele>139.9</ele>
        <time>2020-09-15T10:33:33.041Z</time>
      </trkpt>
      <trkpt lat="48.61012" lon="2.13552">
        <ele>137.8</ele>
        <time>2020-09-15T10:33:39.220Z</time>
      </trkpt>
      <trkpt lat="48.61015" lon="2.13559">
        <ele>136.2</ele>
        <time>2020-09-15T10:33:42.868Z</time>
      </trkpt>
      <trkpt lat="48.6102" lon="2.13567">
        <ele>137.5</ele>
        <time>2020-09-15T10:33:49.086Z</time>
      </trkpt>
      <trkpt lat="48.61027" lon="2.13576">
        <ele>139.9</ele>
        <time>2020-09-15T10:33:55.343Z</time>
      </trkpt>
      <trkpt lat="48.61032" lon="2.13584">
        <ele>137.2</ele>
        <time>2020-09-15T10:34:01.644Z</time>
      </trkpt>
      <trkpt lat="48.61037" lon="2.13592">
        <ele>134.5</ele>
        <time>2020-09-15T10:34:07.945Z</time>
      </trkpt>
      <trkpt lat="48.61043" lon="2.13599">
        <ele>136.4</ele>
        <time>2020-09-15T10:34:14.306Z</time>
      </trkpt>
      <trkpt lat="48.61047" lon="2.13609">
        <ele>137.7</ele>
        <time>2020-09-15T10:34:20.626Z</time>
      </trkpt>
      <trkpt lat="48.61049" lon="2.13615">
        <ele>137.8</ele>
        <time>2020-09-15T10:34:23.811Z</time>
      </trkpt>
      <trkpt lat="48.61055" lon="2.13624">
        <ele>135.4</ele>
        <time>2020-09-15T10:34:30.105Z</time>
      </trkpt>
      <trkpt lat="48.61062" lon="2.13629">
        <ele>136.8</ele>
        <time>2020-09-15T10:34:36.441Z</time>
      </trkpt>
      <trkpt lat="48.61069" lon="2.13629">
        <ele>136.5</ele>
        <time>2020-09-15T10:34:40.098Z</time>
      </trkpt>
      <trkpt lat="48.61075" lon="2.13625">
        <ele>138.9</ele>
        <time>2020-09-15T10:34:46.466Z</time>
      </trkpt>
      <trkpt lat="48.61081" lon="2.13617">
        <ele>138.4</ele>
        <time>2020-09-15T10:34:52.646Z</time>
      </trkpt>
      <trkpt lat="48.61087" lon="2.13609">
        <ele>137.8</ele>
        <time>2020-09-15T10:34:58.925Z</time>
      </trkpt>
      <trkpt lat="48.61094" lon="2.13601">
        <ele>145.3</ele>
        <time>2020-09-15T10:35:06.000Z</time>
      </trkpt>
      <trkpt lat="48.61101" lon="2.13596">
        <ele>145.2</ele>
        <time>2020-09-15T10:35:11.943Z</time>
      </trkpt>
      <trkpt lat="48.61109" lon="2.13589">
        <ele>145.4</ele>
        <time>2020-09-15T10:35:18.259Z</time>
      </trkpt>
      <trkpt lat="48.61118" lon="2.13587">
        <ele>146.3</ele>
        <time>2020-09-15T10:35:24.653Z</time>
      </trkpt>
      <trkpt lat="48.61122" lon="2.13586">
        <ele>144.5</ele>
        <time>2020-09-15T10:35:27.803Z</time>
      </trkpt>
      <trkpt lat="48.61131" lon="2.13583">
        <ele>143.7</ele>
        <time>2020-09-15T10:35:34.146Z</time>
      </trkpt>
      <trkpt lat="48.6114" lon="2.13577">
        <ele>143.3</ele>
        <time>2020-09-15T10:35:40.463Z</time>
      </trkpt>
      <trkpt lat="48.61148" lon="2.13573">
        <ele>140.8</ele>
        <time>2020-09-15T10:35:46.783Z</time>
      </trkpt>
      <trkpt lat="48.61155" lon="2.13569">
        <ele>141.5</ele>
        <time>2020-09-15T10:35:53.139Z</time>
      </trkpt>
      <trkpt lat="48.61164" lon="2.13566">
        <ele>140.7</ele>
        <time>2020-09-15T10:35:59.488Z</time>
      </trkpt>
      <trkpt lat="48.61172" lon="2.13565">
        <ele>134.7</ele>
        <time>2020-09-15T10:36:05.684Z</time>
      </trkpt>
      <trkpt lat="48.61177" lon="2.13563">
        <ele>134.8</ele>
        <time>2020-09-15T10:36:08.838Z</time>
      </trkpt>
      <trkpt lat="48.61184" lon="2.13558">
        <ele>132.1</ele>
        <time>2020-09-15T10:36:15.225Z</time>
      </trkpt>
      <trkpt lat="48.61191" lon="2.13554">
        <ele>133.8</ele>
        <time>2020-09-15T10:36:21.621Z</time>
      </trkpt>
      <trkpt lat="48.61198" lon="2.13549">
        <ele>131.3</ele>
        <time>2020-09-15T10:36:28.050Z</time>
      </trkpt>
      <trkpt lat="48.61205" lon="2.13543">
        <ele>131.9</ele>
        <time>2020-09-15T10:36:34.343Z</time>
      </trkpt>
      <trkpt lat="48.61213" lon="2.13537">
        <ele>129</ele>
        <time>2020-09-15T10:36:40.682Z</time>
      </trkpt>
      <trkpt lat="48.6122" lon="2.1353">
        <ele>133.6</ele>
        <time>2020-09-15T10:36:46.961Z</time>
      </trkpt>
      <trkpt lat="48.61227" lon="2.13526">
        <ele>133.4</ele>
        <time>2020-09-15T10:36:53.262Z</time>
      </trkpt>
      <trkpt lat="48.61235" lon="2.13522">
        <ele>134.5</ele>
        <time>2020-09-15T10:37:00.000Z</time>
      </trkpt>
      <trkpt lat="48.61239" lon="2.1352">
        <ele>134.5</ele>
        <time>2020-09-15T10:37:02.762Z</time>
      </trkpt>
      <trkpt lat="48.61244" lon="2.13518">
        <ele>135.7</ele>
        <time>2020-09-15T10:37:06.198Z</time>
      </trkpt>
      <trkpt lat="48.61252" lon="2.13513">
        <ele>136.1</ele>
        <time>2020-09-15T10:37:12.474Z</time>
      </trkpt>
      <trkpt lat="48.61261" lon="2.13508">
        <ele>131.4</ele>
        <time>2020-09-15T10:37:19.350Z</time>
      </trkpt>
      <trkpt lat="48.61269" lon="2.13507">
        <ele>131.5</ele>
        <time>2020-09-15T10:37:25.683Z</time>
      </trkpt>
      <trkpt lat="48.61277" lon="2.13503">
        <ele>135.6</ele>
        <time>2020-09-15T10:37:31.962Z</time>
      </trkpt>
      <trkpt lat="48.61284" lon="2.13499">
        <ele>136.7</ele>
        <time>2020-09-15T10:37:38.259Z</time>
      </trkpt>
      <trkpt lat="48.61291" lon="2.13493">
        <ele>139.8</ele>
        <time>2020-09-15T10:37:44.565Z</time>
      </trkpt>
      <trkpt lat="48.61298" lon="2.13488">
        <ele>143.6</ele>
        <time>2020-09-15T10:37:51.763Z</time>
      </trkpt>
      <trkpt lat="48.61305" lon="2.13485">
        <ele>147.5</ele>
        <time>2020-09-15T10:37:58.003Z</time>
      </trkpt>
      <trkpt lat="48.61312" lon="2.13481">
        <ele>145.3</ele>
        <time>2020-09-15T10:38:04.723Z</time>
      </trkpt>
      <trkpt lat="48.61318" lon="2.13476">
        <ele>143.5</ele>
        <time>2020-09-15T10:38:11.055Z</time>
      </trkpt>
      <trkpt lat="48.61325" lon="2.13473">
        <ele>144</ele>
        <time>2020-09-15T10:38:17.309Z</time>
      </trkpt>
      <trkpt lat="48.61332" lon="2.1347">
        <ele>143.6</ele>
        <time>2020-09-15T10:38:23.626Z</time>
      </trkpt>
      <trkpt lat="48.61339" lon="2.13463">
        <ele>143.7</ele>
        <time>2020-09-15T10:38:30.387Z</time>
      </trkpt>
      <trkpt lat="48.61346" lon="2.1346">
        <ele>144.5</ele>
        <time>2020-09-15T10:38:36.761Z</time>
      </trkpt>
      <trkpt lat="48.61351" lon="2.13459">
        <ele>145</ele>
        <time>2020-09-15T10:38:39.867Z</time>
      </trkpt>
      <trkpt lat="48.61358" lon="2.13459">
        <ele>143.2</ele>
        <time>2020-09-15T10:38:46.225Z</time>
      </trkpt>
      <trkpt lat="48.61366" lon="2.13457">
        <ele>143.1</ele>
        <time>2020-09-15T10:38:52.582Z</time>
      </trkpt>
      <trkpt lat="48.61373" lon="2.13453">
        <ele>143.4</ele>
        <time>2020-09-15T10:38:58.918Z</time>
      </trkpt>
      <trkpt lat="48.6138" lon="2.13447">
        <ele>148.5</ele>
        <time>2020-09-15T10:39:05.172Z</time>
      </trkpt>
      <trkpt lat="48.61388" lon="2.13441">
        <ele>148.4</ele>
        <time>2020-09-15T10:39:12.000Z</time>
      </trkpt>
      <trkpt lat="48.61395" lon="2.13437">
        <ele>145.5</ele>
        <time>2020-09-15T10:39:17.920Z</time>
      </trkpt>
      <trkpt lat="48.61403" lon="2.13434">
        <ele>143.8</ele>
        <time>2020-09-15T10:39:24.261Z</time>
      </trkpt>
      <trkpt lat="48.61409" lon="2.13429">
        <ele>145.1</ele>
        <time>2020-09-15T10:39:30.743Z</time>
      </trkpt>
      <trkpt lat="48.61416" lon="2.13425">
        <ele>140.1</ele>
        <time>2020-09-15T10:39:37.661Z</time>
      </trkpt>
      <trkpt lat="48.6142" lon="2.13422">
        <ele>140.2</ele>
        <time>2020-09-15T10:39:40.865Z</time>
      </trkpt>
      <trkpt lat="48.61427" lon="2.13417">
        <ele>135.7</ele>
        <time>2020-09-15T10:39:48.000Z</time>
      </trkpt>
      <trkpt lat="48.61435" lon="2.13412">
        <ele>136.3</ele>
        <time>2020-09-15T10:39:53.788Z</time>
      </trkpt>
      <trkpt lat="48.61439" lon="2.13409">
        <ele>133.9</ele>
        <time>2020-09-15T10:39:57.000Z</time>
      </trkpt>
      <trkpt lat="48.61443" lon="2.13406">
        <ele>133.7</ele>
        <time>2020-09-15T10:40:00.183Z</time>
      </trkpt>
      <trkpt lat="48.61447" lon="2.13403">
        <ele>137.8</ele>
        <time>2020-09-15T10:40:03.374Z</time>
      </trkpt>
      <trkpt lat="48.61452" lon="2.134">
        <ele>137.3</ele>
        <time>2020-09-15T10:40:07.044Z</time>
      </trkpt>
      <trkpt lat="48.61459" lon="2.13396">
        <ele>138.7</ele>
        <time>2020-09-15T10:40:13.322Z</time>
      </trkpt>
      <trkpt lat="48.61466" lon="2.13391">
        <ele>141.7</ele>
        <time>2020-09-15T10:40:19.670Z</time>
      </trkpt>
      <trkpt lat="48.61473" lon="2.13386">
        <ele>140</ele>
        <time>2020-09-15T10:40:25.988Z</time>
      </trkpt>
      <trkpt lat="48.61481" lon="2.13382">
        <ele>139.8</ele>
        <time>2020-09-15T10:40:32.345Z</time>
      </trkpt>
      <trkpt lat="48.61488" lon="2.13376">
        <ele>139.1</ele>
        <time>2020-09-15T10:40:38.581Z</time>
      </trkpt>
      <trkpt lat="48.61494" lon="2.13372">
        <ele>141</ele>
        <time>2020-09-15T10:40:44.900Z</time>
      </trkpt>
      <trkpt lat="48.615" lon="2.1337">
        <ele>142.9</ele>
        <time>2020-09-15T10:40:51.128Z</time>
      </trkpt>
      <trkpt lat="48.61508" lon="2.13366">
        <ele>147.1</ele>
        <time>2020-09-15T10:40:57.760Z</time>
      </trkpt>
      <trkpt lat="48.61516" lon="2.13363">
        <ele>146.7</ele>
        <time>2020-09-15T10:41:04.130Z</time>
      </trkpt>
      <trkpt lat="48.61524" lon="2.13358">
        <ele>149.5</ele>
        <time>2020-09-15T10:41:11.009Z</time>
      </trkpt>
      <trkpt lat="48.61531" lon="2.13353">
        <ele>150</ele>
        <time>2020-09-15T10:41:17.286Z</time>
      </trkpt>
      <trkpt lat="48.61538" lon="2.13349">
        <ele>145.1</ele>
        <time>2020-09-15T10:41:23.667Z</time>
      </trkpt>
      <trkpt lat="48.61542" lon="2.13346">
        <ele>142.8</ele>
        <time>2020-09-15T10:41:27.336Z</time>
      </trkpt>
      <trkpt lat="48.6155" lon="2.13342">
        <ele>146.7</ele>
        <time>2020-09-15T10:41:33.645Z</time>
      </trkpt>
      <trkpt lat="48.6156" lon="2.13336">
        <ele>147.5</ele>
        <time>2020-09-15T10:41:40.002Z</time>
      </trkpt>
      <trkpt lat="48.61567" lon="2.13333">
        <ele>149.2</ele>
        <time>2020-09-15T10:41:46.245Z</time>
      </trkpt>
      <trkpt lat="48.61575" lon="2.13328">
        <ele>145.6</ele>
        <time>2020-09-15T10:41:53.044Z</time>
      </trkpt>
      <trkpt lat="48.61583" lon="2.13323">
        <ele>146.3</ele>
        <time>2020-09-15T10:41:59.324Z</time>
      </trkpt>
      <trkpt lat="48.6159" lon="2.13317">
        <ele>145.5</ele>
        <time>2020-09-15T10:42:06.000Z</time>
      </trkpt>
      <trkpt lat="48.61594" lon="2.13314">
        <ele>145.7</ele>
        <time>2020-09-15T10:42:09.285Z</time>
      </trkpt>
      <trkpt lat="48.61602" lon="2.13311">
        <ele>145.6</ele>
        <time>2020-09-15T10:42:15.600Z</time>
      </trkpt>
      <trkpt lat="48.6161" lon="2.13307">
        <ele>146.2</ele>
        <time>2020-09-15T10:42:21.940Z</time>
      </trkpt>
      <trkpt lat="48.61617" lon="2.13303">
        <ele>144.4</ele>
        <time>2020-09-15T10:42:28.335Z</time>
      </trkpt>
      <trkpt lat="48.61624" lon="2.133">
        <ele>146.7</ele>
        <time>2020-09-15T10:42:34.899Z</time>
      </trkpt>
      <trkpt lat="48.61632" lon="2.13298">
        <ele>151.4</ele>
        <time>2020-09-15T10:42:41.662Z</time>
      </trkpt>
      <trkpt lat="48.61636" lon="2.13306">
        <ele>149.5</ele>
        <time>2020-09-15T10:42:48.363Z</time>
      </trkpt>
      <trkpt lat="48.6164" lon="2.13312">
        <ele>150.6</ele>
        <time>2020-09-15T10:42:55.282Z</time>
      </trkpt>
      <trkpt lat="48.61643" lon="2.13319">
        <ele>147.3</ele>
        <time>2020-09-15T10:43:03.000Z</time>
      </trkpt>
      <trkpt lat="48.6164" lon="2.13311">
        <ele>148.2</ele>
        <time>2020-09-15T10:43:18.000Z</time>
      </trkpt>
      <trkpt lat="48.61635" lon="2.13304">
        <ele>149.5</ele>
        <time>2020-09-15T10:43:27.000Z</time>
      </trkpt>
      <trkpt lat="48.61638" lon="2.13308">
        <ele>149.3</ele>
        <time>2020-09-15T10:45:21.000Z</time>
      </trkpt>
      <trkpt lat="48.61641" lon="2.13314">
        <ele>148.4</ele>
        <time>2020-09-15T10:48:14.155Z</time>
      </trkpt>
      <trkpt lat="48.61641" lon="2.13321">
        <ele>150.1</ele>
        <time>2020-09-15T10:48:37.142Z</time>
      </trkpt>
      <trkpt lat="48.6164" lon="2.13332">
        <ele>159.1</ele>
        <time>2020-09-15T10:49:03.000Z</time>
      </trkpt>
      <trkpt lat="48.61636" lon="2.13336">
        <ele>154.2</ele>
        <time>2020-09-15T10:51:51.000Z</time>
      </trkpt>
      <trkpt lat="48.61641" lon="2.13334">
        <ele>151.6</ele>
        <time>2020-09-15T10:52:33.000Z</time>
      </trkpt>
      <trkpt lat="48.61646" lon="2.13326">
        <ele>144.8</ele>
        <time>2020-09-15T10:53:11.820Z</time>
      </trkpt>
      <trkpt lat="48.6165" lon="2.13319">
        <ele>145</ele>
        <time>2020-09-15T10:53:15.142Z</time>
      </trkpt>
      <trkpt lat="48.61653" lon="2.13313">
        <ele>143.8</ele>
        <time>2020-09-15T10:53:18.394Z</time>
      </trkpt>
      <trkpt lat="48.61657" lon="2.13307">
        <ele>144.1</ele>
        <time>2020-09-15T10:53:21.698Z</time>
      </trkpt>
      <trkpt lat="48.61661" lon="2.13301">
        <ele>142.5</ele>
        <time>2020-09-15T10:53:25.060Z</time>
      </trkpt>
      <trkpt lat="48.61665" lon="2.13295">
        <ele>141.9</ele>
        <time>2020-09-15T10:53:28.398Z</time>
      </trkpt>
      <trkpt lat="48.61668" lon="2.13289">
        <ele>142.2</ele>
        <time>2020-09-15T10:53:31.645Z</time>
      </trkpt>
      <trkpt lat="48.61672" lon="2.13284">
        <ele>141.7</ele>
        <time>2020-09-15T10:53:34.877Z</time>
      </trkpt>
      <trkpt lat="48.61678" lon="2.13275">
        <ele>141.5</ele>
        <time>2020-09-15T10:53:41.282Z</time>
      </trkpt>
      <trkpt lat="48.61681" lon="2.13269">
        <ele>142.3</ele>
        <time>2020-09-15T10:53:45.000Z</time>
      </trkpt>
      <trkpt lat="48.61684" lon="2.13264">
        <ele>141</ele>
        <time>2020-09-15T10:53:47.954Z</time>
      </trkpt>
      <trkpt lat="48.61689" lon="2.1326">
        <ele>140.6</ele>
        <time>2020-09-15T10:53:51.137Z</time>
      </trkpt>
      <trkpt lat="48.61697" lon="2.13254">
        <ele>143.7</ele>
        <time>2020-09-15T10:53:58.019Z</time>
      </trkpt>
      <trkpt lat="48.61705" lon="2.13249">
        <ele>142.4</ele>
        <time>2020-09-15T10:54:04.282Z</time>
      </trkpt>
      <trkpt lat="48.61713" lon="2.13246">
        <ele>143.6</ele>
        <time>2020-09-15T10:54:11.038Z</time>
      </trkpt>
      <trkpt lat="48.61718" lon="2.13244">
        <ele>145.3</ele>
        <time>2020-09-15T10:54:14.225Z</time>
      </trkpt>
      <trkpt lat="48.61725" lon="2.13242">
        <ele>147.6</ele>
        <time>2020-09-15T10:54:20.485Z</time>
      </trkpt>
      <trkpt lat="48.61734" lon="2.13242">
        <ele>147.6</ele>
        <time>2020-09-15T10:54:26.898Z</time>
      </trkpt>
      <trkpt lat="48.61742" lon="2.1324">
        <ele>151.5</ele>
        <time>2020-09-15T10:54:33.743Z</time>
      </trkpt>
      <trkpt lat="48.61747" lon="2.13238">
        <ele>151.7</ele>
        <time>2020-09-15T10:54:37.376Z</time>
      </trkpt>
      <trkpt lat="48.61754" lon="2.13236">
        <ele>147.8</ele>
        <time>2020-09-15T10:54:43.688Z</time>
      </trkpt>
      <trkpt lat="48.6176" lon="2.13233">
        <ele>150.8</ele>
        <time>2020-09-15T10:54:50.414Z</time>
      </trkpt>
      <trkpt lat="48.61766" lon="2.1323">
        <ele>156.7</ele>
        <time>2020-09-15T10:54:56.678Z</time>
      </trkpt>
      <trkpt lat="48.61772" lon="2.13228">
        <ele>156.7</ele>
        <time>2020-09-15T10:55:02.964Z</time>
      </trkpt>
      <trkpt lat="48.61779" lon="2.13224">
        <ele>156.4</ele>
        <time>2020-09-15T10:55:09.305Z</time>
      </trkpt>
      <trkpt lat="48.61786" lon="2.1322">
        <ele>151.5</ele>
        <time>2020-09-15T10:55:16.160Z</time>
      </trkpt>
      <trkpt lat="48.61794" lon="2.13217">
        <ele>149.3</ele>
        <time>2020-09-15T10:55:22.364Z</time>
      </trkpt>
      <trkpt lat="48.61798" lon="2.13215">
        <ele>151</ele>
        <time>2020-09-15T10:55:25.603Z</time>
      </trkpt>
      <trkpt lat="48.61806" lon="2.13213">
        <ele>151.3</ele>
        <time>2020-09-15T10:55:31.865Z</time>
      </trkpt>
      <trkpt lat="48.61813" lon="2.1321">
        <ele>154.8</ele>
        <time>2020-09-15T10:55:38.223Z</time>
      </trkpt>
      <trkpt lat="48.61819" lon="2.13206">
        <ele>156.2</ele>
        <time>2020-09-15T10:55:44.459Z</time>
      </trkpt>
      <trkpt lat="48.61826" lon="2.13202">
        <ele>153.3</ele>
        <time>2020-09-15T10:55:50.721Z</time>
      </trkpt>
      <trkpt lat="48.61831" lon="2.13201">
        <ele>158.4</ele>
        <time>2020-09-15T10:55:54.361Z</time>
      </trkpt>
      <trkpt lat="48.61839" lon="2.13201">
        <ele>157.1</ele>
        <time>2020-09-15T10:56:00.595Z</time>
      </trkpt>
      <trkpt lat="48.61843" lon="2.13203">
        <ele>158.5</ele>
        <time>2020-09-15T10:56:03.719Z</time>
      </trkpt>
      <trkpt lat="48.6185" lon="2.13208">
        <ele>157.3</ele>
        <time>2020-09-15T10:56:10.002Z</time>
      </trkpt>
      <trkpt lat="48.61858" lon="2.13214">
        <ele>156.2</ele>
        <time>2020-09-15T10:56:16.180Z</time>
      </trkpt>
      <trkpt lat="48.61865" lon="2.13221">
        <ele>160.4</ele>
        <time>2020-09-15T10:56:22.500Z</time>
      </trkpt>
      <trkpt lat="48.61871" lon="2.13229">
        <ele>162.1</ele>
        <time>2020-09-15T10:56:28.779Z</time>
      </trkpt>
      <trkpt lat="48.61875" lon="2.13233">
        <ele>153.7</ele>
        <time>2020-09-15T10:56:31.861Z</time>
      </trkpt>
      <trkpt lat="48.6188" lon="2.13239">
        <ele>154.7</ele>
        <time>2020-09-15T10:56:35.982Z</time>
      </trkpt>
      <trkpt lat="48.61886" lon="2.13249">
        <ele>154.4</ele>
        <time>2020-09-15T10:56:42.239Z</time>
      </trkpt>
      <trkpt lat="48.61892" lon="2.1326">
        <ele>156.4</ele>
        <time>2020-09-15T10:56:48.502Z</time>
      </trkpt>
      <trkpt lat="48.61894" lon="2.13265">
        <ele>159.4</ele>
        <time>2020-09-15T10:56:51.644Z</time>
      </trkpt>
      <trkpt lat="48.619" lon="2.13275">
        <ele>157.4</ele>
        <time>2020-09-15T10:56:57.843Z</time>
      </trkpt>
      <trkpt lat="48.61905" lon="2.13286">
        <ele>154.4</ele>
        <time>2020-09-15T10:57:04.062Z</time>
      </trkpt>
      <trkpt lat="48.6191" lon="2.13296">
        <ele>156.2</ele>
        <time>2020-09-15T10:57:10.305Z</time>
      </trkpt>
      <trkpt lat="48.61913" lon="2.13302">
        <ele>154.5</ele>
        <time>2020-09-15T10:57:13.408Z</time>
      </trkpt>
      <trkpt lat="48.61918" lon="2.1331">
        <ele>155.8</ele>
        <time>2020-09-15T10:57:19.601Z</time>
      </trkpt>
      <trkpt lat="48.61924" lon="2.13319">
        <ele>159</ele>
        <time>2020-09-15T10:57:25.840Z</time>
      </trkpt>
      <trkpt lat="48.6193" lon="2.13327">
        <ele>157.8</ele>
        <time>2020-09-15T10:57:32.042Z</time>
      </trkpt>
      <trkpt lat="48.61937" lon="2.13335">
        <ele>157.8</ele>
        <time>2020-09-15T10:57:39.000Z</time>
      </trkpt>
      <trkpt lat="48.61944" lon="2.13342">
        <ele>151.2</ele>
        <time>2020-09-15T10:57:44.960Z</time>
      </trkpt>
      <trkpt lat="48.61948" lon="2.13345">
        <ele>150.9</ele>
        <time>2020-09-15T10:57:48.063Z</time>
      </trkpt>
      <trkpt lat="48.61953" lon="2.13349">
        <ele>151.5</ele>
        <time>2020-09-15T10:57:51.739Z</time>
      </trkpt>
      <trkpt lat="48.6196" lon="2.13355">
        <ele>150.7</ele>
        <time>2020-09-15T10:57:58.098Z</time>
      </trkpt>
      <trkpt lat="48.61966" lon="2.13361">
        <ele>155.4</ele>
        <time>2020-09-15T10:58:04.459Z</time>
      </trkpt>
      <trkpt lat="48.61974" lon="2.13365">
        <ele>149.8</ele>
        <time>2020-09-15T10:58:11.237Z</time>
      </trkpt>
      <trkpt lat="48.61979" lon="2.13366">
        <ele>150.8</ele>
        <time>2020-09-15T10:58:14.383Z</time>
      </trkpt>
      <trkpt lat="48.61985" lon="2.13372">
        <ele>148</ele>
        <time>2020-09-15T10:58:21.244Z</time>
      </trkpt>
      <trkpt lat="48.61991" lon="2.13377">
        <ele>146.3</ele>
        <time>2020-09-15T10:58:27.580Z</time>
      </trkpt>
      <trkpt lat="48.61997" lon="2.1338">
        <ele>148.2</ele>
        <time>2020-09-15T10:58:33.918Z</time>
      </trkpt>
      <trkpt lat="48.62005" lon="2.13383">
        <ele>148.5</ele>
        <time>2020-09-15T10:58:40.294Z</time>
      </trkpt>
      <trkpt lat="48.62012" lon="2.13385">
        <ele>159</ele>
        <time>2020-09-15T10:58:46.564Z</time>
      </trkpt>
      <trkpt lat="48.62019" lon="2.13389">
        <ele>161.3</ele>
        <time>2020-09-15T10:58:52.882Z</time>
      </trkpt>
      <trkpt lat="48.62026" lon="2.13395">
        <ele>158</ele>
        <time>2020-09-15T10:58:59.200Z</time>
      </trkpt>
      <trkpt lat="48.62033" lon="2.13401">
        <ele>160</ele>
        <time>2020-09-15T10:59:05.478Z</time>
      </trkpt>
      <trkpt lat="48.6204" lon="2.13407">
        <ele>154.5</ele>
        <time>2020-09-15T10:59:12.299Z</time>
      </trkpt>
      <trkpt lat="48.62044" lon="2.13411">
        <ele>160.8</ele>
        <time>2020-09-15T10:59:15.455Z</time>
      </trkpt>
      <trkpt lat="48.6205" lon="2.13416">
        <ele>160.9</ele>
        <time>2020-09-15T10:59:21.847Z</time>
      </trkpt>
      <trkpt lat="48.62055" lon="2.13422">
        <ele>155.5</ele>
        <time>2020-09-15T10:59:28.122Z</time>
      </trkpt>
      <trkpt lat="48.6206" lon="2.13429">
        <ele>159.2</ele>
        <time>2020-09-15T10:59:34.537Z</time>
      </trkpt>
      <trkpt lat="48.62066" lon="2.13438">
        <ele>157.1</ele>
        <time>2020-09-15T10:59:40.917Z</time>
      </trkpt>
      <trkpt lat="48.62073" lon="2.13443">
        <ele>164.3</ele>
        <time>2020-09-15T10:59:47.283Z</time>
      </trkpt>
      <trkpt lat="48.6208" lon="2.1345">
        <ele>167</ele>
        <time>2020-09-15T10:59:53.680Z</time>
      </trkpt>
      <trkpt lat="48.62085" lon="2.13457">
        <ele>167.5</ele>
        <time>2020-09-15T11:00:00.079Z</time>
      </trkpt>
      <trkpt lat="48.6209" lon="2.13466">
        <ele>168.4</ele>
        <time>2020-09-15T11:00:06.478Z</time>
      </trkpt>
      <trkpt lat="48.62094" lon="2.13475">
        <ele>166.7</ele>
        <time>2020-09-15T11:00:12.981Z</time>
      </trkpt>
      <trkpt lat="48.62099" lon="2.13483">
        <ele>158.4</ele>
        <time>2020-09-15T11:00:19.441Z</time>
      </trkpt>
      <trkpt lat="48.62104" lon="2.13492">
        <ele>161.5</ele>
        <time>2020-09-15T11:00:25.962Z</time>
      </trkpt>
      <trkpt lat="48.62108" lon="2.13502">
        <ele>158.2</ele>
        <time>2020-09-15T11:00:32.440Z</time>
      </trkpt>
      <trkpt lat="48.62113" lon="2.1351">
        <ele>161</ele>
        <time>2020-09-15T11:00:38.934Z</time>
      </trkpt>
      <trkpt lat="48.62119" lon="2.13519">
        <ele>159.9</ele>
        <time>2020-09-15T11:00:45.399Z</time>
      </trkpt>
      <trkpt lat="48.62126" lon="2.13527">
        <ele>158.8</ele>
        <time>2020-09-15T11:00:51.876Z</time>
      </trkpt>
      <trkpt lat="48.62132" lon="2.13538">
        <ele>158.7</ele>
        <time>2020-09-15T11:00:58.898Z</time>
      </trkpt>
      <trkpt lat="48.62135" lon="2.13543">
        <ele>157.4</ele>
        <time>2020-09-15T11:01:02.197Z</time>
      </trkpt>
      <trkpt lat="48.62138" lon="2.13549">
        <ele>156.9</ele>
        <time>2020-09-15T11:01:05.481Z</time>
      </trkpt>
      <trkpt lat="48.62144" lon="2.13557">
        <ele>159.6</ele>
        <time>2020-09-15T11:01:12.238Z</time>
      </trkpt>
      <trkpt lat="48.62148" lon="2.13566">
        <ele>159.2</ele>
        <time>2020-09-15T11:01:18.638Z</time>
      </trkpt>
      <trkpt lat="48.62149" lon="2.13576">
        <ele>159.4</ele>
        <time>2020-09-15T11:01:25.618Z</time>
      </trkpt>
      <trkpt lat="48.62145" lon="2.13571">
        <ele>163.1</ele>
        <time>2020-09-15T11:01:51.000Z</time>
      </trkpt>
    </trkseg>
  </trk>
</gpx>